<?xml version="1.0" encoding="UTF-8" standalone="no" ?>
<gpx xmlns="http://www.topografix.com/GPX/1/1" xmlns:xsi="http://www.w3.org/2001/XMLSchema-instance" xsi:schemaLocation="http://www.topografix.com/GPX/1/1 http://www.topografix.com/GPX/1/1/gpx.xsd" version="1.1" creator="VisuGPX - https://www.visugpx.com">
  <metadata>
    <name>CAF Chalon 27_02-2016</name>
    <desc><![CDATA[Vtt départ Mellecey, crois de Teu, Montabon, stèle du jaguar]]></desc>
  </metadata>
  <trk>
    <name><![CDATA[ACTIVE LOG]]></name>
    <trkseg>
      <trkpt lat="46.80598" lon="4.73981">
        <ele>226.0471191</ele>
        <time>2016-02-27T13:06:17Z</time>
      </trkpt>
      <trkpt lat="46.80596" lon="4.73987">
        <ele>227.0085449</ele>
        <time>2016-02-27T13:06:55Z</time>
      </trkpt>
      <trkpt lat="46.80613" lon="4.7404">
        <ele>229.4117432</ele>
        <time>2016-02-27T13:07:10Z</time>
      </trkpt>
      <trkpt lat="46.80617" lon="4.74052">
        <ele>230.8537598</ele>
        <time>2016-02-27T13:07:13Z</time>
      </trkpt>
      <trkpt lat="46.80622" lon="4.74059">
        <ele>232.2957764</ele>
        <time>2016-02-27T13:07:15Z</time>
      </trkpt>
      <trkpt lat="46.80636" lon="4.74094">
        <ele>235.6602783</ele>
        <time>2016-02-27T13:07:24Z</time>
      </trkpt>
      <trkpt lat="46.80631" lon="4.74102">
        <ele>236.6217041</ele>
        <time>2016-02-27T13:07:26Z</time>
      </trkpt>
      <trkpt lat="46.80596" lon="4.74123">
        <ele>239.5054932</ele>
        <time>2016-02-27T13:07:35Z</time>
      </trkpt>
      <trkpt lat="46.80592" lon="4.74125">
        <ele>239.5054932</ele>
        <time>2016-02-27T13:07:36Z</time>
      </trkpt>
      <trkpt lat="46.8058" lon="4.74126">
        <ele>241.4282227</ele>
        <time>2016-02-27T13:07:39Z</time>
      </trkpt>
      <trkpt lat="46.80544" lon="4.74119">
        <ele>242.8702393</ele>
        <time>2016-02-27T13:07:47Z</time>
      </trkpt>
      <trkpt lat="46.80477" lon="4.74106">
        <ele>245.2734375</ele>
        <time>2016-02-27T13:08:05Z</time>
      </trkpt>
      <trkpt lat="46.80446" lon="4.74098">
        <ele>248.1575928</ele>
        <time>2016-02-27T13:08:15Z</time>
      </trkpt>
      <trkpt lat="46.80412" lon="4.74093">
        <ele>251.5220947</ele>
        <time>2016-02-27T13:08:26Z</time>
      </trkpt>
      <trkpt lat="46.80368" lon="4.74133">
        <ele>254.4060059</ele>
        <time>2016-02-27T13:08:43Z</time>
      </trkpt>
      <trkpt lat="46.80317" lon="4.74167">
        <ele>253.925415</ele>
        <time>2016-02-27T13:09:01Z</time>
      </trkpt>
      <trkpt lat="46.80315" lon="4.74166">
        <ele>253.925415</ele>
        <time>2016-02-27T13:09:02Z</time>
      </trkpt>
      <trkpt lat="46.80303" lon="4.74167">
        <ele>253.925415</ele>
        <time>2016-02-27T13:09:13Z</time>
      </trkpt>
      <trkpt lat="46.803" lon="4.74165">
        <ele>254.4060059</ele>
        <time>2016-02-27T13:09:30Z</time>
      </trkpt>
      <trkpt lat="46.80311" lon="4.74171">
        <ele>253.925415</ele>
        <time>2016-02-27T13:09:37Z</time>
      </trkpt>
      <trkpt lat="46.80318" lon="4.74169">
        <ele>253.4447021</ele>
        <time>2016-02-27T13:09:55Z</time>
      </trkpt>
      <trkpt lat="46.80314" lon="4.74166">
        <ele>253.925415</ele>
        <time>2016-02-27T13:10:00Z</time>
      </trkpt>
      <trkpt lat="46.80307" lon="4.74167">
        <ele>254.4060059</ele>
        <time>2016-02-27T13:10:02Z</time>
      </trkpt>
      <trkpt lat="46.80301" lon="4.74155">
        <ele>255.3673096</ele>
        <time>2016-02-27T13:10:06Z</time>
      </trkpt>
      <trkpt lat="46.80302" lon="4.74148">
        <ele>255.8480225</ele>
        <time>2016-02-27T13:10:08Z</time>
      </trkpt>
      <trkpt lat="46.80296" lon="4.74132">
        <ele>256.8093262</ele>
        <time>2016-02-27T13:10:12Z</time>
      </trkpt>
      <trkpt lat="46.8026" lon="4.74105">
        <ele>260.1739502</ele>
        <time>2016-02-27T13:10:25Z</time>
      </trkpt>
      <trkpt lat="46.80222" lon="4.74078">
        <ele>263.5385742</ele>
        <time>2016-02-27T13:10:40Z</time>
      </trkpt>
      <trkpt lat="46.80191" lon="4.74047">
        <ele>266.9031982</ele>
        <time>2016-02-27T13:10:54Z</time>
      </trkpt>
      <trkpt lat="46.80165" lon="4.74026">
        <ele>269.7871094</ele>
        <time>2016-02-27T13:11:05Z</time>
      </trkpt>
      <trkpt lat="46.80138" lon="4.74001">
        <ele>273.1518555</ele>
        <time>2016-02-27T13:11:20Z</time>
      </trkpt>
      <trkpt lat="46.80107" lon="4.73969">
        <ele>276.5163574</ele>
        <time>2016-02-27T13:11:39Z</time>
      </trkpt>
      <trkpt lat="46.80053" lon="4.73937">
        <ele>278.9196777</ele>
        <time>2016-02-27T13:12:04Z</time>
      </trkpt>
      <trkpt lat="46.8002" lon="4.73912">
        <ele>282.2843018</ele>
        <time>2016-02-27T13:12:21Z</time>
      </trkpt>
      <trkpt lat="46.79986" lon="4.73888">
        <ele>285.1682129</ele>
        <time>2016-02-27T13:12:38Z</time>
      </trkpt>
      <trkpt lat="46.79955" lon="4.73865">
        <ele>288.532959</ele>
        <time>2016-02-27T13:12:52Z</time>
      </trkpt>
      <trkpt lat="46.79929" lon="4.73846">
        <ele>291.416748</ele>
        <time>2016-02-27T13:13:03Z</time>
      </trkpt>
      <trkpt lat="46.79896" lon="4.73817">
        <ele>293.8200684</ele>
        <time>2016-02-27T13:13:18Z</time>
      </trkpt>
      <trkpt lat="46.79858" lon="4.738">
        <ele>296.2235107</ele>
        <time>2016-02-27T13:13:38Z</time>
      </trkpt>
      <trkpt lat="46.79858" lon="4.73802">
        <ele>295.7426758</ele>
        <time>2016-02-27T13:14:02Z</time>
      </trkpt>
      <trkpt lat="46.79858" lon="4.73802">
        <ele>296.2235107</ele>
        <time>2016-02-27T13:14:23Z</time>
      </trkpt>
      <trkpt lat="46.7985" lon="4.73834">
        <ele>294.3007813</ele>
        <time>2016-02-27T13:14:33Z</time>
      </trkpt>
      <trkpt lat="46.7985" lon="4.73839">
        <ele>293.3393555</ele>
        <time>2016-02-27T13:14:34Z</time>
      </trkpt>
      <trkpt lat="46.79847" lon="4.73851">
        <ele>292.3781738</ele>
        <time>2016-02-27T13:14:37Z</time>
      </trkpt>
      <trkpt lat="46.79848" lon="4.73862">
        <ele>289.9748535</ele>
        <time>2016-02-27T13:14:41Z</time>
      </trkpt>
      <trkpt lat="46.79848" lon="4.73864">
        <ele>289.0135498</ele>
        <time>2016-02-27T13:14:42Z</time>
      </trkpt>
      <trkpt lat="46.79842" lon="4.73868">
        <ele>288.0522461</ele>
        <time>2016-02-27T13:14:45Z</time>
      </trkpt>
      <trkpt lat="46.79828" lon="4.73865">
        <ele>288.532959</ele>
        <time>2016-02-27T13:14:51Z</time>
      </trkpt>
      <trkpt lat="46.79789" lon="4.73844">
        <ele>291.416748</ele>
        <time>2016-02-27T13:15:09Z</time>
      </trkpt>
      <trkpt lat="46.79767" lon="4.73838">
        <ele>292.8587646</ele>
        <time>2016-02-27T13:15:18Z</time>
      </trkpt>
      <trkpt lat="46.79751" lon="4.73899">
        <ele>290.4555664</ele>
        <time>2016-02-27T13:15:29Z</time>
      </trkpt>
      <trkpt lat="46.79749" lon="4.7391">
        <ele>290.4555664</ele>
        <time>2016-02-27T13:15:30Z</time>
      </trkpt>
      <trkpt lat="46.79745" lon="4.73932">
        <ele>288.0522461</ele>
        <time>2016-02-27T13:15:32Z</time>
      </trkpt>
      <trkpt lat="46.79735" lon="4.73972">
        <ele>286.6102295</ele>
        <time>2016-02-27T13:15:36Z</time>
      </trkpt>
      <trkpt lat="46.79728" lon="4.73984">
        <ele>285.1682129</ele>
        <time>2016-02-27T13:15:39Z</time>
      </trkpt>
      <trkpt lat="46.79717" lon="4.73979">
        <ele>285.1682129</ele>
        <time>2016-02-27T13:15:44Z</time>
      </trkpt>
      <trkpt lat="46.79683" lon="4.73953">
        <ele>288.532959</ele>
        <time>2016-02-27T13:15:59Z</time>
      </trkpt>
      <trkpt lat="46.79656" lon="4.73935">
        <ele>291.8974609</ele>
        <time>2016-02-27T13:16:11Z</time>
      </trkpt>
      <trkpt lat="46.79628" lon="4.73918">
        <ele>295.2619629</ele>
        <time>2016-02-27T13:16:24Z</time>
      </trkpt>
      <trkpt lat="46.79624" lon="4.73915">
        <ele>296.2235107</ele>
        <time>2016-02-27T13:16:26Z</time>
      </trkpt>
      <trkpt lat="46.79602" lon="4.73894">
        <ele>299.1072998</ele>
        <time>2016-02-27T13:16:38Z</time>
      </trkpt>
      <trkpt lat="46.79572" lon="4.7386">
        <ele>302.4719238</ele>
        <time>2016-02-27T13:16:54Z</time>
      </trkpt>
      <trkpt lat="46.79549" lon="4.73828">
        <ele>305.8366699</ele>
        <time>2016-02-27T13:17:08Z</time>
      </trkpt>
      <trkpt lat="46.79542" lon="4.73822">
        <ele>306.7978516</ele>
        <time>2016-02-27T13:17:12Z</time>
      </trkpt>
      <trkpt lat="46.79531" lon="4.73812">
        <ele>309.6818848</ele>
        <time>2016-02-27T13:17:25Z</time>
      </trkpt>
      <trkpt lat="46.7953" lon="4.73813">
        <ele>309.2011719</ele>
        <time>2016-02-27T13:17:30Z</time>
      </trkpt>
      <trkpt lat="46.79511" lon="4.73813">
        <ele>312.0852051</ele>
        <time>2016-02-27T13:17:46Z</time>
      </trkpt>
      <trkpt lat="46.79505" lon="4.73817">
        <ele>314.0078125</ele>
        <time>2016-02-27T13:18:04Z</time>
      </trkpt>
      <trkpt lat="46.79487" lon="4.73826">
        <ele>315.9304199</ele>
        <time>2016-02-27T13:18:41Z</time>
      </trkpt>
      <trkpt lat="46.79467" lon="4.73827">
        <ele>318.3336182</ele>
        <time>2016-02-27T13:18:50Z</time>
      </trkpt>
      <trkpt lat="46.79459" lon="4.73821">
        <ele>318.8143311</ele>
        <time>2016-02-27T13:18:55Z</time>
      </trkpt>
      <trkpt lat="46.7945" lon="4.73813">
        <ele>319.7756348</ele>
        <time>2016-02-27T13:19:01Z</time>
      </trkpt>
      <trkpt lat="46.7945" lon="4.73794">
        <ele>320.2563477</ele>
        <time>2016-02-27T13:19:08Z</time>
      </trkpt>
      <trkpt lat="46.79443" lon="4.73783">
        <ele>321.2177734</ele>
        <time>2016-02-27T13:19:13Z</time>
      </trkpt>
      <trkpt lat="46.79447" lon="4.73769">
        <ele>320.2563477</ele>
        <time>2016-02-27T13:19:18Z</time>
      </trkpt>
      <trkpt lat="46.79464" lon="4.73721">
        <ele>321.2177734</ele>
        <time>2016-02-27T13:19:36Z</time>
      </trkpt>
      <trkpt lat="46.79468" lon="4.73698">
        <ele>322.1789551</ele>
        <time>2016-02-27T13:19:46Z</time>
      </trkpt>
      <trkpt lat="46.79471" lon="4.73688">
        <ele>322.659668</ele>
        <time>2016-02-27T13:19:53Z</time>
      </trkpt>
      <trkpt lat="46.7947" lon="4.7368">
        <ele>322.659668</ele>
        <time>2016-02-27T13:19:58Z</time>
      </trkpt>
      <trkpt lat="46.79478" lon="4.73633">
        <ele>326.9855957</ele>
        <time>2016-02-27T13:20:14Z</time>
      </trkpt>
      <trkpt lat="46.79477" lon="4.736">
        <ele>330.3502197</ele>
        <time>2016-02-27T13:20:25Z</time>
      </trkpt>
      <trkpt lat="46.79463" lon="4.73553">
        <ele>333.2341309</ele>
        <time>2016-02-27T13:20:41Z</time>
      </trkpt>
      <trkpt lat="46.79434" lon="4.73508">
        <ele>336.598877</ele>
        <time>2016-02-27T13:20:58Z</time>
      </trkpt>
      <trkpt lat="46.79394" lon="4.73462">
        <ele>339.482666</ele>
        <time>2016-02-27T13:21:21Z</time>
      </trkpt>
      <trkpt lat="46.79387" lon="4.7345">
        <ele>339.9633789</ele>
        <time>2016-02-27T13:21:32Z</time>
      </trkpt>
      <trkpt lat="46.79389" lon="4.73442">
        <ele>339.9633789</ele>
        <time>2016-02-27T13:21:37Z</time>
      </trkpt>
      <trkpt lat="46.79392" lon="4.73376">
        <ele>342.3666992</ele>
        <time>2016-02-27T13:21:53Z</time>
      </trkpt>
      <trkpt lat="46.79402" lon="4.73305">
        <ele>341.8859863</ele>
        <time>2016-02-27T13:22:07Z</time>
      </trkpt>
      <trkpt lat="46.79413" lon="4.73274">
        <ele>338.5214844</ele>
        <time>2016-02-27T13:22:11Z</time>
      </trkpt>
      <trkpt lat="46.7941" lon="4.73261">
        <ele>337.5600586</ele>
        <time>2016-02-27T13:22:13Z</time>
      </trkpt>
      <trkpt lat="46.79408" lon="4.73246">
        <ele>337.0794678</ele>
        <time>2016-02-27T13:22:17Z</time>
      </trkpt>
      <trkpt lat="46.79408" lon="4.73216">
        <ele>335.6373291</ele>
        <time>2016-02-27T13:22:22Z</time>
      </trkpt>
      <trkpt lat="46.79399" lon="4.73183">
        <ele>336.1181641</ele>
        <time>2016-02-27T13:22:27Z</time>
      </trkpt>
      <trkpt lat="46.79368" lon="4.7315">
        <ele>336.598877</ele>
        <time>2016-02-27T13:22:32Z</time>
      </trkpt>
      <trkpt lat="46.79374" lon="4.7312">
        <ele>333.2341309</ele>
        <time>2016-02-27T13:22:40Z</time>
      </trkpt>
      <trkpt lat="46.79381" lon="4.73096">
        <ele>330.3502197</ele>
        <time>2016-02-27T13:22:45Z</time>
      </trkpt>
      <trkpt lat="46.79391" lon="4.73073">
        <ele>328.4276123</ele>
        <time>2016-02-27T13:22:49Z</time>
      </trkpt>
      <trkpt lat="46.79398" lon="4.73066">
        <ele>327.9467773</ele>
        <time>2016-02-27T13:22:51Z</time>
      </trkpt>
      <trkpt lat="46.79419" lon="4.73047">
        <ele>324.1015625</ele>
        <time>2016-02-27T13:22:56Z</time>
      </trkpt>
      <trkpt lat="46.79426" lon="4.73041">
        <ele>322.1789551</ele>
        <time>2016-02-27T13:22:58Z</time>
      </trkpt>
      <trkpt lat="46.79429" lon="4.73034">
        <ele>320.7370605</ele>
        <time>2016-02-27T13:23:00Z</time>
      </trkpt>
      <trkpt lat="46.7943" lon="4.7303">
        <ele>318.8143311</ele>
        <time>2016-02-27T13:23:01Z</time>
      </trkpt>
      <trkpt lat="46.7944" lon="4.7302">
        <ele>316.4110107</ele>
        <time>2016-02-27T13:23:03Z</time>
      </trkpt>
      <trkpt lat="46.7945" lon="4.73013">
        <ele>314.4884033</ele>
        <time>2016-02-27T13:23:05Z</time>
      </trkpt>
      <trkpt lat="46.79459" lon="4.73005">
        <ele>312.0852051</ele>
        <time>2016-02-27T13:23:07Z</time>
      </trkpt>
      <trkpt lat="46.79463" lon="4.72998">
        <ele>310.6430664</ele>
        <time>2016-02-27T13:23:08Z</time>
      </trkpt>
      <trkpt lat="46.79472" lon="4.72978">
        <ele>307.2785645</ele>
        <time>2016-02-27T13:23:11Z</time>
      </trkpt>
      <trkpt lat="46.79473" lon="4.72973">
        <ele>307.2785645</ele>
        <time>2016-02-27T13:23:12Z</time>
      </trkpt>
      <trkpt lat="46.79476" lon="4.72966">
        <ele>305.8366699</ele>
        <time>2016-02-27T13:23:14Z</time>
      </trkpt>
      <trkpt lat="46.79489" lon="4.72943">
        <ele>301.5106201</ele>
        <time>2016-02-27T13:23:18Z</time>
      </trkpt>
      <trkpt lat="46.79499" lon="4.72931">
        <ele>301.5106201</ele>
        <time>2016-02-27T13:23:19Z</time>
      </trkpt>
      <trkpt lat="46.7951" lon="4.72918">
        <ele>299.5880127</ele>
        <time>2016-02-27T13:23:21Z</time>
      </trkpt>
      <trkpt lat="46.79514" lon="4.72912">
        <ele>296.7041016</ele>
        <time>2016-02-27T13:23:22Z</time>
      </trkpt>
      <trkpt lat="46.79518" lon="4.72907">
        <ele>296.7041016</ele>
        <time>2016-02-27T13:23:23Z</time>
      </trkpt>
      <trkpt lat="46.7953" lon="4.72897">
        <ele>292.3781738</ele>
        <time>2016-02-27T13:23:25Z</time>
      </trkpt>
      <trkpt lat="46.79534" lon="4.72892">
        <ele>292.3781738</ele>
        <time>2016-02-27T13:23:26Z</time>
      </trkpt>
      <trkpt lat="46.79542" lon="4.72886">
        <ele>290.9361572</ele>
        <time>2016-02-27T13:23:28Z</time>
      </trkpt>
      <trkpt lat="46.79549" lon="4.72878">
        <ele>289.4941406</ele>
        <time>2016-02-27T13:23:30Z</time>
      </trkpt>
      <trkpt lat="46.79557" lon="4.72868">
        <ele>286.6102295</ele>
        <time>2016-02-27T13:23:33Z</time>
      </trkpt>
      <trkpt lat="46.79559" lon="4.72864">
        <ele>285.6488037</ele>
        <time>2016-02-27T13:24:08Z</time>
      </trkpt>
      <trkpt lat="46.79559" lon="4.72864">
        <ele>287.0908203</ele>
        <time>2016-02-27T13:26:01Z</time>
      </trkpt>
      <trkpt lat="46.79555" lon="4.72847">
        <ele>287.5714111</ele>
        <time>2016-02-27T13:26:07Z</time>
      </trkpt>
      <trkpt lat="46.79521" lon="4.72814">
        <ele>291.416748</ele>
        <time>2016-02-27T13:26:20Z</time>
      </trkpt>
      <trkpt lat="46.79497" lon="4.72801">
        <ele>294.3007813</ele>
        <time>2016-02-27T13:26:32Z</time>
      </trkpt>
      <trkpt lat="46.79489" lon="4.72764">
        <ele>293.8200684</ele>
        <time>2016-02-27T13:26:43Z</time>
      </trkpt>
      <trkpt lat="46.79475" lon="4.72743">
        <ele>294.7813721</ele>
        <time>2016-02-27T13:26:50Z</time>
      </trkpt>
      <trkpt lat="46.79469" lon="4.72709">
        <ele>291.8974609</ele>
        <time>2016-02-27T13:26:55Z</time>
      </trkpt>
      <trkpt lat="46.79468" lon="4.72698">
        <ele>290.4555664</ele>
        <time>2016-02-27T13:26:57Z</time>
      </trkpt>
      <trkpt lat="46.79461" lon="4.72683">
        <ele>288.532959</ele>
        <time>2016-02-27T13:26:59Z</time>
      </trkpt>
      <trkpt lat="46.79458" lon="4.72662">
        <ele>287.0908203</ele>
        <time>2016-02-27T13:27:01Z</time>
      </trkpt>
      <trkpt lat="46.79458" lon="4.72645">
        <ele>283.7261963</ele>
        <time>2016-02-27T13:27:03Z</time>
      </trkpt>
      <trkpt lat="46.79459" lon="4.72632">
        <ele>283.7261963</ele>
        <time>2016-02-27T13:27:04Z</time>
      </trkpt>
      <trkpt lat="46.7946" lon="4.72622">
        <ele>282.2843018</ele>
        <time>2016-02-27T13:27:05Z</time>
      </trkpt>
      <trkpt lat="46.79462" lon="4.7259">
        <ele>280.8424072</ele>
        <time>2016-02-27T13:27:08Z</time>
      </trkpt>
      <trkpt lat="46.79463" lon="4.72582">
        <ele>278.9196777</ele>
        <time>2016-02-27T13:27:09Z</time>
      </trkpt>
      <trkpt lat="46.79467" lon="4.72567">
        <ele>276.9970703</ele>
        <time>2016-02-27T13:27:11Z</time>
      </trkpt>
      <trkpt lat="46.79469" lon="4.72561">
        <ele>276.0356445</ele>
        <time>2016-02-27T13:27:12Z</time>
      </trkpt>
      <trkpt lat="46.79477" lon="4.72545">
        <ele>274.1130371</ele>
        <time>2016-02-27T13:27:14Z</time>
      </trkpt>
      <trkpt lat="46.79487" lon="4.72525">
        <ele>271.229126</ele>
        <time>2016-02-27T13:27:17Z</time>
      </trkpt>
      <trkpt lat="46.79497" lon="4.72513">
        <ele>270.7484131</ele>
        <time>2016-02-27T13:27:20Z</time>
      </trkpt>
      <trkpt lat="46.79497" lon="4.72505">
        <ele>269.3065186</ele>
        <time>2016-02-27T13:27:22Z</time>
      </trkpt>
      <trkpt lat="46.79494" lon="4.72501">
        <ele>268.3450928</ele>
        <time>2016-02-27T13:27:24Z</time>
      </trkpt>
      <trkpt lat="46.79492" lon="4.72499">
        <ele>268.3450928</ele>
        <time>2016-02-27T13:27:26Z</time>
      </trkpt>
      <trkpt lat="46.79489" lon="4.72498">
        <ele>268.3450928</ele>
        <time>2016-02-27T13:27:48Z</time>
      </trkpt>
      <trkpt lat="46.79489" lon="4.72497">
        <ele>268.3450928</ele>
        <time>2016-02-27T13:28:19Z</time>
      </trkpt>
      <trkpt lat="46.79458" lon="4.72455">
        <ele>270.7484131</ele>
        <time>2016-02-27T13:28:35Z</time>
      </trkpt>
      <trkpt lat="46.79447" lon="4.7241">
        <ele>273.1518555</ele>
        <time>2016-02-27T13:28:46Z</time>
      </trkpt>
      <trkpt lat="46.7944" lon="4.72398">
        <ele>273.1518555</ele>
        <time>2016-02-27T13:28:48Z</time>
      </trkpt>
      <trkpt lat="46.7943" lon="4.72366">
        <ele>274.1130371</ele>
        <time>2016-02-27T13:28:54Z</time>
      </trkpt>
      <trkpt lat="46.79416" lon="4.72337">
        <ele>276.5163574</ele>
        <time>2016-02-27T13:29:02Z</time>
      </trkpt>
      <trkpt lat="46.79395" lon="4.72312">
        <ele>280.3616943</ele>
        <time>2016-02-27T13:29:12Z</time>
      </trkpt>
      <trkpt lat="46.79378" lon="4.7229">
        <ele>283.7261963</ele>
        <time>2016-02-27T13:29:22Z</time>
      </trkpt>
      <trkpt lat="46.79364" lon="4.72273">
        <ele>286.6102295</ele>
        <time>2016-02-27T13:29:31Z</time>
      </trkpt>
      <trkpt lat="46.7936" lon="4.72263">
        <ele>288.0522461</ele>
        <time>2016-02-27T13:29:35Z</time>
      </trkpt>
      <trkpt lat="46.79343" lon="4.72249">
        <ele>290.9361572</ele>
        <time>2016-02-27T13:29:46Z</time>
      </trkpt>
      <trkpt lat="46.79324" lon="4.72229">
        <ele>294.3007813</ele>
        <time>2016-02-27T13:30:00Z</time>
      </trkpt>
      <trkpt lat="46.79323" lon="4.72227">
        <ele>294.3007813</ele>
        <time>2016-02-27T13:30:01Z</time>
      </trkpt>
      <trkpt lat="46.79323" lon="4.7222">
        <ele>295.7426758</ele>
        <time>2016-02-27T13:30:04Z</time>
      </trkpt>
      <trkpt lat="46.79322" lon="4.72215">
        <ele>296.2235107</ele>
        <time>2016-02-27T13:30:06Z</time>
      </trkpt>
      <trkpt lat="46.79321" lon="4.72198">
        <ele>298.1461182</ele>
        <time>2016-02-27T13:30:14Z</time>
      </trkpt>
      <trkpt lat="46.79318" lon="4.72167">
        <ele>301.991333</ele>
        <time>2016-02-27T13:30:26Z</time>
      </trkpt>
      <trkpt lat="46.79311" lon="4.72132">
        <ele>305.355957</ele>
        <time>2016-02-27T13:30:41Z</time>
      </trkpt>
      <trkpt lat="46.79311" lon="4.7213">
        <ele>305.355957</ele>
        <time>2016-02-27T13:30:42Z</time>
      </trkpt>
      <trkpt lat="46.79298" lon="4.72109">
        <ele>308.720459</ele>
        <time>2016-02-27T13:30:53Z</time>
      </trkpt>
      <trkpt lat="46.79283" lon="4.72097">
        <ele>312.0852051</ele>
        <time>2016-02-27T13:31:04Z</time>
      </trkpt>
      <trkpt lat="46.79271" lon="4.72086">
        <ele>313.5272217</ele>
        <time>2016-02-27T13:31:12Z</time>
      </trkpt>
      <trkpt lat="46.79259" lon="4.72067">
        <ele>315.9304199</ele>
        <time>2016-02-27T13:31:22Z</time>
      </trkpt>
      <trkpt lat="46.79236" lon="4.72051">
        <ele>319.2950439</ele>
        <time>2016-02-27T13:31:37Z</time>
      </trkpt>
      <trkpt lat="46.79213" lon="4.72045">
        <ele>322.659668</ele>
        <time>2016-02-27T13:31:50Z</time>
      </trkpt>
      <trkpt lat="46.7919" lon="4.72042">
        <ele>326.0241699</ele>
        <time>2016-02-27T13:32:03Z</time>
      </trkpt>
      <trkpt lat="46.79165" lon="4.72039">
        <ele>329.388916</ele>
        <time>2016-02-27T13:32:17Z</time>
      </trkpt>
      <trkpt lat="46.79143" lon="4.72031">
        <ele>332.75354</ele>
        <time>2016-02-27T13:32:30Z</time>
      </trkpt>
      <trkpt lat="46.79127" lon="4.72028">
        <ele>335.1567383</ele>
        <time>2016-02-27T13:32:40Z</time>
      </trkpt>
      <trkpt lat="46.79103" lon="4.72027">
        <ele>339.0020752</ele>
        <time>2016-02-27T13:32:53Z</time>
      </trkpt>
      <trkpt lat="46.79101" lon="4.72027">
        <ele>339.0020752</ele>
        <time>2016-02-27T13:32:54Z</time>
      </trkpt>
      <trkpt lat="46.79077" lon="4.7203">
        <ele>342.3666992</ele>
        <time>2016-02-27T13:33:08Z</time>
      </trkpt>
      <trkpt lat="46.79051" lon="4.72016">
        <ele>345.7313232</ele>
        <time>2016-02-27T13:33:23Z</time>
      </trkpt>
      <trkpt lat="46.79036" lon="4.71995">
        <ele>347.6539307</ele>
        <time>2016-02-27T13:33:34Z</time>
      </trkpt>
      <trkpt lat="46.79027" lon="4.71991">
        <ele>349.0958252</ele>
        <time>2016-02-27T13:33:39Z</time>
      </trkpt>
      <trkpt lat="46.79024" lon="4.71991">
        <ele>349.5765381</ele>
        <time>2016-02-27T13:33:41Z</time>
      </trkpt>
      <trkpt lat="46.79" lon="4.71986">
        <ele>352.9411621</ele>
        <time>2016-02-27T13:33:56Z</time>
      </trkpt>
      <trkpt lat="46.78996" lon="4.71986">
        <ele>353.421875</ele>
        <time>2016-02-27T13:33:58Z</time>
      </trkpt>
      <trkpt lat="46.78972" lon="4.72005">
        <ele>356.786377</ele>
        <time>2016-02-27T13:34:15Z</time>
      </trkpt>
      <trkpt lat="46.78968" lon="4.72006">
        <ele>357.7478027</ele>
        <time>2016-02-27T13:34:17Z</time>
      </trkpt>
      <trkpt lat="46.78947" lon="4.72017">
        <ele>361.1124268</ele>
        <time>2016-02-27T13:34:30Z</time>
      </trkpt>
      <trkpt lat="46.78938" lon="4.72018">
        <ele>363.0350342</ele>
        <time>2016-02-27T13:34:41Z</time>
      </trkpt>
      <trkpt lat="46.78936" lon="4.72018">
        <ele>363.5157471</ele>
        <time>2016-02-27T13:34:43Z</time>
      </trkpt>
      <trkpt lat="46.78923" lon="4.7201">
        <ele>364.4769287</ele>
        <time>2016-02-27T13:34:52Z</time>
      </trkpt>
      <trkpt lat="46.78918" lon="4.72009">
        <ele>364.9576416</ele>
        <time>2016-02-27T13:34:55Z</time>
      </trkpt>
      <trkpt lat="46.78895" lon="4.71989">
        <ele>368.8029785</ele>
        <time>2016-02-27T13:35:14Z</time>
      </trkpt>
      <trkpt lat="46.78895" lon="4.71989">
        <ele>368.8029785</ele>
        <time>2016-02-27T13:35:41Z</time>
      </trkpt>
      <trkpt lat="46.78895" lon="4.7199">
        <ele>368.3222656</ele>
        <time>2016-02-27T13:37:38Z</time>
      </trkpt>
      <trkpt lat="46.78895" lon="4.71988">
        <ele>368.8029785</ele>
        <time>2016-02-27T13:38:45Z</time>
      </trkpt>
      <trkpt lat="46.7889" lon="4.71964">
        <ele>368.8029785</ele>
        <time>2016-02-27T13:38:55Z</time>
      </trkpt>
      <trkpt lat="46.78888" lon="4.71957">
        <ele>369.2836914</ele>
        <time>2016-02-27T13:38:59Z</time>
      </trkpt>
      <trkpt lat="46.78878" lon="4.719">
        <ele>370.7255859</ele>
        <time>2016-02-27T13:39:18Z</time>
      </trkpt>
      <trkpt lat="46.78877" lon="4.71887">
        <ele>371.2062988</ele>
        <time>2016-02-27T13:39:23Z</time>
      </trkpt>
      <trkpt lat="46.78873" lon="4.71844">
        <ele>372.6481934</ele>
        <time>2016-02-27T13:39:36Z</time>
      </trkpt>
      <trkpt lat="46.78863" lon="4.7179">
        <ele>374.0900879</ele>
        <time>2016-02-27T13:39:51Z</time>
      </trkpt>
      <trkpt lat="46.78847" lon="4.71761">
        <ele>376.9742432</ele>
        <time>2016-02-27T13:40:05Z</time>
      </trkpt>
      <trkpt lat="46.78841" lon="4.71759">
        <ele>377.454834</ele>
        <time>2016-02-27T13:40:08Z</time>
      </trkpt>
      <trkpt lat="46.78838" lon="4.71749">
        <ele>378.8968506</ele>
        <time>2016-02-27T13:40:12Z</time>
      </trkpt>
      <trkpt lat="46.78835" lon="4.71724">
        <ele>379.3774414</ele>
        <time>2016-02-27T13:40:24Z</time>
      </trkpt>
      <trkpt lat="46.78835" lon="4.71719">
        <ele>379.3774414</ele>
        <time>2016-02-27T13:40:27Z</time>
      </trkpt>
      <trkpt lat="46.78833" lon="4.71716">
        <ele>379.8580322</ele>
        <time>2016-02-27T13:40:29Z</time>
      </trkpt>
      <trkpt lat="46.78822" lon="4.71658">
        <ele>382.7420654</ele>
        <time>2016-02-27T13:40:47Z</time>
      </trkpt>
      <trkpt lat="46.78823" lon="4.71646">
        <ele>383.2226563</ele>
        <time>2016-02-27T13:40:50Z</time>
      </trkpt>
      <trkpt lat="46.7883" lon="4.71587">
        <ele>384.6647949</ele>
        <time>2016-02-27T13:41:04Z</time>
      </trkpt>
      <trkpt lat="46.78834" lon="4.71579">
        <ele>384.6647949</ele>
        <time>2016-02-27T13:41:06Z</time>
      </trkpt>
      <trkpt lat="46.78829" lon="4.71523">
        <ele>387.0679932</ele>
        <time>2016-02-27T13:41:20Z</time>
      </trkpt>
      <trkpt lat="46.78826" lon="4.71498">
        <ele>388.9906006</ele>
        <time>2016-02-27T13:41:28Z</time>
      </trkpt>
      <trkpt lat="46.78824" lon="4.71479">
        <ele>390.4326172</ele>
        <time>2016-02-27T13:41:35Z</time>
      </trkpt>
      <trkpt lat="46.78817" lon="4.71456">
        <ele>392.8359375</ele>
        <time>2016-02-27T13:41:44Z</time>
      </trkpt>
      <trkpt lat="46.78813" lon="4.71451">
        <ele>394.7585449</ele>
        <time>2016-02-27T13:41:48Z</time>
      </trkpt>
      <trkpt lat="46.78805" lon="4.71431">
        <ele>396.2005615</ele>
        <time>2016-02-27T13:41:57Z</time>
      </trkpt>
      <trkpt lat="46.78799" lon="4.71416">
        <ele>398.1231689</ele>
        <time>2016-02-27T13:42:04Z</time>
      </trkpt>
      <trkpt lat="46.78796" lon="4.71404">
        <ele>399.5650635</ele>
        <time>2016-02-27T13:42:09Z</time>
      </trkpt>
      <trkpt lat="46.78792" lon="4.7139">
        <ele>401.0070801</ele>
        <time>2016-02-27T13:42:15Z</time>
      </trkpt>
      <trkpt lat="46.78786" lon="4.71361">
        <ele>403.4104004</ele>
        <time>2016-02-27T13:42:27Z</time>
      </trkpt>
      <trkpt lat="46.78786" lon="4.71354">
        <ele>403.8911133</ele>
        <time>2016-02-27T13:42:30Z</time>
      </trkpt>
      <trkpt lat="46.78781" lon="4.71335">
        <ele>405.8137207</ele>
        <time>2016-02-27T13:42:38Z</time>
      </trkpt>
      <trkpt lat="46.78777" lon="4.7132">
        <ele>406.7749023</ele>
        <time>2016-02-27T13:42:44Z</time>
      </trkpt>
      <trkpt lat="46.78772" lon="4.7131">
        <ele>407.2556152</ele>
        <time>2016-02-27T13:42:48Z</time>
      </trkpt>
      <trkpt lat="46.7877" lon="4.71301">
        <ele>408.217041</ele>
        <time>2016-02-27T13:42:51Z</time>
      </trkpt>
      <trkpt lat="46.78768" lon="4.71287">
        <ele>409.1783447</ele>
        <time>2016-02-27T13:42:56Z</time>
      </trkpt>
      <trkpt lat="46.78768" lon="4.7128">
        <ele>409.1783447</ele>
        <time>2016-02-27T13:42:58Z</time>
      </trkpt>
      <trkpt lat="46.7877" lon="4.7127">
        <ele>409.6590576</ele>
        <time>2016-02-27T13:43:01Z</time>
      </trkpt>
      <trkpt lat="46.78766" lon="4.71254">
        <ele>409.6590576</ele>
        <time>2016-02-27T13:43:06Z</time>
      </trkpt>
      <trkpt lat="46.78753" lon="4.7118">
        <ele>412.0622559</ele>
        <time>2016-02-27T13:43:30Z</time>
      </trkpt>
      <trkpt lat="46.78749" lon="4.71129">
        <ele>414.4654541</ele>
        <time>2016-02-27T13:43:46Z</time>
      </trkpt>
      <trkpt lat="46.78756" lon="4.71071">
        <ele>414.946167</ele>
        <time>2016-02-27T13:44:01Z</time>
      </trkpt>
      <trkpt lat="46.78757" lon="4.71013">
        <ele>417.3496094</ele>
        <time>2016-02-27T13:44:17Z</time>
      </trkpt>
      <trkpt lat="46.78757" lon="4.71007">
        <ele>417.3496094</ele>
        <time>2016-02-27T13:44:19Z</time>
      </trkpt>
      <trkpt lat="46.78762" lon="4.70954">
        <ele>420.7141113</ele>
        <time>2016-02-27T13:44:37Z</time>
      </trkpt>
      <trkpt lat="46.78763" lon="4.70913">
        <ele>423.5980225</ele>
        <time>2016-02-27T13:44:52Z</time>
      </trkpt>
      <trkpt lat="46.7877" lon="4.70855">
        <ele>425.0401611</ele>
        <time>2016-02-27T13:45:11Z</time>
      </trkpt>
      <trkpt lat="46.78768" lon="4.70792">
        <ele>426.4820557</ele>
        <time>2016-02-27T13:45:30Z</time>
      </trkpt>
      <trkpt lat="46.78767" lon="4.70728">
        <ele>428.885376</ele>
        <time>2016-02-27T13:45:51Z</time>
      </trkpt>
      <trkpt lat="46.78763" lon="4.70727">
        <ele>430.3272705</ele>
        <time>2016-02-27T13:45:54Z</time>
      </trkpt>
      <trkpt lat="46.78759" lon="4.70726">
        <ele>429.8465576</ele>
        <time>2016-02-27T13:46:22Z</time>
      </trkpt>
      <trkpt lat="46.78759" lon="4.70726">
        <ele>430.8079834</ele>
        <time>2016-02-27T13:47:18Z</time>
      </trkpt>
      <trkpt lat="46.78757" lon="4.70726">
        <ele>430.3272705</ele>
        <time>2016-02-27T13:47:54Z</time>
      </trkpt>
      <trkpt lat="46.78759" lon="4.70727">
        <ele>430.8079834</ele>
        <time>2016-02-27T13:48:39Z</time>
      </trkpt>
      <trkpt lat="46.78762" lon="4.70727">
        <ele>430.3272705</ele>
        <time>2016-02-27T13:48:41Z</time>
      </trkpt>
      <trkpt lat="46.78773" lon="4.70726">
        <ele>429.8465576</ele>
        <time>2016-02-27T13:48:45Z</time>
      </trkpt>
      <trkpt lat="46.78831" lon="4.70668">
        <ele>429.3659668</ele>
        <time>2016-02-27T13:49:02Z</time>
      </trkpt>
      <trkpt lat="46.78915" lon="4.70619">
        <ele>426.0013428</ele>
        <time>2016-02-27T13:49:22Z</time>
      </trkpt>
      <trkpt lat="46.78924" lon="4.70616">
        <ele>426.0013428</ele>
        <time>2016-02-27T13:49:24Z</time>
      </trkpt>
      <trkpt lat="46.78957" lon="4.70613">
        <ele>424.5594482</ele>
        <time>2016-02-27T13:49:31Z</time>
      </trkpt>
      <trkpt lat="46.78971" lon="4.70615">
        <ele>424.0787354</ele>
        <time>2016-02-27T13:49:34Z</time>
      </trkpt>
      <trkpt lat="46.78996" lon="4.70622">
        <ele>421.675415</ele>
        <time>2016-02-27T13:49:39Z</time>
      </trkpt>
      <trkpt lat="46.79058" lon="4.70645">
        <ele>418.7915039</ele>
        <time>2016-02-27T13:49:50Z</time>
      </trkpt>
      <trkpt lat="46.79092" lon="4.70652">
        <ele>413.5042725</ele>
        <time>2016-02-27T13:49:55Z</time>
      </trkpt>
      <trkpt lat="46.791" lon="4.70652">
        <ele>413.5042725</ele>
        <time>2016-02-27T13:49:56Z</time>
      </trkpt>
      <trkpt lat="46.79122" lon="4.70656">
        <ele>412.5428467</ele>
        <time>2016-02-27T13:49:59Z</time>
      </trkpt>
      <trkpt lat="46.79149" lon="4.70675">
        <ele>410.1396484</ele>
        <time>2016-02-27T13:50:03Z</time>
      </trkpt>
      <trkpt lat="46.79176" lon="4.70698">
        <ele>408.217041</ele>
        <time>2016-02-27T13:50:07Z</time>
      </trkpt>
      <trkpt lat="46.79198" lon="4.70709">
        <ele>406.7749023</ele>
        <time>2016-02-27T13:50:10Z</time>
      </trkpt>
      <trkpt lat="46.79236" lon="4.70726">
        <ele>403.8911133</ele>
        <time>2016-02-27T13:50:15Z</time>
      </trkpt>
      <trkpt lat="46.79296" lon="4.70764">
        <ele>400.0458984</ele>
        <time>2016-02-27T13:50:23Z</time>
      </trkpt>
      <trkpt lat="46.79303" lon="4.70768">
        <ele>400.0458984</ele>
        <time>2016-02-27T13:50:24Z</time>
      </trkpt>
      <trkpt lat="46.79346" lon="4.70787">
        <ele>395.7198486</ele>
        <time>2016-02-27T13:50:30Z</time>
      </trkpt>
      <trkpt lat="46.79354" lon="4.70789">
        <ele>395.7198486</ele>
        <time>2016-02-27T13:50:31Z</time>
      </trkpt>
      <trkpt lat="46.79399" lon="4.70804">
        <ele>392.3553467</ele>
        <time>2016-02-27T13:50:37Z</time>
      </trkpt>
      <trkpt lat="46.79407" lon="4.70808">
        <ele>392.3553467</ele>
        <time>2016-02-27T13:50:38Z</time>
      </trkpt>
      <trkpt lat="46.79434" lon="4.7083">
        <ele>390.913208</ele>
        <time>2016-02-27T13:50:42Z</time>
      </trkpt>
      <trkpt lat="46.79457" lon="4.70842">
        <ele>387.548584</ele>
        <time>2016-02-27T13:50:45Z</time>
      </trkpt>
      <trkpt lat="46.79491" lon="4.7085">
        <ele>384.6647949</ele>
        <time>2016-02-27T13:50:49Z</time>
      </trkpt>
      <trkpt lat="46.79516" lon="4.70858">
        <ele>380.819458</ele>
        <time>2016-02-27T13:50:52Z</time>
      </trkpt>
      <trkpt lat="46.79532" lon="4.70866">
        <ele>379.8580322</ele>
        <time>2016-02-27T13:50:54Z</time>
      </trkpt>
      <trkpt lat="46.79544" lon="4.70878">
        <ele>377.9354248</ele>
        <time>2016-02-27T13:50:56Z</time>
      </trkpt>
      <trkpt lat="46.79549" lon="4.70884">
        <ele>376.0128174</ele>
        <time>2016-02-27T13:50:57Z</time>
      </trkpt>
      <trkpt lat="46.79564" lon="4.70893">
        <ele>373.1289063</ele>
        <time>2016-02-27T13:51:01Z</time>
      </trkpt>
      <trkpt lat="46.79565" lon="4.70893">
        <ele>372.1674805</ele>
        <time>2016-02-27T13:51:13Z</time>
      </trkpt>
      <trkpt lat="46.79572" lon="4.70894">
        <ele>372.1674805</ele>
        <time>2016-02-27T13:51:17Z</time>
      </trkpt>
      <trkpt lat="46.79594" lon="4.70904">
        <ele>371.6868896</ele>
        <time>2016-02-27T13:51:28Z</time>
      </trkpt>
      <trkpt lat="46.79605" lon="4.709">
        <ele>372.1674805</ele>
        <time>2016-02-27T13:51:32Z</time>
      </trkpt>
      <trkpt lat="46.79611" lon="4.709">
        <ele>371.2062988</ele>
        <time>2016-02-27T13:51:34Z</time>
      </trkpt>
      <trkpt lat="46.79617" lon="4.70892">
        <ele>370.7255859</ele>
        <time>2016-02-27T13:51:46Z</time>
      </trkpt>
      <trkpt lat="46.79617" lon="4.70892">
        <ele>371.2062988</ele>
        <time>2016-02-27T13:52:56Z</time>
      </trkpt>
      <trkpt lat="46.79615" lon="4.70861">
        <ele>369.7642822</ele>
        <time>2016-02-27T13:53:03Z</time>
      </trkpt>
      <trkpt lat="46.79602" lon="4.70846">
        <ele>368.8029785</ele>
        <time>2016-02-27T13:53:08Z</time>
      </trkpt>
      <trkpt lat="46.79593" lon="4.70836">
        <ele>366.880249</ele>
        <time>2016-02-27T13:53:12Z</time>
      </trkpt>
      <trkpt lat="46.79589" lon="4.70819">
        <ele>364.9576416</ele>
        <time>2016-02-27T13:53:15Z</time>
      </trkpt>
      <trkpt lat="46.79589" lon="4.70811">
        <ele>363.5157471</ele>
        <time>2016-02-27T13:53:16Z</time>
      </trkpt>
      <trkpt lat="46.79594" lon="4.70776">
        <ele>358.7089844</ele>
        <time>2016-02-27T13:53:20Z</time>
      </trkpt>
      <trkpt lat="46.79595" lon="4.70768">
        <ele>354.8637695</ele>
        <time>2016-02-27T13:53:21Z</time>
      </trkpt>
      <trkpt lat="46.79596" lon="4.70761">
        <ele>354.8637695</ele>
        <time>2016-02-27T13:53:22Z</time>
      </trkpt>
      <trkpt lat="46.79599" lon="4.70749">
        <ele>352.4605713</ele>
        <time>2016-02-27T13:53:24Z</time>
      </trkpt>
      <trkpt lat="46.79603" lon="4.70735">
        <ele>348.1346436</ele>
        <time>2016-02-27T13:53:26Z</time>
      </trkpt>
      <trkpt lat="46.79605" lon="4.70728">
        <ele>348.1346436</ele>
        <time>2016-02-27T13:53:27Z</time>
      </trkpt>
      <trkpt lat="46.79609" lon="4.70715">
        <ele>345.2506104</ele>
        <time>2016-02-27T13:53:29Z</time>
      </trkpt>
      <trkpt lat="46.79615" lon="4.70706">
        <ele>342.84729</ele>
        <time>2016-02-27T13:53:31Z</time>
      </trkpt>
      <trkpt lat="46.79624" lon="4.70697">
        <ele>339.9633789</ele>
        <time>2016-02-27T13:53:34Z</time>
      </trkpt>
      <trkpt lat="46.7963" lon="4.7069">
        <ele>337.5600586</ele>
        <time>2016-02-27T13:53:36Z</time>
      </trkpt>
      <trkpt lat="46.79636" lon="4.70681">
        <ele>335.6373291</ele>
        <time>2016-02-27T13:53:38Z</time>
      </trkpt>
      <trkpt lat="46.79645" lon="4.70666">
        <ele>329.8695068</ele>
        <time>2016-02-27T13:53:40Z</time>
      </trkpt>
      <trkpt lat="46.7965" lon="4.70657">
        <ele>329.8695068</ele>
        <time>2016-02-27T13:53:41Z</time>
      </trkpt>
      <trkpt lat="46.79656" lon="4.70649">
        <ele>326.9855957</ele>
        <time>2016-02-27T13:53:43Z</time>
      </trkpt>
      <trkpt lat="46.79659" lon="4.70647">
        <ele>325.5435791</ele>
        <time>2016-02-27T13:53:45Z</time>
      </trkpt>
      <trkpt lat="46.7966" lon="4.70647">
        <ele>326.0241699</ele>
        <time>2016-02-27T13:53:46Z</time>
      </trkpt>
      <trkpt lat="46.79658" lon="4.70638">
        <ele>321.6983643</ele>
        <time>2016-02-27T13:53:49Z</time>
      </trkpt>
      <trkpt lat="46.79657" lon="4.70634">
        <ele>321.6983643</ele>
        <time>2016-02-27T13:53:50Z</time>
      </trkpt>
      <trkpt lat="46.79657" lon="4.7063">
        <ele>318.3336182</ele>
        <time>2016-02-27T13:53:51Z</time>
      </trkpt>
      <trkpt lat="46.79655" lon="4.70626">
        <ele>318.3336182</ele>
        <time>2016-02-27T13:53:52Z</time>
      </trkpt>
      <trkpt lat="46.79656" lon="4.70616">
        <ele>315.4498291</ele>
        <time>2016-02-27T13:53:54Z</time>
      </trkpt>
      <trkpt lat="46.79662" lon="4.70609">
        <ele>310.1624756</ele>
        <time>2016-02-27T13:53:56Z</time>
      </trkpt>
      <trkpt lat="46.79662" lon="4.70608">
        <ele>310.1624756</ele>
        <time>2016-02-27T13:53:57Z</time>
      </trkpt>
      <trkpt lat="46.79668" lon="4.70604">
        <ele>308.2398682</ele>
        <time>2016-02-27T13:54:10Z</time>
      </trkpt>
      <trkpt lat="46.79671" lon="4.70588">
        <ele>305.355957</ele>
        <time>2016-02-27T13:54:15Z</time>
      </trkpt>
      <trkpt lat="46.79673" lon="4.70581">
        <ele>302.4719238</ele>
        <time>2016-02-27T13:54:17Z</time>
      </trkpt>
      <trkpt lat="46.79677" lon="4.70577">
        <ele>302.4719238</ele>
        <time>2016-02-27T13:54:18Z</time>
      </trkpt>
      <trkpt lat="46.7968" lon="4.70569">
        <ele>301.0299072</ele>
        <time>2016-02-27T13:54:20Z</time>
      </trkpt>
      <trkpt lat="46.7968" lon="4.70562">
        <ele>298.626709</ele>
        <time>2016-02-27T13:54:22Z</time>
      </trkpt>
      <trkpt lat="46.79684" lon="4.70548">
        <ele>293.8200684</ele>
        <time>2016-02-27T13:54:24Z</time>
      </trkpt>
      <trkpt lat="46.79687" lon="4.70538">
        <ele>293.8200684</ele>
        <time>2016-02-27T13:54:25Z</time>
      </trkpt>
      <trkpt lat="46.79698" lon="4.70514">
        <ele>291.416748</ele>
        <time>2016-02-27T13:54:27Z</time>
      </trkpt>
      <trkpt lat="46.79704" lon="4.70503">
        <ele>289.9748535</ele>
        <time>2016-02-27T13:54:28Z</time>
      </trkpt>
      <trkpt lat="46.79723" lon="4.70478">
        <ele>287.0908203</ele>
        <time>2016-02-27T13:54:31Z</time>
      </trkpt>
      <trkpt lat="46.79729" lon="4.70471">
        <ele>283.2456055</ele>
        <time>2016-02-27T13:54:32Z</time>
      </trkpt>
      <trkpt lat="46.79738" lon="4.70465">
        <ele>281.8035889</ele>
        <time>2016-02-27T13:54:34Z</time>
      </trkpt>
      <trkpt lat="46.79743" lon="4.70469">
        <ele>280.3616943</ele>
        <time>2016-02-27T13:54:53Z</time>
      </trkpt>
      <trkpt lat="46.79743" lon="4.7047">
        <ele>280.8424072</ele>
        <time>2016-02-27T13:56:25Z</time>
      </trkpt>
      <trkpt lat="46.79775" lon="4.70504">
        <ele>281.322998</ele>
        <time>2016-02-27T13:56:40Z</time>
      </trkpt>
      <trkpt lat="46.79777" lon="4.70507">
        <ele>281.322998</ele>
        <time>2016-02-27T13:56:41Z</time>
      </trkpt>
      <trkpt lat="46.79788" lon="4.70499">
        <ele>280.3616943</ele>
        <time>2016-02-27T13:56:45Z</time>
      </trkpt>
      <trkpt lat="46.798" lon="4.70477">
        <ele>278.4389648</ele>
        <time>2016-02-27T13:56:48Z</time>
      </trkpt>
      <trkpt lat="46.79809" lon="4.7046">
        <ele>276.9970703</ele>
        <time>2016-02-27T13:56:50Z</time>
      </trkpt>
      <trkpt lat="46.79812" lon="4.70455">
        <ele>274.1130371</ele>
        <time>2016-02-27T13:56:51Z</time>
      </trkpt>
      <trkpt lat="46.79818" lon="4.70452">
        <ele>272.6711426</ele>
        <time>2016-02-27T13:56:53Z</time>
      </trkpt>
      <trkpt lat="46.79827" lon="4.70458">
        <ele>272.1904297</ele>
        <time>2016-02-27T13:56:56Z</time>
      </trkpt>
      <trkpt lat="46.79901" lon="4.70536">
        <ele>270.2677002</ele>
        <time>2016-02-27T13:57:16Z</time>
      </trkpt>
      <trkpt lat="46.79923" lon="4.70558">
        <ele>268.8258057</ele>
        <time>2016-02-27T13:57:22Z</time>
      </trkpt>
      <trkpt lat="46.79935" lon="4.70552">
        <ele>268.3450928</ele>
        <time>2016-02-27T13:57:26Z</time>
      </trkpt>
      <trkpt lat="46.79944" lon="4.70534">
        <ele>266.9031982</ele>
        <time>2016-02-27T13:57:29Z</time>
      </trkpt>
      <trkpt lat="46.79953" lon="4.70509">
        <ele>266.4224854</ele>
        <time>2016-02-27T13:57:32Z</time>
      </trkpt>
      <trkpt lat="46.79963" lon="4.7049">
        <ele>264.9805908</ele>
        <time>2016-02-27T13:57:34Z</time>
      </trkpt>
      <trkpt lat="46.79976" lon="4.7047">
        <ele>260.654541</ele>
        <time>2016-02-27T13:57:36Z</time>
      </trkpt>
      <trkpt lat="46.79983" lon="4.70458">
        <ele>260.654541</ele>
        <time>2016-02-27T13:57:37Z</time>
      </trkpt>
      <trkpt lat="46.79999" lon="4.70433">
        <ele>257.770752</ele>
        <time>2016-02-27T13:57:39Z</time>
      </trkpt>
      <trkpt lat="46.80016" lon="4.70407">
        <ele>255.3673096</ele>
        <time>2016-02-27T13:57:41Z</time>
      </trkpt>
      <trkpt lat="46.80024" lon="4.70396">
        <ele>252.0028076</ele>
        <time>2016-02-27T13:57:42Z</time>
      </trkpt>
      <trkpt lat="46.80031" lon="4.70385">
        <ele>252.0028076</ele>
        <time>2016-02-27T13:57:43Z</time>
      </trkpt>
      <trkpt lat="46.80039" lon="4.70374">
        <ele>248.6381836</ele>
        <time>2016-02-27T13:57:44Z</time>
      </trkpt>
      <trkpt lat="46.80054" lon="4.70351">
        <ele>245.7541504</ele>
        <time>2016-02-27T13:57:46Z</time>
      </trkpt>
      <trkpt lat="46.80066" lon="4.70332">
        <ele>243.3508301</ele>
        <time>2016-02-27T13:57:48Z</time>
      </trkpt>
      <trkpt lat="46.80077" lon="4.70314">
        <ele>240.467041</ele>
        <time>2016-02-27T13:57:50Z</time>
      </trkpt>
      <trkpt lat="46.80086" lon="4.703">
        <ele>237.1022949</ele>
        <time>2016-02-27T13:57:52Z</time>
      </trkpt>
      <trkpt lat="46.80089" lon="4.70295">
        <ele>237.1022949</ele>
        <time>2016-02-27T13:57:53Z</time>
      </trkpt>
      <trkpt lat="46.80092" lon="4.70292">
        <ele>235.1796875</ele>
        <time>2016-02-27T13:57:54Z</time>
      </trkpt>
      <trkpt lat="46.80116" lon="4.70329">
        <ele>235.6602783</ele>
        <time>2016-02-27T13:58:06Z</time>
      </trkpt>
      <trkpt lat="46.8015" lon="4.70384">
        <ele>239.0249023</ele>
        <time>2016-02-27T13:58:24Z</time>
      </trkpt>
      <trkpt lat="46.80181" lon="4.70431">
        <ele>240.9476318</ele>
        <time>2016-02-27T13:58:43Z</time>
      </trkpt>
      <trkpt lat="46.80211" lon="4.70476">
        <ele>240.9476318</ele>
        <time>2016-02-27T13:59:04Z</time>
      </trkpt>
      <trkpt lat="46.80212" lon="4.70477">
        <ele>240.467041</ele>
        <time>2016-02-27T13:59:21Z</time>
      </trkpt>
      <trkpt lat="46.80229" lon="4.70454">
        <ele>238.5443115</ele>
        <time>2016-02-27T13:59:30Z</time>
      </trkpt>
      <trkpt lat="46.8025" lon="4.70413">
        <ele>235.6602783</ele>
        <time>2016-02-27T13:59:35Z</time>
      </trkpt>
      <trkpt lat="46.80261" lon="4.70392">
        <ele>231.8149414</ele>
        <time>2016-02-27T13:59:37Z</time>
      </trkpt>
      <trkpt lat="46.80267" lon="4.70381">
        <ele>231.8149414</ele>
        <time>2016-02-27T13:59:38Z</time>
      </trkpt>
      <trkpt lat="46.80279" lon="4.70358">
        <ele>229.4117432</ele>
        <time>2016-02-27T13:59:40Z</time>
      </trkpt>
      <trkpt lat="46.80285" lon="4.70348">
        <ele>226.527832</ele>
        <time>2016-02-27T13:59:41Z</time>
      </trkpt>
      <trkpt lat="46.80291" lon="4.70338">
        <ele>226.527832</ele>
        <time>2016-02-27T13:59:42Z</time>
      </trkpt>
      <trkpt lat="46.80304" lon="4.70321">
        <ele>224.6052246</ele>
        <time>2016-02-27T13:59:44Z</time>
      </trkpt>
      <trkpt lat="46.80309" lon="4.70314">
        <ele>224.6052246</ele>
        <time>2016-02-27T13:59:45Z</time>
      </trkpt>
      <trkpt lat="46.80327" lon="4.70261">
        <ele>223.163208</ele>
        <time>2016-02-27T13:59:52Z</time>
      </trkpt>
      <trkpt lat="46.80344" lon="4.70237">
        <ele>222.6824951</ele>
        <time>2016-02-27T13:59:59Z</time>
      </trkpt>
      <trkpt lat="46.80358" lon="4.70248">
        <ele>223.163208</ele>
        <time>2016-02-27T14:00:04Z</time>
      </trkpt>
      <trkpt lat="46.80393" lon="4.70302">
        <ele>222.2017822</ele>
        <time>2016-02-27T14:00:18Z</time>
      </trkpt>
      <trkpt lat="46.80441" lon="4.7034">
        <ele>222.2017822</ele>
        <time>2016-02-27T14:00:33Z</time>
      </trkpt>
      <trkpt lat="46.80488" lon="4.70328">
        <ele>221.2406006</ele>
        <time>2016-02-27T14:00:47Z</time>
      </trkpt>
      <trkpt lat="46.80541" lon="4.70313">
        <ele>221.7211914</ele>
        <time>2016-02-27T14:01:05Z</time>
      </trkpt>
      <trkpt lat="46.80608" lon="4.70293">
        <ele>221.2406006</ele>
        <time>2016-02-27T14:01:28Z</time>
      </trkpt>
      <trkpt lat="46.80658" lon="4.70264">
        <ele>222.2017822</ele>
        <time>2016-02-27T14:01:47Z</time>
      </trkpt>
      <trkpt lat="46.80667" lon="4.70251">
        <ele>222.2017822</ele>
        <time>2016-02-27T14:02:01Z</time>
      </trkpt>
      <trkpt lat="46.80667" lon="4.70251">
        <ele>222.2017822</ele>
        <time>2016-02-27T14:02:11Z</time>
      </trkpt>
      <trkpt lat="46.80672" lon="4.70253">
        <ele>221.7211914</ele>
        <time>2016-02-27T14:02:15Z</time>
      </trkpt>
      <trkpt lat="46.80693" lon="4.70253">
        <ele>221.7211914</ele>
        <time>2016-02-27T14:02:31Z</time>
      </trkpt>
      <trkpt lat="46.80695" lon="4.70254">
        <ele>221.7211914</ele>
        <time>2016-02-27T14:02:48Z</time>
      </trkpt>
      <trkpt lat="46.80667" lon="4.7025">
        <ele>221.7211914</ele>
        <time>2016-02-27T14:03:03Z</time>
      </trkpt>
      <trkpt lat="46.80666" lon="4.70249">
        <ele>222.2017822</ele>
        <time>2016-02-27T14:03:04Z</time>
      </trkpt>
      <trkpt lat="46.80638" lon="4.70281">
        <ele>221.7211914</ele>
        <time>2016-02-27T14:03:19Z</time>
      </trkpt>
      <trkpt lat="46.80608" lon="4.70288">
        <ele>221.7211914</ele>
        <time>2016-02-27T14:03:33Z</time>
      </trkpt>
      <trkpt lat="46.80609" lon="4.70291">
        <ele>221.2406006</ele>
        <time>2016-02-27T14:03:37Z</time>
      </trkpt>
      <trkpt lat="46.80661" lon="4.70262">
        <ele>222.2017822</ele>
        <time>2016-02-27T14:03:55Z</time>
      </trkpt>
      <trkpt lat="46.80667" lon="4.70254">
        <ele>222.2017822</ele>
        <time>2016-02-27T14:03:58Z</time>
      </trkpt>
      <trkpt lat="46.807" lon="4.70251">
        <ele>221.7211914</ele>
        <time>2016-02-27T14:04:09Z</time>
      </trkpt>
      <trkpt lat="46.80715" lon="4.7021">
        <ele>226.527832</ele>
        <time>2016-02-27T14:04:22Z</time>
      </trkpt>
      <trkpt lat="46.80734" lon="4.70192">
        <ele>229.892334</ele>
        <time>2016-02-27T14:04:33Z</time>
      </trkpt>
      <trkpt lat="46.80747" lon="4.70168">
        <ele>233.7376709</ele>
        <time>2016-02-27T14:04:43Z</time>
      </trkpt>
      <trkpt lat="46.80751" lon="4.70132">
        <ele>236.6217041</ele>
        <time>2016-02-27T14:04:54Z</time>
      </trkpt>
      <trkpt lat="46.80748" lon="4.70114">
        <ele>237.5828857</ele>
        <time>2016-02-27T14:04:59Z</time>
      </trkpt>
      <trkpt lat="46.80756" lon="4.70102">
        <ele>239.9862061</ele>
        <time>2016-02-27T14:05:06Z</time>
      </trkpt>
      <trkpt lat="46.80763" lon="4.70103">
        <ele>239.9862061</ele>
        <time>2016-02-27T14:05:11Z</time>
      </trkpt>
      <trkpt lat="46.80762" lon="4.70101">
        <ele>240.467041</ele>
        <time>2016-02-27T14:05:15Z</time>
      </trkpt>
      <trkpt lat="46.80744" lon="4.701">
        <ele>239.0249023</ele>
        <time>2016-02-27T14:05:22Z</time>
      </trkpt>
      <trkpt lat="46.80747" lon="4.70104">
        <ele>238.5443115</ele>
        <time>2016-02-27T14:05:27Z</time>
      </trkpt>
      <trkpt lat="46.80749" lon="4.70102">
        <ele>239.0249023</ele>
        <time>2016-02-27T14:05:30Z</time>
      </trkpt>
      <trkpt lat="46.80791" lon="4.70107">
        <ele>240.467041</ele>
        <time>2016-02-27T14:05:44Z</time>
      </trkpt>
      <trkpt lat="46.808" lon="4.70106">
        <ele>239.9862061</ele>
        <time>2016-02-27T14:05:46Z</time>
      </trkpt>
      <trkpt lat="46.80824" lon="4.70103">
        <ele>239.5054932</ele>
        <time>2016-02-27T14:05:50Z</time>
      </trkpt>
      <trkpt lat="46.80852" lon="4.70083">
        <ele>238.0635986</ele>
        <time>2016-02-27T14:05:55Z</time>
      </trkpt>
      <trkpt lat="46.80874" lon="4.70067">
        <ele>236.1409912</ele>
        <time>2016-02-27T14:05:58Z</time>
      </trkpt>
      <trkpt lat="46.80885" lon="4.70053">
        <ele>234.6990967</ele>
        <time>2016-02-27T14:06:00Z</time>
      </trkpt>
      <trkpt lat="46.80889" lon="4.70023">
        <ele>233.7376709</ele>
        <time>2016-02-27T14:06:03Z</time>
      </trkpt>
      <trkpt lat="46.80907" lon="4.70001">
        <ele>233.2570801</ele>
        <time>2016-02-27T14:06:09Z</time>
      </trkpt>
      <trkpt lat="46.80923" lon="4.70035">
        <ele>232.2957764</ele>
        <time>2016-02-27T14:06:17Z</time>
      </trkpt>
      <trkpt lat="46.80927" lon="4.70039">
        <ele>231.3343506</ele>
        <time>2016-02-27T14:06:31Z</time>
      </trkpt>
      <trkpt lat="46.80924" lon="4.7004">
        <ele>232.2957764</ele>
        <time>2016-02-27T14:11:26Z</time>
      </trkpt>
      <trkpt lat="46.80923" lon="4.70042">
        <ele>232.7764893</ele>
        <time>2016-02-27T14:12:33Z</time>
      </trkpt>
      <trkpt lat="46.80919" lon="4.70032">
        <ele>233.2570801</ele>
        <time>2016-02-27T14:12:38Z</time>
      </trkpt>
      <trkpt lat="46.80914" lon="4.6999">
        <ele>233.7376709</ele>
        <time>2016-02-27T14:12:51Z</time>
      </trkpt>
      <trkpt lat="46.8092" lon="4.6998">
        <ele>234.2183838</ele>
        <time>2016-02-27T14:12:55Z</time>
      </trkpt>
      <trkpt lat="46.80953" lon="4.69972">
        <ele>234.6990967</ele>
        <time>2016-02-27T14:13:07Z</time>
      </trkpt>
      <trkpt lat="46.80969" lon="4.69951">
        <ele>236.6217041</ele>
        <time>2016-02-27T14:13:14Z</time>
      </trkpt>
      <trkpt lat="46.80968" lon="4.69942">
        <ele>237.1022949</ele>
        <time>2016-02-27T14:13:17Z</time>
      </trkpt>
      <trkpt lat="46.81002" lon="4.69924">
        <ele>238.5443115</ele>
        <time>2016-02-27T14:13:29Z</time>
      </trkpt>
      <trkpt lat="46.8107" lon="4.69897">
        <ele>239.5054932</ele>
        <time>2016-02-27T14:13:51Z</time>
      </trkpt>
      <trkpt lat="46.8111" lon="4.69864">
        <ele>241.4282227</ele>
        <time>2016-02-27T14:14:08Z</time>
      </trkpt>
      <trkpt lat="46.81136" lon="4.69817">
        <ele>244.3122559</ele>
        <time>2016-02-27T14:14:23Z</time>
      </trkpt>
      <trkpt lat="46.81165" lon="4.69769">
        <ele>247.6767578</ele>
        <time>2016-02-27T14:14:40Z</time>
      </trkpt>
      <trkpt lat="46.81169" lon="4.69765">
        <ele>248.1575928</ele>
        <time>2016-02-27T14:14:42Z</time>
      </trkpt>
      <trkpt lat="46.81193" lon="4.69802">
        <ele>250.0802002</ele>
        <time>2016-02-27T14:14:56Z</time>
      </trkpt>
      <trkpt lat="46.81228" lon="4.69834">
        <ele>253.4447021</ele>
        <time>2016-02-27T14:15:12Z</time>
      </trkpt>
      <trkpt lat="46.8125" lon="4.69849">
        <ele>256.3287354</ele>
        <time>2016-02-27T14:15:24Z</time>
      </trkpt>
      <trkpt lat="46.81279" lon="4.69903">
        <ele>259.6933594</ele>
        <time>2016-02-27T14:15:47Z</time>
      </trkpt>
      <trkpt lat="46.81291" lon="4.69916">
        <ele>263.0578613</ele>
        <time>2016-02-27T14:15:56Z</time>
      </trkpt>
      <trkpt lat="46.81304" lon="4.69926">
        <ele>266.4224854</ele>
        <time>2016-02-27T14:16:06Z</time>
      </trkpt>
      <trkpt lat="46.81315" lon="4.69952">
        <ele>269.3065186</ele>
        <time>2016-02-27T14:16:19Z</time>
      </trkpt>
      <trkpt lat="46.81315" lon="4.70025">
        <ele>271.229126</ele>
        <time>2016-02-27T14:16:41Z</time>
      </trkpt>
      <trkpt lat="46.81314" lon="4.70053">
        <ele>273.1518555</ele>
        <time>2016-02-27T14:16:49Z</time>
      </trkpt>
      <trkpt lat="46.81318" lon="4.70085">
        <ele>275.0744629</ele>
        <time>2016-02-27T14:16:58Z</time>
      </trkpt>
      <trkpt lat="46.81339" lon="4.70169">
        <ele>275.5550537</ele>
        <time>2016-02-27T14:17:23Z</time>
      </trkpt>
      <trkpt lat="46.8138" lon="4.70254">
        <ele>273.1518555</ele>
        <time>2016-02-27T14:17:47Z</time>
      </trkpt>
      <trkpt lat="46.81426" lon="4.70319">
        <ele>271.7097168</ele>
        <time>2016-02-27T14:18:07Z</time>
      </trkpt>
      <trkpt lat="46.81469" lon="4.70373">
        <ele>271.7097168</ele>
        <time>2016-02-27T14:18:27Z</time>
      </trkpt>
      <trkpt lat="46.815" lon="4.70428">
        <ele>272.6711426</ele>
        <time>2016-02-27T14:18:45Z</time>
      </trkpt>
      <trkpt lat="46.81518" lon="4.70466">
        <ele>270.2677002</ele>
        <time>2016-02-27T14:18:54Z</time>
      </trkpt>
      <trkpt lat="46.81522" lon="4.70476">
        <ele>269.3065186</ele>
        <time>2016-02-27T14:18:56Z</time>
      </trkpt>
      <trkpt lat="46.81535" lon="4.70499">
        <ele>267.3839111</ele>
        <time>2016-02-27T14:19:01Z</time>
      </trkpt>
      <trkpt lat="46.81561" lon="4.70566">
        <ele>268.3450928</ele>
        <time>2016-02-27T14:19:16Z</time>
      </trkpt>
      <trkpt lat="46.81592" lon="4.70664">
        <ele>267.864502</ele>
        <time>2016-02-27T14:19:34Z</time>
      </trkpt>
      <trkpt lat="46.81602" lon="4.70699">
        <ele>265.9418945</ele>
        <time>2016-02-27T14:19:38Z</time>
      </trkpt>
      <trkpt lat="46.81609" lon="4.70724">
        <ele>264.9805908</ele>
        <time>2016-02-27T14:19:41Z</time>
      </trkpt>
      <trkpt lat="46.81617" lon="4.70775">
        <ele>265.4613037</ele>
        <time>2016-02-27T14:19:48Z</time>
      </trkpt>
      <trkpt lat="46.81618" lon="4.70887">
        <ele>265.9418945</ele>
        <time>2016-02-27T14:20:08Z</time>
      </trkpt>
      <trkpt lat="46.81625" lon="4.70915">
        <ele>266.9031982</ele>
        <time>2016-02-27T14:20:15Z</time>
      </trkpt>
      <trkpt lat="46.81623" lon="4.70971">
        <ele>265.9418945</ele>
        <time>2016-02-27T14:20:28Z</time>
      </trkpt>
      <trkpt lat="46.81623" lon="4.70975">
        <ele>265.9418945</ele>
        <time>2016-02-27T14:20:29Z</time>
      </trkpt>
      <trkpt lat="46.81616" lon="4.71025">
        <ele>264.9805908</ele>
        <time>2016-02-27T14:20:41Z</time>
      </trkpt>
      <trkpt lat="46.81617" lon="4.71031">
        <ele>264.0192871</ele>
        <time>2016-02-27T14:20:58Z</time>
      </trkpt>
      <trkpt lat="46.81617" lon="4.71032">
        <ele>264.0192871</ele>
        <time>2016-02-27T14:22:35Z</time>
      </trkpt>
      <trkpt lat="46.81642" lon="4.71042">
        <ele>266.4224854</ele>
        <time>2016-02-27T14:22:48Z</time>
      </trkpt>
      <trkpt lat="46.81668" lon="4.71029">
        <ele>269.3065186</ele>
        <time>2016-02-27T14:23:00Z</time>
      </trkpt>
      <trkpt lat="46.81677" lon="4.71024">
        <ele>270.7484131</ele>
        <time>2016-02-27T14:23:04Z</time>
      </trkpt>
      <trkpt lat="46.81696" lon="4.71017">
        <ele>274.59375</ele>
        <time>2016-02-27T14:23:13Z</time>
      </trkpt>
      <trkpt lat="46.81715" lon="4.70988">
        <ele>277.958252</ele>
        <time>2016-02-27T14:23:28Z</time>
      </trkpt>
      <trkpt lat="46.81728" lon="4.70961">
        <ele>281.322998</ele>
        <time>2016-02-27T14:23:41Z</time>
      </trkpt>
      <trkpt lat="46.81757" lon="4.70955">
        <ele>284.2069092</ele>
        <time>2016-02-27T14:23:58Z</time>
      </trkpt>
      <trkpt lat="46.81764" lon="4.70939">
        <ele>286.6102295</ele>
        <time>2016-02-27T14:24:06Z</time>
      </trkpt>
      <trkpt lat="46.81763" lon="4.70926">
        <ele>288.0522461</ele>
        <time>2016-02-27T14:24:11Z</time>
      </trkpt>
      <trkpt lat="46.81769" lon="4.70891">
        <ele>291.8974609</ele>
        <time>2016-02-27T14:24:27Z</time>
      </trkpt>
      <trkpt lat="46.81778" lon="4.70873">
        <ele>294.7813721</ele>
        <time>2016-02-27T14:24:38Z</time>
      </trkpt>
      <trkpt lat="46.81786" lon="4.70856">
        <ele>298.1461182</ele>
        <time>2016-02-27T14:24:48Z</time>
      </trkpt>
      <trkpt lat="46.81797" lon="4.70842">
        <ele>300.5493164</ele>
        <time>2016-02-27T14:24:58Z</time>
      </trkpt>
      <trkpt lat="46.81807" lon="4.70833">
        <ele>303.4332275</ele>
        <time>2016-02-27T14:25:07Z</time>
      </trkpt>
      <trkpt lat="46.81821" lon="4.70833">
        <ele>306.7978516</ele>
        <time>2016-02-27T14:25:18Z</time>
      </trkpt>
      <trkpt lat="46.81827" lon="4.70834">
        <ele>308.2398682</ele>
        <time>2016-02-27T14:25:23Z</time>
      </trkpt>
      <trkpt lat="46.81831" lon="4.70835">
        <ele>308.720459</ele>
        <time>2016-02-27T14:25:26Z</time>
      </trkpt>
      <trkpt lat="46.81842" lon="4.70829">
        <ele>312.0852051</ele>
        <time>2016-02-27T14:25:36Z</time>
      </trkpt>
      <trkpt lat="46.81844" lon="4.70826">
        <ele>312.5657959</ele>
        <time>2016-02-27T14:25:38Z</time>
      </trkpt>
      <trkpt lat="46.81855" lon="4.70811">
        <ele>316.8917236</ele>
        <time>2016-02-27T14:25:49Z</time>
      </trkpt>
      <trkpt lat="46.81856" lon="4.7081">
        <ele>316.8917236</ele>
        <time>2016-02-27T14:25:50Z</time>
      </trkpt>
      <trkpt lat="46.81862" lon="4.70801">
        <ele>319.2950439</ele>
        <time>2016-02-27T14:25:57Z</time>
      </trkpt>
      <trkpt lat="46.81868" lon="4.70788">
        <ele>322.1789551</ele>
        <time>2016-02-27T14:26:06Z</time>
      </trkpt>
      <trkpt lat="46.81866" lon="4.70762">
        <ele>325.5435791</ele>
        <time>2016-02-27T14:26:19Z</time>
      </trkpt>
      <trkpt lat="46.81864" lon="4.70736">
        <ele>328.9083252</ele>
        <time>2016-02-27T14:26:33Z</time>
      </trkpt>
      <trkpt lat="46.81867" lon="4.70707">
        <ele>332.75354</ele>
        <time>2016-02-27T14:26:50Z</time>
      </trkpt>
      <trkpt lat="46.81878" lon="4.70697">
        <ele>335.6373291</ele>
        <time>2016-02-27T14:27:01Z</time>
      </trkpt>
      <trkpt lat="46.81894" lon="4.70678">
        <ele>339.9633789</ele>
        <time>2016-02-27T14:27:18Z</time>
      </trkpt>
      <trkpt lat="46.81895" lon="4.70676">
        <ele>339.9633789</ele>
        <time>2016-02-27T14:27:19Z</time>
      </trkpt>
      <trkpt lat="46.81904" lon="4.70649">
        <ele>342.84729</ele>
        <time>2016-02-27T14:27:35Z</time>
      </trkpt>
      <trkpt lat="46.81912" lon="4.70631">
        <ele>346.2120361</ele>
        <time>2016-02-27T14:27:47Z</time>
      </trkpt>
      <trkpt lat="46.81918" lon="4.70612">
        <ele>349.0958252</ele>
        <time>2016-02-27T14:28:00Z</time>
      </trkpt>
      <trkpt lat="46.81924" lon="4.70591">
        <ele>352.4605713</ele>
        <time>2016-02-27T14:28:12Z</time>
      </trkpt>
      <trkpt lat="46.81926" lon="4.70588">
        <ele>352.9411621</ele>
        <time>2016-02-27T14:28:14Z</time>
      </trkpt>
      <trkpt lat="46.8193" lon="4.70569">
        <ele>356.786377</ele>
        <time>2016-02-27T14:28:25Z</time>
      </trkpt>
      <trkpt lat="46.81936" lon="4.70553">
        <ele>359.6704102</ele>
        <time>2016-02-27T14:28:36Z</time>
      </trkpt>
      <trkpt lat="46.81937" lon="4.70533">
        <ele>363.0350342</ele>
        <time>2016-02-27T14:28:48Z</time>
      </trkpt>
      <trkpt lat="46.81926" lon="4.70469">
        <ele>364.9576416</ele>
        <time>2016-02-27T14:29:12Z</time>
      </trkpt>
      <trkpt lat="46.8193" lon="4.70432">
        <ele>368.3222656</ele>
        <time>2016-02-27T14:29:28Z</time>
      </trkpt>
      <trkpt lat="46.81925" lon="4.70419">
        <ele>369.7642822</ele>
        <time>2016-02-27T14:29:35Z</time>
      </trkpt>
      <trkpt lat="46.81897" lon="4.70414">
        <ele>366.880249</ele>
        <time>2016-02-27T14:29:47Z</time>
      </trkpt>
      <trkpt lat="46.81896" lon="4.70415">
        <ele>365.9189453</ele>
        <time>2016-02-27T14:29:57Z</time>
      </trkpt>
      <trkpt lat="46.81897" lon="4.70412">
        <ele>364.4769287</ele>
        <time>2016-02-27T14:30:12Z</time>
      </trkpt>
      <trkpt lat="46.81897" lon="4.70412">
        <ele>367.8415527</ele>
        <time>2016-02-27T14:30:13Z</time>
      </trkpt>
      <trkpt lat="46.81897" lon="4.70412">
        <ele>367.8415527</ele>
        <time>2016-02-27T14:30:14Z</time>
      </trkpt>
      <trkpt lat="46.81897" lon="4.70412">
        <ele>365.9189453</ele>
        <time>2016-02-27T14:30:16Z</time>
      </trkpt>
      <trkpt lat="46.81897" lon="4.70412">
        <ele>365.4383545</ele>
        <time>2016-02-27T14:32:12Z</time>
      </trkpt>
      <trkpt lat="46.81898" lon="4.70411">
        <ele>364.9576416</ele>
        <time>2016-02-27T14:33:14Z</time>
      </trkpt>
      <trkpt lat="46.81897" lon="4.70412">
        <ele>365.9189453</ele>
        <time>2016-02-27T14:33:22Z</time>
      </trkpt>
      <trkpt lat="46.81896" lon="4.70411">
        <ele>365.4383545</ele>
        <time>2016-02-27T14:34:26Z</time>
      </trkpt>
      <trkpt lat="46.81897" lon="4.70413">
        <ele>365.9189453</ele>
        <time>2016-02-27T14:34:50Z</time>
      </trkpt>
      <trkpt lat="46.81901" lon="4.70414">
        <ele>365.4383545</ele>
        <time>2016-02-27T14:35:13Z</time>
      </trkpt>
      <trkpt lat="46.81925" lon="4.70416">
        <ele>367.8415527</ele>
        <time>2016-02-27T14:35:25Z</time>
      </trkpt>
      <trkpt lat="46.81931" lon="4.70421">
        <ele>369.2836914</ele>
        <time>2016-02-27T14:35:28Z</time>
      </trkpt>
      <trkpt lat="46.81933" lon="4.70422">
        <ele>369.2836914</ele>
        <time>2016-02-27T14:35:29Z</time>
      </trkpt>
      <trkpt lat="46.81943" lon="4.70419">
        <ele>370.244873</ele>
        <time>2016-02-27T14:35:34Z</time>
      </trkpt>
      <trkpt lat="46.81958" lon="4.70401">
        <ele>374.5708008</ele>
        <time>2016-02-27T14:35:44Z</time>
      </trkpt>
      <trkpt lat="46.81968" lon="4.70389">
        <ele>377.454834</ele>
        <time>2016-02-27T14:35:52Z</time>
      </trkpt>
      <trkpt lat="46.81973" lon="4.70381">
        <ele>378.8968506</ele>
        <time>2016-02-27T14:35:57Z</time>
      </trkpt>
      <trkpt lat="46.81975" lon="4.70374">
        <ele>379.8580322</ele>
        <time>2016-02-27T14:36:00Z</time>
      </trkpt>
      <trkpt lat="46.81976" lon="4.70308">
        <ele>381.7806396</ele>
        <time>2016-02-27T14:36:19Z</time>
      </trkpt>
      <trkpt lat="46.81964" lon="4.70229">
        <ele>384.6647949</ele>
        <time>2016-02-27T14:36:43Z</time>
      </trkpt>
      <trkpt lat="46.81949" lon="4.70178">
        <ele>383.2226563</ele>
        <time>2016-02-27T14:36:54Z</time>
      </trkpt>
      <trkpt lat="46.81951" lon="4.70149">
        <ele>384.184082</ele>
        <time>2016-02-27T14:37:00Z</time>
      </trkpt>
      <trkpt lat="46.81953" lon="4.70144">
        <ele>385.1453857</ele>
        <time>2016-02-27T14:37:02Z</time>
      </trkpt>
      <trkpt lat="46.81958" lon="4.70084">
        <ele>387.548584</ele>
        <time>2016-02-27T14:37:19Z</time>
      </trkpt>
      <trkpt lat="46.81972" lon="4.70011">
        <ele>388.9906006</ele>
        <time>2016-02-27T14:37:41Z</time>
      </trkpt>
      <trkpt lat="46.81987" lon="4.69964">
        <ele>387.0679932</ele>
        <time>2016-02-27T14:37:59Z</time>
      </trkpt>
      <trkpt lat="46.81992" lon="4.69944">
        <ele>385.1453857</ele>
        <time>2016-02-27T14:38:14Z</time>
      </trkpt>
      <trkpt lat="46.81976" lon="4.69926">
        <ele>383.2226563</ele>
        <time>2016-02-27T14:38:34Z</time>
      </trkpt>
      <trkpt lat="46.81965" lon="4.69912">
        <ele>381.7806396</ele>
        <time>2016-02-27T14:38:36Z</time>
      </trkpt>
      <trkpt lat="46.81945" lon="4.69888">
        <ele>377.9354248</ele>
        <time>2016-02-27T14:38:39Z</time>
      </trkpt>
      <trkpt lat="46.81933" lon="4.69881">
        <ele>375.0515137</ele>
        <time>2016-02-27T14:38:41Z</time>
      </trkpt>
      <trkpt lat="46.81927" lon="4.69878">
        <ele>373.6094971</ele>
        <time>2016-02-27T14:38:42Z</time>
      </trkpt>
      <trkpt lat="46.81922" lon="4.69831">
        <ele>371.2062988</ele>
        <time>2016-02-27T14:38:48Z</time>
      </trkpt>
      <trkpt lat="46.8193" lon="4.69812">
        <ele>368.8029785</ele>
        <time>2016-02-27T14:38:50Z</time>
      </trkpt>
      <trkpt lat="46.81937" lon="4.69791">
        <ele>366.880249</ele>
        <time>2016-02-27T14:38:52Z</time>
      </trkpt>
      <trkpt lat="46.81949" lon="4.69743">
        <ele>361.1124268</ele>
        <time>2016-02-27T14:38:56Z</time>
      </trkpt>
      <trkpt lat="46.81953" lon="4.69713">
        <ele>358.2283936</ele>
        <time>2016-02-27T14:38:59Z</time>
      </trkpt>
      <trkpt lat="46.81955" lon="4.69705">
        <ele>356.3057861</ele>
        <time>2016-02-27T14:39:00Z</time>
      </trkpt>
      <trkpt lat="46.81952" lon="4.69679">
        <ele>351.4991455</ele>
        <time>2016-02-27T14:39:03Z</time>
      </trkpt>
      <trkpt lat="46.81948" lon="4.69671">
        <ele>351.4991455</ele>
        <time>2016-02-27T14:39:04Z</time>
      </trkpt>
      <trkpt lat="46.81938" lon="4.69654">
        <ele>349.5765381</ele>
        <time>2016-02-27T14:39:06Z</time>
      </trkpt>
      <trkpt lat="46.81934" lon="4.69644">
        <ele>347.1732178</ele>
        <time>2016-02-27T14:39:07Z</time>
      </trkpt>
      <trkpt lat="46.81928" lon="4.6962">
        <ele>344.2894287</ele>
        <time>2016-02-27T14:39:09Z</time>
      </trkpt>
      <trkpt lat="46.81925" lon="4.69596">
        <ele>341.4052734</ele>
        <time>2016-02-27T14:39:11Z</time>
      </trkpt>
      <trkpt lat="46.81932" lon="4.69579">
        <ele>339.0020752</ele>
        <time>2016-02-27T14:39:13Z</time>
      </trkpt>
      <trkpt lat="46.81945" lon="4.69574">
        <ele>337.0794678</ele>
        <time>2016-02-27T14:39:15Z</time>
      </trkpt>
      <trkpt lat="46.81953" lon="4.69569">
        <ele>333.2341309</ele>
        <time>2016-02-27T14:39:17Z</time>
      </trkpt>
      <trkpt lat="46.81953" lon="4.69563">
        <ele>333.2341309</ele>
        <time>2016-02-27T14:39:18Z</time>
      </trkpt>
      <trkpt lat="46.81951" lon="4.69556">
        <ele>332.2728271</ele>
        <time>2016-02-27T14:39:19Z</time>
      </trkpt>
      <trkpt lat="46.81938" lon="4.69497">
        <ele>330.3502197</ele>
        <time>2016-02-27T14:39:25Z</time>
      </trkpt>
      <trkpt lat="46.81923" lon="4.69428">
        <ele>326.9855957</ele>
        <time>2016-02-27T14:39:31Z</time>
      </trkpt>
      <trkpt lat="46.8192" lon="4.69416">
        <ele>326.9855957</ele>
        <time>2016-02-27T14:39:32Z</time>
      </trkpt>
      <trkpt lat="46.81914" lon="4.69391">
        <ele>325.5435791</ele>
        <time>2016-02-27T14:39:34Z</time>
      </trkpt>
      <trkpt lat="46.8191" lon="4.69327">
        <ele>323.1403809</ele>
        <time>2016-02-27T14:39:39Z</time>
      </trkpt>
      <trkpt lat="46.81912" lon="4.69303">
        <ele>322.1789551</ele>
        <time>2016-02-27T14:39:41Z</time>
      </trkpt>
      <trkpt lat="46.81945" lon="4.69154">
        <ele>319.2950439</ele>
        <time>2016-02-27T14:39:56Z</time>
      </trkpt>
      <trkpt lat="46.81949" lon="4.69128">
        <ele>318.8143311</ele>
        <time>2016-02-27T14:39:59Z</time>
      </trkpt>
      <trkpt lat="46.81969" lon="4.69107">
        <ele>318.3336182</ele>
        <time>2016-02-27T14:40:05Z</time>
      </trkpt>
      <trkpt lat="46.82093" lon="4.69152">
        <ele>316.4110107</ele>
        <time>2016-02-27T14:40:27Z</time>
      </trkpt>
      <trkpt lat="46.82156" lon="4.69165">
        <ele>317.8530273</ele>
        <time>2016-02-27T14:40:41Z</time>
      </trkpt>
      <trkpt lat="46.82254" lon="4.69182">
        <ele>317.8530273</ele>
        <time>2016-02-27T14:41:04Z</time>
      </trkpt>
      <trkpt lat="46.82348" lon="4.69199">
        <ele>317.8530273</ele>
        <time>2016-02-27T14:41:26Z</time>
      </trkpt>
      <trkpt lat="46.82376" lon="4.69194">
        <ele>315.9304199</ele>
        <time>2016-02-27T14:41:38Z</time>
      </trkpt>
      <trkpt lat="46.82376" lon="4.69193">
        <ele>315.9304199</ele>
        <time>2016-02-27T14:41:52Z</time>
      </trkpt>
      <trkpt lat="46.82377" lon="4.69168">
        <ele>316.8917236</ele>
        <time>2016-02-27T14:42:03Z</time>
      </trkpt>
      <trkpt lat="46.82375" lon="4.69149">
        <ele>319.2950439</ele>
        <time>2016-02-27T14:42:20Z</time>
      </trkpt>
      <trkpt lat="46.82373" lon="4.69143">
        <ele>320.2563477</ele>
        <time>2016-02-27T14:42:29Z</time>
      </trkpt>
      <trkpt lat="46.82368" lon="4.69127">
        <ele>320.7370605</ele>
        <time>2016-02-27T14:42:38Z</time>
      </trkpt>
      <trkpt lat="46.82356" lon="4.69094">
        <ele>324.1015625</ele>
        <time>2016-02-27T14:42:52Z</time>
      </trkpt>
      <trkpt lat="46.82355" lon="4.69089">
        <ele>324.1015625</ele>
        <time>2016-02-27T14:42:54Z</time>
      </trkpt>
      <trkpt lat="46.82355" lon="4.69071">
        <ele>325.5435791</ele>
        <time>2016-02-27T14:43:02Z</time>
      </trkpt>
      <trkpt lat="46.82376" lon="4.69043">
        <ele>326.9855957</ele>
        <time>2016-02-27T14:43:19Z</time>
      </trkpt>
      <trkpt lat="46.82405" lon="4.69018">
        <ele>330.8309326</ele>
        <time>2016-02-27T14:43:38Z</time>
      </trkpt>
      <trkpt lat="46.82408" lon="4.69016">
        <ele>330.3502197</ele>
        <time>2016-02-27T14:43:40Z</time>
      </trkpt>
      <trkpt lat="46.82413" lon="4.69008">
        <ele>331.3115234</ele>
        <time>2016-02-27T14:43:45Z</time>
      </trkpt>
      <trkpt lat="46.82442" lon="4.68981">
        <ele>334.6761475</ele>
        <time>2016-02-27T14:44:10Z</time>
      </trkpt>
      <trkpt lat="46.82453" lon="4.68962">
        <ele>335.1567383</ele>
        <time>2016-02-27T14:44:22Z</time>
      </trkpt>
      <trkpt lat="46.82463" lon="4.68932">
        <ele>338.0407715</ele>
        <time>2016-02-27T14:44:38Z</time>
      </trkpt>
      <trkpt lat="46.82468" lon="4.68919">
        <ele>339.9633789</ele>
        <time>2016-02-27T14:44:45Z</time>
      </trkpt>
      <trkpt lat="46.82484" lon="4.68887">
        <ele>342.3666992</ele>
        <time>2016-02-27T14:45:05Z</time>
      </trkpt>
      <trkpt lat="46.82488" lon="4.68881">
        <ele>342.3666992</ele>
        <time>2016-02-27T14:45:09Z</time>
      </trkpt>
      <trkpt lat="46.82493" lon="4.68863">
        <ele>344.2894287</ele>
        <time>2016-02-27T14:45:25Z</time>
      </trkpt>
      <trkpt lat="46.82492" lon="4.68859">
        <ele>344.7700195</ele>
        <time>2016-02-27T14:45:32Z</time>
      </trkpt>
      <trkpt lat="46.82489" lon="4.68841">
        <ele>347.6539307</ele>
        <time>2016-02-27T14:45:45Z</time>
      </trkpt>
      <trkpt lat="46.82484" lon="4.68815">
        <ele>351.0184326</ele>
        <time>2016-02-27T14:46:00Z</time>
      </trkpt>
      <trkpt lat="46.82486" lon="4.688">
        <ele>351.0184326</ele>
        <time>2016-02-27T14:46:05Z</time>
      </trkpt>
      <trkpt lat="46.82495" lon="4.6877">
        <ele>353.9025879</ele>
        <time>2016-02-27T14:46:20Z</time>
      </trkpt>
      <trkpt lat="46.82504" lon="4.68753">
        <ele>355.3444824</ele>
        <time>2016-02-27T14:46:33Z</time>
      </trkpt>
      <trkpt lat="46.82513" lon="4.68747">
        <ele>357.7478027</ele>
        <time>2016-02-27T14:46:44Z</time>
      </trkpt>
      <trkpt lat="46.82526" lon="4.68731">
        <ele>359.6704102</ele>
        <time>2016-02-27T14:46:58Z</time>
      </trkpt>
      <trkpt lat="46.82543" lon="4.68708">
        <ele>362.5543213</ele>
        <time>2016-02-27T14:47:17Z</time>
      </trkpt>
      <trkpt lat="46.82558" lon="4.68691">
        <ele>363.9963379</ele>
        <time>2016-02-27T14:47:29Z</time>
      </trkpt>
      <trkpt lat="46.82572" lon="4.68676">
        <ele>366.880249</ele>
        <time>2016-02-27T14:47:43Z</time>
      </trkpt>
      <trkpt lat="46.826" lon="4.68664">
        <ele>368.3222656</ele>
        <time>2016-02-27T14:47:57Z</time>
      </trkpt>
      <trkpt lat="46.82606" lon="4.68661">
        <ele>368.8029785</ele>
        <time>2016-02-27T14:47:59Z</time>
      </trkpt>
      <trkpt lat="46.8262" lon="4.68646">
        <ele>372.6481934</ele>
        <time>2016-02-27T14:48:12Z</time>
      </trkpt>
      <trkpt lat="46.82624" lon="4.68644">
        <ele>374.0900879</ele>
        <time>2016-02-27T14:48:16Z</time>
      </trkpt>
      <trkpt lat="46.82626" lon="4.68629">
        <ele>375.5321045</ele>
        <time>2016-02-27T14:48:24Z</time>
      </trkpt>
      <trkpt lat="46.82635" lon="4.68595">
        <ele>377.454834</ele>
        <time>2016-02-27T14:48:41Z</time>
      </trkpt>
      <trkpt lat="46.82634" lon="4.6859">
        <ele>378.8968506</ele>
        <time>2016-02-27T14:50:43Z</time>
      </trkpt>
      <trkpt lat="46.82634" lon="4.68589">
        <ele>379.8580322</ele>
        <time>2016-02-27T14:52:54Z</time>
      </trkpt>
      <trkpt lat="46.82636" lon="4.68625">
        <ele>375.5321045</ele>
        <time>2016-02-27T14:53:07Z</time>
      </trkpt>
      <trkpt lat="46.82636" lon="4.68632">
        <ele>374.0900879</ele>
        <time>2016-02-27T14:53:09Z</time>
      </trkpt>
      <trkpt lat="46.82617" lon="4.68652">
        <ele>370.7255859</ele>
        <time>2016-02-27T14:53:16Z</time>
      </trkpt>
      <trkpt lat="46.82598" lon="4.68674">
        <ele>368.8029785</ele>
        <time>2016-02-27T14:53:27Z</time>
      </trkpt>
      <trkpt lat="46.82584" lon="4.6868">
        <ele>367.3609619</ele>
        <time>2016-02-27T14:53:46Z</time>
      </trkpt>
      <trkpt lat="46.82576" lon="4.68685">
        <ele>368.3222656</ele>
        <time>2016-02-27T14:54:01Z</time>
      </trkpt>
      <trkpt lat="46.82579" lon="4.6868">
        <ele>370.244873</ele>
        <time>2016-02-27T14:54:09Z</time>
      </trkpt>
      <trkpt lat="46.82583" lon="4.68676">
        <ele>370.7255859</ele>
        <time>2016-02-27T14:54:12Z</time>
      </trkpt>
      <trkpt lat="46.82593" lon="4.68675">
        <ele>371.6868896</ele>
        <time>2016-02-27T14:54:19Z</time>
      </trkpt>
      <trkpt lat="46.82609" lon="4.68664">
        <ele>374.5708008</ele>
        <time>2016-02-27T14:54:32Z</time>
      </trkpt>
      <trkpt lat="46.82624" lon="4.68648">
        <ele>377.9354248</ele>
        <time>2016-02-27T14:54:47Z</time>
      </trkpt>
      <trkpt lat="46.82629" lon="4.68618">
        <ele>380.819458</ele>
        <time>2016-02-27T14:55:05Z</time>
      </trkpt>
      <trkpt lat="46.82631" lon="4.68613">
        <ele>380.819458</ele>
        <time>2016-02-27T14:55:07Z</time>
      </trkpt>
      <trkpt lat="46.82633" lon="4.68583">
        <ele>382.2613525</ele>
        <time>2016-02-27T14:55:23Z</time>
      </trkpt>
      <trkpt lat="46.82632" lon="4.68551">
        <ele>386.1066895</ele>
        <time>2016-02-27T14:55:39Z</time>
      </trkpt>
      <trkpt lat="46.82628" lon="4.68537">
        <ele>387.548584</ele>
        <time>2016-02-27T14:55:45Z</time>
      </trkpt>
      <trkpt lat="46.82625" lon="4.68529">
        <ele>388.5100098</ele>
        <time>2016-02-27T14:55:48Z</time>
      </trkpt>
      <trkpt lat="46.82617" lon="4.68513">
        <ele>390.4326172</ele>
        <time>2016-02-27T14:55:56Z</time>
      </trkpt>
      <trkpt lat="46.82614" lon="4.68487">
        <ele>393.3165283</ele>
        <time>2016-02-27T14:56:05Z</time>
      </trkpt>
      <trkpt lat="46.82597" lon="4.68432">
        <ele>395.7198486</ele>
        <time>2016-02-27T14:56:22Z</time>
      </trkpt>
      <trkpt lat="46.82591" lon="4.68419">
        <ele>396.2005615</ele>
        <time>2016-02-27T14:56:27Z</time>
      </trkpt>
      <trkpt lat="46.82572" lon="4.68381">
        <ele>397.6424561</ele>
        <time>2016-02-27T14:56:39Z</time>
      </trkpt>
      <trkpt lat="46.82555" lon="4.68349">
        <ele>400.0458984</ele>
        <time>2016-02-27T14:56:52Z</time>
      </trkpt>
      <trkpt lat="46.82522" lon="4.68328">
        <ele>401.9685059</ele>
        <time>2016-02-27T14:57:06Z</time>
      </trkpt>
      <trkpt lat="46.82498" lon="4.68313">
        <ele>402.9296875</ele>
        <time>2016-02-27T14:57:16Z</time>
      </trkpt>
      <trkpt lat="46.82481" lon="4.68281">
        <ele>403.8911133</ele>
        <time>2016-02-27T14:57:27Z</time>
      </trkpt>
      <trkpt lat="46.82458" lon="4.6822">
        <ele>403.4104004</ele>
        <time>2016-02-27T14:57:40Z</time>
      </trkpt>
      <trkpt lat="46.82436" lon="4.68171">
        <ele>401.0070801</ele>
        <time>2016-02-27T14:57:52Z</time>
      </trkpt>
      <trkpt lat="46.82417" lon="4.68168">
        <ele>402.4490967</ele>
        <time>2016-02-27T14:58:04Z</time>
      </trkpt>
      <trkpt lat="46.82397" lon="4.68179">
        <ele>405.3330078</ele>
        <time>2016-02-27T14:58:55Z</time>
      </trkpt>
      <trkpt lat="46.82388" lon="4.68187">
        <ele>406.7749023</ele>
        <time>2016-02-27T14:58:59Z</time>
      </trkpt>
      <trkpt lat="46.82353" lon="4.68225">
        <ele>409.1783447</ele>
        <time>2016-02-27T14:59:16Z</time>
      </trkpt>
      <trkpt lat="46.82327" lon="4.68243">
        <ele>409.6590576</ele>
        <time>2016-02-27T14:59:24Z</time>
      </trkpt>
      <trkpt lat="46.82321" lon="4.68251">
        <ele>410.6202393</ele>
        <time>2016-02-27T14:59:27Z</time>
      </trkpt>
      <trkpt lat="46.82288" lon="4.68274">
        <ele>412.0622559</ele>
        <time>2016-02-27T14:59:41Z</time>
      </trkpt>
      <trkpt lat="46.82275" lon="4.68282">
        <ele>413.5042725</ele>
        <time>2016-02-27T14:59:46Z</time>
      </trkpt>
      <trkpt lat="46.82249" lon="4.6831">
        <ele>416.3881836</ele>
        <time>2016-02-27T15:00:00Z</time>
      </trkpt>
      <trkpt lat="46.82228" lon="4.68334">
        <ele>416.8688965</ele>
        <time>2016-02-27T15:00:10Z</time>
      </trkpt>
      <trkpt lat="46.8219" lon="4.68359">
        <ele>418.310791</ele>
        <time>2016-02-27T15:00:24Z</time>
      </trkpt>
      <trkpt lat="46.82172" lon="4.68369">
        <ele>418.7915039</ele>
        <time>2016-02-27T15:00:34Z</time>
      </trkpt>
      <trkpt lat="46.82158" lon="4.68365">
        <ele>419.7528076</ele>
        <time>2016-02-27T15:00:50Z</time>
      </trkpt>
      <trkpt lat="46.82158" lon="4.68362">
        <ele>418.7915039</ele>
        <time>2016-02-27T15:01:30Z</time>
      </trkpt>
      <trkpt lat="46.82142" lon="4.68306">
        <ele>421.1948242</ele>
        <time>2016-02-27T15:01:47Z</time>
      </trkpt>
      <trkpt lat="46.82134" lon="4.68257">
        <ele>421.1948242</ele>
        <time>2016-02-27T15:02:00Z</time>
      </trkpt>
      <trkpt lat="46.82127" lon="4.68216">
        <ele>420.2333984</ele>
        <time>2016-02-27T15:02:10Z</time>
      </trkpt>
      <trkpt lat="46.82126" lon="4.68208">
        <ele>420.2333984</ele>
        <time>2016-02-27T15:02:12Z</time>
      </trkpt>
      <trkpt lat="46.82112" lon="4.68161">
        <ele>420.2333984</ele>
        <time>2016-02-27T15:02:24Z</time>
      </trkpt>
      <trkpt lat="46.8211" lon="4.68159">
        <ele>420.2333984</ele>
        <time>2016-02-27T15:02:25Z</time>
      </trkpt>
      <trkpt lat="46.82095" lon="4.68155">
        <ele>424.5594482</ele>
        <time>2016-02-27T15:02:35Z</time>
      </trkpt>
      <trkpt lat="46.82094" lon="4.68154">
        <ele>424.5594482</ele>
        <time>2016-02-27T15:02:36Z</time>
      </trkpt>
      <trkpt lat="46.82084" lon="4.68146">
        <ele>427.4433594</ele>
        <time>2016-02-27T15:02:45Z</time>
      </trkpt>
      <trkpt lat="46.82077" lon="4.6814">
        <ele>429.3659668</ele>
        <time>2016-02-27T15:02:51Z</time>
      </trkpt>
      <trkpt lat="46.82068" lon="4.68139">
        <ele>431.769165</ele>
        <time>2016-02-27T15:02:57Z</time>
      </trkpt>
      <trkpt lat="46.82049" lon="4.68137">
        <ele>435.1339111</ele>
        <time>2016-02-27T15:03:08Z</time>
      </trkpt>
      <trkpt lat="46.82027" lon="4.68128">
        <ele>438.4985352</ele>
        <time>2016-02-27T15:03:21Z</time>
      </trkpt>
      <trkpt lat="46.82016" lon="4.68118">
        <ele>440.4212646</ele>
        <time>2016-02-27T15:03:31Z</time>
      </trkpt>
      <trkpt lat="46.81994" lon="4.68109">
        <ele>442.8244629</ele>
        <time>2016-02-27T15:03:42Z</time>
      </trkpt>
      <trkpt lat="46.81979" lon="4.68102">
        <ele>446.1890869</ele>
        <time>2016-02-27T15:03:54Z</time>
      </trkpt>
      <trkpt lat="46.81965" lon="4.68098">
        <ele>448.5924072</ele>
        <time>2016-02-27T15:04:04Z</time>
      </trkpt>
      <trkpt lat="46.81961" lon="4.68095">
        <ele>449.5537109</ele>
        <time>2016-02-27T15:04:06Z</time>
      </trkpt>
      <trkpt lat="46.81941" lon="4.68087">
        <ele>452.9182129</ele>
        <time>2016-02-27T15:04:18Z</time>
      </trkpt>
      <trkpt lat="46.81915" lon="4.68078">
        <ele>455.8022461</ele>
        <time>2016-02-27T15:04:32Z</time>
      </trkpt>
      <trkpt lat="46.81907" lon="4.68075">
        <ele>456.7635498</ele>
        <time>2016-02-27T15:04:35Z</time>
      </trkpt>
      <trkpt lat="46.81879" lon="4.68062">
        <ele>458.6861572</ele>
        <time>2016-02-27T15:04:49Z</time>
      </trkpt>
      <trkpt lat="46.81856" lon="4.68056">
        <ele>462.0507813</ele>
        <time>2016-02-27T15:05:02Z</time>
      </trkpt>
      <trkpt lat="46.81827" lon="4.68046">
        <ele>463.9733887</ele>
        <time>2016-02-27T15:05:14Z</time>
      </trkpt>
      <trkpt lat="46.81794" lon="4.68034">
        <ele>465.8961182</ele>
        <time>2016-02-27T15:05:29Z</time>
      </trkpt>
      <trkpt lat="46.81771" lon="4.68024">
        <ele>466.376709</ele>
        <time>2016-02-27T15:05:40Z</time>
      </trkpt>
      <trkpt lat="46.81745" lon="4.68016">
        <ele>468.2993164</ele>
        <time>2016-02-27T15:05:52Z</time>
      </trkpt>
      <trkpt lat="46.81726" lon="4.6801">
        <ele>471.1833496</ele>
        <time>2016-02-27T15:06:05Z</time>
      </trkpt>
      <trkpt lat="46.81696" lon="4.67999">
        <ele>474.0672607</ele>
        <time>2016-02-27T15:06:20Z</time>
      </trkpt>
      <trkpt lat="46.81686" lon="4.67994">
        <ele>476.4705811</ele>
        <time>2016-02-27T15:06:25Z</time>
      </trkpt>
      <trkpt lat="46.8167" lon="4.67987">
        <ele>479.835083</ele>
        <time>2016-02-27T15:06:35Z</time>
      </trkpt>
      <trkpt lat="46.8165" lon="4.6798">
        <ele>481.2772217</ele>
        <time>2016-02-27T15:06:45Z</time>
      </trkpt>
      <trkpt lat="46.81634" lon="4.67974">
        <ele>484.6418457</ele>
        <time>2016-02-27T15:06:56Z</time>
      </trkpt>
      <trkpt lat="46.81622" lon="4.67972">
        <ele>486.5644531</ele>
        <time>2016-02-27T15:07:03Z</time>
      </trkpt>
      <trkpt lat="46.81598" lon="4.67963">
        <ele>489.4483643</ele>
        <time>2016-02-27T15:07:17Z</time>
      </trkpt>
      <trkpt lat="46.81577" lon="4.67956">
        <ele>493.2935791</ele>
        <time>2016-02-27T15:07:29Z</time>
      </trkpt>
      <trkpt lat="46.81568" lon="4.6795">
        <ele>494.7355957</ele>
        <time>2016-02-27T15:07:36Z</time>
      </trkpt>
      <trkpt lat="46.81564" lon="4.67947">
        <ele>494.7355957</ele>
        <time>2016-02-27T15:07:39Z</time>
      </trkpt>
      <trkpt lat="46.81558" lon="4.67945">
        <ele>495.2161865</ele>
        <time>2016-02-27T15:07:43Z</time>
      </trkpt>
      <trkpt lat="46.81553" lon="4.67943">
        <ele>493.774292</ele>
        <time>2016-02-27T15:08:11Z</time>
      </trkpt>
      <trkpt lat="46.81535" lon="4.67939">
        <ele>489.4483643</ele>
        <time>2016-02-27T15:12:29Z</time>
      </trkpt>
      <trkpt lat="46.81526" lon="4.67935">
        <ele>487.5256348</ele>
        <time>2016-02-27T15:12:32Z</time>
      </trkpt>
      <trkpt lat="46.81518" lon="4.67933">
        <ele>485.6030273</ele>
        <time>2016-02-27T15:12:34Z</time>
      </trkpt>
      <trkpt lat="46.81511" lon="4.67932">
        <ele>483.1998291</ele>
        <time>2016-02-27T15:12:36Z</time>
      </trkpt>
      <trkpt lat="46.81505" lon="4.67929">
        <ele>481.7578125</ele>
        <time>2016-02-27T15:12:38Z</time>
      </trkpt>
      <trkpt lat="46.81499" lon="4.67923">
        <ele>478.8739014</ele>
        <time>2016-02-27T15:12:40Z</time>
      </trkpt>
      <trkpt lat="46.81496" lon="4.67921">
        <ele>477.4318848</ele>
        <time>2016-02-27T15:12:41Z</time>
      </trkpt>
      <trkpt lat="46.81477" lon="4.67913">
        <ele>475.0286865</ele>
        <time>2016-02-27T15:12:45Z</time>
      </trkpt>
      <trkpt lat="46.81462" lon="4.67924">
        <ele>472.6253662</ele>
        <time>2016-02-27T15:12:49Z</time>
      </trkpt>
      <trkpt lat="46.81454" lon="4.67937">
        <ele>466.8574219</ele>
        <time>2016-02-27T15:12:51Z</time>
      </trkpt>
      <trkpt lat="46.81441" lon="4.67949">
        <ele>464.9348145</ele>
        <time>2016-02-27T15:12:54Z</time>
      </trkpt>
      <trkpt lat="46.81437" lon="4.67953">
        <ele>461.5701904</ele>
        <time>2016-02-27T15:12:55Z</time>
      </trkpt>
      <trkpt lat="46.81425" lon="4.6796">
        <ele>457.7249756</ele>
        <time>2016-02-27T15:12:57Z</time>
      </trkpt>
      <trkpt lat="46.81419" lon="4.67962">
        <ele>453.8796387</ele>
        <time>2016-02-27T15:12:58Z</time>
      </trkpt>
      <trkpt lat="46.81411" lon="4.67964">
        <ele>453.8796387</ele>
        <time>2016-02-27T15:12:59Z</time>
      </trkpt>
      <trkpt lat="46.81391" lon="4.67964">
        <ele>450.9956055</ele>
        <time>2016-02-27T15:13:01Z</time>
      </trkpt>
      <trkpt lat="46.81383" lon="4.67964">
        <ele>445.708374</ele>
        <time>2016-02-27T15:13:02Z</time>
      </trkpt>
      <trkpt lat="46.81375" lon="4.67964">
        <ele>445.708374</ele>
        <time>2016-02-27T15:13:03Z</time>
      </trkpt>
      <trkpt lat="46.81346" lon="4.67958">
        <ele>438.4985352</ele>
        <time>2016-02-27T15:13:06Z</time>
      </trkpt>
      <trkpt lat="46.81324" lon="4.67951">
        <ele>437.0565186</ele>
        <time>2016-02-27T15:13:08Z</time>
      </trkpt>
      <trkpt lat="46.81304" lon="4.67945">
        <ele>435.1339111</ele>
        <time>2016-02-27T15:13:10Z</time>
      </trkpt>
      <trkpt lat="46.81294" lon="4.67943">
        <ele>431.769165</ele>
        <time>2016-02-27T15:13:11Z</time>
      </trkpt>
      <trkpt lat="46.81261" lon="4.67929">
        <ele>426.9627686</ele>
        <time>2016-02-27T15:13:14Z</time>
      </trkpt>
      <trkpt lat="46.81252" lon="4.67923">
        <ele>426.9627686</ele>
        <time>2016-02-27T15:13:15Z</time>
      </trkpt>
      <trkpt lat="46.81242" lon="4.67918">
        <ele>423.1174316</ele>
        <time>2016-02-27T15:13:16Z</time>
      </trkpt>
      <trkpt lat="46.81218" lon="4.67899">
        <ele>420.7141113</ele>
        <time>2016-02-27T15:13:19Z</time>
      </trkpt>
      <trkpt lat="46.81206" lon="4.67889">
        <ele>414.4654541</ele>
        <time>2016-02-27T15:13:21Z</time>
      </trkpt>
      <trkpt lat="46.81193" lon="4.67866">
        <ele>412.0622559</ele>
        <time>2016-02-27T15:13:24Z</time>
      </trkpt>
      <trkpt lat="46.81191" lon="4.67855">
        <ele>410.1396484</ele>
        <time>2016-02-27T15:13:25Z</time>
      </trkpt>
      <trkpt lat="46.81177" lon="4.67823">
        <ele>404.3717041</ele>
        <time>2016-02-27T15:13:28Z</time>
      </trkpt>
      <trkpt lat="46.81171" lon="4.67814">
        <ele>404.3717041</ele>
        <time>2016-02-27T15:13:29Z</time>
      </trkpt>
      <trkpt lat="46.81159" lon="4.67792">
        <ele>400.5264893</ele>
        <time>2016-02-27T15:13:31Z</time>
      </trkpt>
      <trkpt lat="46.81149" lon="4.67764">
        <ele>398.1231689</ele>
        <time>2016-02-27T15:13:33Z</time>
      </trkpt>
      <trkpt lat="46.81143" lon="4.67738">
        <ele>393.7972412</ele>
        <time>2016-02-27T15:13:35Z</time>
      </trkpt>
      <trkpt lat="46.81142" lon="4.67724">
        <ele>393.7972412</ele>
        <time>2016-02-27T15:13:36Z</time>
      </trkpt>
      <trkpt lat="46.8114" lon="4.677">
        <ele>391.8745117</ele>
        <time>2016-02-27T15:13:38Z</time>
      </trkpt>
      <trkpt lat="46.81138" lon="4.67678">
        <ele>388.9906006</ele>
        <time>2016-02-27T15:13:40Z</time>
      </trkpt>
      <trkpt lat="46.81137" lon="4.67667">
        <ele>386.5874023</ele>
        <time>2016-02-27T15:13:41Z</time>
      </trkpt>
      <trkpt lat="46.81133" lon="4.67648">
        <ele>383.7032471</ele>
        <time>2016-02-27T15:13:43Z</time>
      </trkpt>
      <trkpt lat="46.8113" lon="4.67639">
        <ele>379.8580322</ele>
        <time>2016-02-27T15:13:44Z</time>
      </trkpt>
      <trkpt lat="46.81127" lon="4.67632">
        <ele>379.8580322</ele>
        <time>2016-02-27T15:13:45Z</time>
      </trkpt>
      <trkpt lat="46.81118" lon="4.67619">
        <ele>377.454834</ele>
        <time>2016-02-27T15:13:47Z</time>
      </trkpt>
      <trkpt lat="46.81112" lon="4.67602">
        <ele>371.6868896</ele>
        <time>2016-02-27T15:13:50Z</time>
      </trkpt>
      <trkpt lat="46.81109" lon="4.67597">
        <ele>370.244873</ele>
        <time>2016-02-27T15:13:51Z</time>
      </trkpt>
      <trkpt lat="46.811" lon="4.67573">
        <ele>368.8029785</ele>
        <time>2016-02-27T15:13:54Z</time>
      </trkpt>
      <trkpt lat="46.81094" lon="4.67557">
        <ele>367.8415527</ele>
        <time>2016-02-27T15:13:56Z</time>
      </trkpt>
      <trkpt lat="46.8109" lon="4.67541">
        <ele>363.9963379</ele>
        <time>2016-02-27T15:13:59Z</time>
      </trkpt>
      <trkpt lat="46.81092" lon="4.67539">
        <ele>362.5543213</ele>
        <time>2016-02-27T15:14:01Z</time>
      </trkpt>
      <trkpt lat="46.81094" lon="4.67537">
        <ele>363.0350342</ele>
        <time>2016-02-27T15:15:09Z</time>
      </trkpt>
      <trkpt lat="46.81096" lon="4.67534">
        <ele>363.0350342</ele>
        <time>2016-02-27T15:15:11Z</time>
      </trkpt>
      <trkpt lat="46.81107" lon="4.67486">
        <ele>364.4769287</ele>
        <time>2016-02-27T15:15:24Z</time>
      </trkpt>
      <trkpt lat="46.8113" lon="4.67375">
        <ele>361.5931396</ele>
        <time>2016-02-27T15:15:39Z</time>
      </trkpt>
      <trkpt lat="46.81133" lon="4.67354">
        <ele>360.6317139</ele>
        <time>2016-02-27T15:15:41Z</time>
      </trkpt>
      <trkpt lat="46.81141" lon="4.67314">
        <ele>358.2283936</ele>
        <time>2016-02-27T15:15:45Z</time>
      </trkpt>
      <trkpt lat="46.81185" lon="4.67208">
        <ele>355.8251953</ele>
        <time>2016-02-27T15:16:00Z</time>
      </trkpt>
      <trkpt lat="46.81188" lon="4.67202">
        <ele>355.8251953</ele>
        <time>2016-02-27T15:16:01Z</time>
      </trkpt>
      <trkpt lat="46.81212" lon="4.67162">
        <ele>356.3057861</ele>
        <time>2016-02-27T15:16:08Z</time>
      </trkpt>
      <trkpt lat="46.8122" lon="4.67138">
        <ele>356.3057861</ele>
        <time>2016-02-27T15:16:12Z</time>
      </trkpt>
      <trkpt lat="46.81231" lon="4.67121">
        <ele>355.3444824</ele>
        <time>2016-02-27T15:16:16Z</time>
      </trkpt>
      <trkpt lat="46.81242" lon="4.67103">
        <ele>354.3831787</ele>
        <time>2016-02-27T15:16:20Z</time>
      </trkpt>
      <trkpt lat="46.81253" lon="4.67081">
        <ele>353.421875</ele>
        <time>2016-02-27T15:16:24Z</time>
      </trkpt>
      <trkpt lat="46.81269" lon="4.6707">
        <ele>354.3831787</ele>
        <time>2016-02-27T15:16:29Z</time>
      </trkpt>
      <trkpt lat="46.81302" lon="4.67061">
        <ele>358.2283936</ele>
        <time>2016-02-27T15:16:40Z</time>
      </trkpt>
      <trkpt lat="46.81341" lon="4.67049">
        <ele>361.1124268</ele>
        <time>2016-02-27T15:16:56Z</time>
      </trkpt>
      <trkpt lat="46.81358" lon="4.67046">
        <ele>360.6317139</ele>
        <time>2016-02-27T15:17:09Z</time>
      </trkpt>
      <trkpt lat="46.81364" lon="4.6704">
        <ele>362.5543213</ele>
        <time>2016-02-27T15:17:32Z</time>
      </trkpt>
      <trkpt lat="46.81365" lon="4.6704">
        <ele>362.5543213</ele>
        <time>2016-02-27T15:17:34Z</time>
      </trkpt>
      <trkpt lat="46.81369" lon="4.67043">
        <ele>363.0350342</ele>
        <time>2016-02-27T15:17:38Z</time>
      </trkpt>
      <trkpt lat="46.81382" lon="4.67041">
        <ele>366.3995361</ele>
        <time>2016-02-27T15:17:47Z</time>
      </trkpt>
      <trkpt lat="46.81393" lon="4.67039">
        <ele>368.8029785</ele>
        <time>2016-02-27T15:17:56Z</time>
      </trkpt>
      <trkpt lat="46.81402" lon="4.67038">
        <ele>370.244873</ele>
        <time>2016-02-27T15:18:03Z</time>
      </trkpt>
      <trkpt lat="46.81405" lon="4.67037">
        <ele>370.244873</ele>
        <time>2016-02-27T15:18:05Z</time>
      </trkpt>
      <trkpt lat="46.81428" lon="4.67041">
        <ele>374.0900879</ele>
        <time>2016-02-27T15:18:21Z</time>
      </trkpt>
      <trkpt lat="46.8143" lon="4.67043">
        <ele>374.0900879</ele>
        <time>2016-02-27T15:18:22Z</time>
      </trkpt>
      <trkpt lat="46.81445" lon="4.67051">
        <ele>378.4161377</ele>
        <time>2016-02-27T15:18:38Z</time>
      </trkpt>
      <trkpt lat="46.81459" lon="4.67058">
        <ele>380.3387451</ele>
        <time>2016-02-27T15:18:47Z</time>
      </trkpt>
      <trkpt lat="46.81482" lon="4.67073">
        <ele>383.2226563</ele>
        <time>2016-02-27T15:19:03Z</time>
      </trkpt>
      <trkpt lat="46.81494" lon="4.67079">
        <ele>385.1453857</ele>
        <time>2016-02-27T15:19:11Z</time>
      </trkpt>
      <trkpt lat="46.81517" lon="4.67092">
        <ele>387.548584</ele>
        <time>2016-02-27T15:19:27Z</time>
      </trkpt>
      <trkpt lat="46.8154" lon="4.67106">
        <ele>390.913208</ele>
        <time>2016-02-27T15:19:41Z</time>
      </trkpt>
      <trkpt lat="46.81556" lon="4.67121">
        <ele>391.8745117</ele>
        <time>2016-02-27T15:19:53Z</time>
      </trkpt>
      <trkpt lat="46.8156" lon="4.67122">
        <ele>392.8359375</ele>
        <time>2016-02-27T15:19:55Z</time>
      </trkpt>
      <trkpt lat="46.81576" lon="4.67124">
        <ele>394.7585449</ele>
        <time>2016-02-27T15:20:10Z</time>
      </trkpt>
      <trkpt lat="46.81577" lon="4.67123">
        <ele>394.7585449</ele>
        <time>2016-02-27T15:20:11Z</time>
      </trkpt>
      <trkpt lat="46.81586" lon="4.67128">
        <ele>396.2005615</ele>
        <time>2016-02-27T15:20:17Z</time>
      </trkpt>
      <trkpt lat="46.81609" lon="4.67141">
        <ele>397.6424561</ele>
        <time>2016-02-27T15:20:32Z</time>
      </trkpt>
      <trkpt lat="46.81613" lon="4.67144">
        <ele>398.1231689</ele>
        <time>2016-02-27T15:20:34Z</time>
      </trkpt>
      <trkpt lat="46.81628" lon="4.6716">
        <ele>398.6037598</ele>
        <time>2016-02-27T15:20:44Z</time>
      </trkpt>
      <trkpt lat="46.81635" lon="4.67166">
        <ele>398.6037598</ele>
        <time>2016-02-27T15:20:49Z</time>
      </trkpt>
      <trkpt lat="46.8165" lon="4.6717">
        <ele>400.5264893</ele>
        <time>2016-02-27T15:21:02Z</time>
      </trkpt>
      <trkpt lat="46.81651" lon="4.67172">
        <ele>401.9685059</ele>
        <time>2016-02-27T15:22:07Z</time>
      </trkpt>
      <trkpt lat="46.8165" lon="4.67171">
        <ele>401.9685059</ele>
        <time>2016-02-27T15:22:09Z</time>
      </trkpt>
      <trkpt lat="46.81641" lon="4.67167">
        <ele>401.9685059</ele>
        <time>2016-02-27T15:22:19Z</time>
      </trkpt>
      <trkpt lat="46.81624" lon="4.67158">
        <ele>401.0070801</ele>
        <time>2016-02-27T15:22:25Z</time>
      </trkpt>
      <trkpt lat="46.81609" lon="4.6715">
        <ele>401.0070801</ele>
        <time>2016-02-27T15:22:29Z</time>
      </trkpt>
      <trkpt lat="46.81574" lon="4.67105">
        <ele>400.5264893</ele>
        <time>2016-02-27T15:22:40Z</time>
      </trkpt>
      <trkpt lat="46.81549" lon="4.67062">
        <ele>401.9685059</ele>
        <time>2016-02-27T15:22:53Z</time>
      </trkpt>
      <trkpt lat="46.81537" lon="4.67045">
        <ele>402.9296875</ele>
        <time>2016-02-27T15:22:59Z</time>
      </trkpt>
      <trkpt lat="46.81515" lon="4.67011">
        <ele>406.2943115</ele>
        <time>2016-02-27T15:23:15Z</time>
      </trkpt>
      <trkpt lat="46.81497" lon="4.66987">
        <ele>408.6976318</ele>
        <time>2016-02-27T15:23:26Z</time>
      </trkpt>
      <trkpt lat="46.81489" lon="4.6698">
        <ele>409.1783447</ele>
        <time>2016-02-27T15:23:29Z</time>
      </trkpt>
      <trkpt lat="46.81476" lon="4.66967">
        <ele>410.6202393</ele>
        <time>2016-02-27T15:23:36Z</time>
      </trkpt>
      <trkpt lat="46.81447" lon="4.6694">
        <ele>410.6202393</ele>
        <time>2016-02-27T15:23:52Z</time>
      </trkpt>
      <trkpt lat="46.81414" lon="4.66919">
        <ele>411.1009521</ele>
        <time>2016-02-27T15:24:03Z</time>
      </trkpt>
      <trkpt lat="46.81405" lon="4.66883">
        <ele>410.6202393</ele>
        <time>2016-02-27T15:24:10Z</time>
      </trkpt>
      <trkpt lat="46.81407" lon="4.6686">
        <ele>411.581665</ele>
        <time>2016-02-27T15:24:15Z</time>
      </trkpt>
      <trkpt lat="46.81403" lon="4.66813">
        <ele>415.4268799</ele>
        <time>2016-02-27T15:24:27Z</time>
      </trkpt>
      <trkpt lat="46.81402" lon="4.66794">
        <ele>417.8302002</ele>
        <time>2016-02-27T15:24:33Z</time>
      </trkpt>
      <trkpt lat="46.814" lon="4.66753">
        <ele>417.8302002</ele>
        <time>2016-02-27T15:24:44Z</time>
      </trkpt>
      <trkpt lat="46.81403" lon="4.66713">
        <ele>415.4268799</ele>
        <time>2016-02-27T15:24:50Z</time>
      </trkpt>
      <trkpt lat="46.81412" lon="4.66643">
        <ele>415.4268799</ele>
        <time>2016-02-27T15:25:02Z</time>
      </trkpt>
      <trkpt lat="46.81413" lon="4.66615">
        <ele>415.4268799</ele>
        <time>2016-02-27T15:25:09Z</time>
      </trkpt>
      <trkpt lat="46.81421" lon="4.66598">
        <ele>415.9074707</ele>
        <time>2016-02-27T15:25:24Z</time>
      </trkpt>
      <trkpt lat="46.8142" lon="4.66597">
        <ele>416.3881836</ele>
        <time>2016-02-27T15:26:04Z</time>
      </trkpt>
      <trkpt lat="46.81421" lon="4.6659">
        <ele>416.3881836</ele>
        <time>2016-02-27T15:26:08Z</time>
      </trkpt>
      <trkpt lat="46.81432" lon="4.66546">
        <ele>418.310791</ele>
        <time>2016-02-27T15:26:20Z</time>
      </trkpt>
      <trkpt lat="46.81435" lon="4.66538">
        <ele>419.7528076</ele>
        <time>2016-02-27T15:26:23Z</time>
      </trkpt>
      <trkpt lat="46.81437" lon="4.66533">
        <ele>420.7141113</ele>
        <time>2016-02-27T15:26:25Z</time>
      </trkpt>
      <trkpt lat="46.81438" lon="4.6652">
        <ele>421.675415</ele>
        <time>2016-02-27T15:26:30Z</time>
      </trkpt>
      <trkpt lat="46.81447" lon="4.6651">
        <ele>422.6367188</ele>
        <time>2016-02-27T15:26:36Z</time>
      </trkpt>
      <trkpt lat="46.81449" lon="4.66501">
        <ele>423.1174316</ele>
        <time>2016-02-27T15:26:40Z</time>
      </trkpt>
      <trkpt lat="46.81448" lon="4.66492">
        <ele>424.0787354</ele>
        <time>2016-02-27T15:26:46Z</time>
      </trkpt>
      <trkpt lat="46.81445" lon="4.66474">
        <ele>426.0013428</ele>
        <time>2016-02-27T15:26:54Z</time>
      </trkpt>
      <trkpt lat="46.81446" lon="4.66461">
        <ele>427.9239502</ele>
        <time>2016-02-27T15:26:59Z</time>
      </trkpt>
      <trkpt lat="46.81447" lon="4.66456">
        <ele>428.885376</ele>
        <time>2016-02-27T15:27:01Z</time>
      </trkpt>
      <trkpt lat="46.81446" lon="4.66452">
        <ele>430.8079834</ele>
        <time>2016-02-27T15:27:04Z</time>
      </trkpt>
      <trkpt lat="46.81447" lon="4.66446">
        <ele>431.769165</ele>
        <time>2016-02-27T15:27:07Z</time>
      </trkpt>
      <trkpt lat="46.81447" lon="4.66442">
        <ele>432.7307129</ele>
        <time>2016-02-27T15:27:10Z</time>
      </trkpt>
      <trkpt lat="46.81446" lon="4.66441">
        <ele>433.6918945</ele>
        <time>2016-02-27T15:27:12Z</time>
      </trkpt>
      <trkpt lat="46.81444" lon="4.66439">
        <ele>434.1726074</ele>
        <time>2016-02-27T15:27:16Z</time>
      </trkpt>
      <trkpt lat="46.81417" lon="4.66424">
        <ele>434.6533203</ele>
        <time>2016-02-27T15:27:34Z</time>
      </trkpt>
      <trkpt lat="46.81416" lon="4.66422">
        <ele>434.6533203</ele>
        <time>2016-02-27T15:27:35Z</time>
      </trkpt>
      <trkpt lat="46.8141" lon="4.66418">
        <ele>434.6533203</ele>
        <time>2016-02-27T15:27:39Z</time>
      </trkpt>
      <trkpt lat="46.81401" lon="4.66405">
        <ele>435.1339111</ele>
        <time>2016-02-27T15:27:43Z</time>
      </trkpt>
      <trkpt lat="46.81386" lon="4.66388">
        <ele>432.7307129</ele>
        <time>2016-02-27T15:27:47Z</time>
      </trkpt>
      <trkpt lat="46.81357" lon="4.66359">
        <ele>431.769165</ele>
        <time>2016-02-27T15:27:54Z</time>
      </trkpt>
      <trkpt lat="46.81331" lon="4.66315">
        <ele>432.25</ele>
        <time>2016-02-27T15:28:06Z</time>
      </trkpt>
      <trkpt lat="46.81326" lon="4.663">
        <ele>434.6533203</ele>
        <time>2016-02-27T15:28:27Z</time>
      </trkpt>
      <trkpt lat="46.81323" lon="4.66289">
        <ele>434.6533203</ele>
        <time>2016-02-27T15:28:39Z</time>
      </trkpt>
      <trkpt lat="46.81323" lon="4.6627">
        <ele>437.5371094</ele>
        <time>2016-02-27T15:28:46Z</time>
      </trkpt>
      <trkpt lat="46.81322" lon="4.66258">
        <ele>440.9018555</ele>
        <time>2016-02-27T15:28:52Z</time>
      </trkpt>
      <trkpt lat="46.81321" lon="4.66254">
        <ele>440.9018555</ele>
        <time>2016-02-27T15:28:53Z</time>
      </trkpt>
      <trkpt lat="46.81321" lon="4.66252">
        <ele>441.3824463</ele>
        <time>2016-02-27T15:28:54Z</time>
      </trkpt>
      <trkpt lat="46.81318" lon="4.66252">
        <ele>442.3438721</ele>
        <time>2016-02-27T15:28:56Z</time>
      </trkpt>
      <trkpt lat="46.81311" lon="4.6624">
        <ele>444.7470703</ele>
        <time>2016-02-27T15:29:04Z</time>
      </trkpt>
      <trkpt lat="46.81306" lon="4.6622">
        <ele>448.1118164</ele>
        <time>2016-02-27T15:29:12Z</time>
      </trkpt>
      <trkpt lat="46.81298" lon="4.66188">
        <ele>450.9956055</ele>
        <time>2016-02-27T15:29:26Z</time>
      </trkpt>
      <trkpt lat="46.81291" lon="4.66146">
        <ele>454.3602295</ele>
        <time>2016-02-27T15:29:43Z</time>
      </trkpt>
      <trkpt lat="46.81287" lon="4.66129">
        <ele>455.8022461</ele>
        <time>2016-02-27T15:29:50Z</time>
      </trkpt>
      <trkpt lat="46.81286" lon="4.66121">
        <ele>456.282959</ele>
        <time>2016-02-27T15:29:53Z</time>
      </trkpt>
      <trkpt lat="46.81285" lon="4.66104">
        <ele>456.7635498</ele>
        <time>2016-02-27T15:29:59Z</time>
      </trkpt>
      <trkpt lat="46.81287" lon="4.66085">
        <ele>458.6861572</ele>
        <time>2016-02-27T15:30:06Z</time>
      </trkpt>
      <trkpt lat="46.81293" lon="4.66054">
        <ele>462.0507813</ele>
        <time>2016-02-27T15:30:19Z</time>
      </trkpt>
      <trkpt lat="46.81294" lon="4.66052">
        <ele>462.0507813</ele>
        <time>2016-02-27T15:30:20Z</time>
      </trkpt>
      <trkpt lat="46.81299" lon="4.66039">
        <ele>463.9733887</ele>
        <time>2016-02-27T15:30:29Z</time>
      </trkpt>
      <trkpt lat="46.81306" lon="4.6601">
        <ele>467.8187256</ele>
        <time>2016-02-27T15:30:44Z</time>
      </trkpt>
      <trkpt lat="46.81306" lon="4.66009">
        <ele>467.8187256</ele>
        <time>2016-02-27T15:30:45Z</time>
      </trkpt>
      <trkpt lat="46.81314" lon="4.65984">
        <ele>471.1833496</ele>
        <time>2016-02-27T15:30:59Z</time>
      </trkpt>
      <trkpt lat="46.81328" lon="4.65929">
        <ele>473.1060791</ele>
        <time>2016-02-27T15:31:20Z</time>
      </trkpt>
      <trkpt lat="46.81338" lon="4.65885">
        <ele>474.5479736</ele>
        <time>2016-02-27T15:31:34Z</time>
      </trkpt>
      <trkpt lat="46.81343" lon="4.65873">
        <ele>475.5092773</ele>
        <time>2016-02-27T15:31:39Z</time>
      </trkpt>
      <trkpt lat="46.81353" lon="4.65842">
        <ele>478.8739014</ele>
        <time>2016-02-27T15:31:49Z</time>
      </trkpt>
      <trkpt lat="46.81367" lon="4.65816">
        <ele>482.2385254</ele>
        <time>2016-02-27T15:31:58Z</time>
      </trkpt>
      <trkpt lat="46.81374" lon="4.65804">
        <ele>484.1611328</ele>
        <time>2016-02-27T15:32:04Z</time>
      </trkpt>
      <trkpt lat="46.81395" lon="4.65747">
        <ele>487.0450439</ele>
        <time>2016-02-27T15:32:29Z</time>
      </trkpt>
      <trkpt lat="46.81415" lon="4.65702">
        <ele>487.0450439</ele>
        <time>2016-02-27T15:32:49Z</time>
      </trkpt>
      <trkpt lat="46.81415" lon="4.657">
        <ele>486.0837402</ele>
        <time>2016-02-27T15:33:19Z</time>
      </trkpt>
      <trkpt lat="46.81414" lon="4.65699">
        <ele>488.0064697</ele>
        <time>2016-02-27T15:33:40Z</time>
      </trkpt>
      <trkpt lat="46.81415" lon="4.6568">
        <ele>488.0064697</ele>
        <time>2016-02-27T15:35:04Z</time>
      </trkpt>
      <trkpt lat="46.81404" lon="4.65607">
        <ele>484.6418457</ele>
        <time>2016-02-27T15:35:18Z</time>
      </trkpt>
      <trkpt lat="46.81397" lon="4.65539">
        <ele>485.1224365</ele>
        <time>2016-02-27T15:35:31Z</time>
      </trkpt>
      <trkpt lat="46.81376" lon="4.65505">
        <ele>486.0837402</ele>
        <time>2016-02-27T15:35:45Z</time>
      </trkpt>
      <trkpt lat="46.813" lon="4.65512">
        <ele>486.0837402</ele>
        <time>2016-02-27T15:36:08Z</time>
      </trkpt>
      <trkpt lat="46.81285" lon="4.65522">
        <ele>486.5644531</ele>
        <time>2016-02-27T15:36:14Z</time>
      </trkpt>
      <trkpt lat="46.81268" lon="4.65529">
        <ele>486.0837402</ele>
        <time>2016-02-27T15:36:20Z</time>
      </trkpt>
      <trkpt lat="46.81229" lon="4.65558">
        <ele>486.0837402</ele>
        <time>2016-02-27T15:36:33Z</time>
      </trkpt>
      <trkpt lat="46.81199" lon="4.65597">
        <ele>486.5644531</ele>
        <time>2016-02-27T15:36:45Z</time>
      </trkpt>
      <trkpt lat="46.8118" lon="4.65621">
        <ele>485.6030273</ele>
        <time>2016-02-27T15:36:51Z</time>
      </trkpt>
      <trkpt lat="46.81139" lon="4.65654">
        <ele>485.6030273</ele>
        <time>2016-02-27T15:37:02Z</time>
      </trkpt>
      <trkpt lat="46.81123" lon="4.65669">
        <ele>485.1224365</ele>
        <time>2016-02-27T15:37:06Z</time>
      </trkpt>
      <trkpt lat="46.8107" lon="4.65719">
        <ele>485.1224365</ele>
        <time>2016-02-27T15:37:21Z</time>
      </trkpt>
      <trkpt lat="46.81064" lon="4.65725">
        <ele>485.6030273</ele>
        <time>2016-02-27T15:37:23Z</time>
      </trkpt>
      <trkpt lat="46.81026" lon="4.65774">
        <ele>485.6030273</ele>
        <time>2016-02-27T15:37:36Z</time>
      </trkpt>
      <trkpt lat="46.80971" lon="4.65837">
        <ele>486.5644531</ele>
        <time>2016-02-27T15:37:52Z</time>
      </trkpt>
      <trkpt lat="46.80967" lon="4.65839">
        <ele>486.5644531</ele>
        <time>2016-02-27T15:37:53Z</time>
      </trkpt>
      <trkpt lat="46.80956" lon="4.65847">
        <ele>487.5256348</ele>
        <time>2016-02-27T15:37:56Z</time>
      </trkpt>
      <trkpt lat="46.80918" lon="4.65933">
        <ele>490.40979</ele>
        <time>2016-02-27T15:38:14Z</time>
      </trkpt>
      <trkpt lat="46.80893" lon="4.65992">
        <ele>491.3709717</ele>
        <time>2016-02-27T15:38:28Z</time>
      </trkpt>
      <trkpt lat="46.80855" lon="4.66037">
        <ele>492.3323975</ele>
        <time>2016-02-27T15:38:42Z</time>
      </trkpt>
      <trkpt lat="46.80821" lon="4.661">
        <ele>493.2935791</ele>
        <time>2016-02-27T15:38:57Z</time>
      </trkpt>
      <trkpt lat="46.80807" lon="4.66141">
        <ele>492.3323975</ele>
        <time>2016-02-27T15:39:05Z</time>
      </trkpt>
      <trkpt lat="46.80807" lon="4.66182">
        <ele>491.3709717</ele>
        <time>2016-02-27T15:39:12Z</time>
      </trkpt>
      <trkpt lat="46.80814" lon="4.66249">
        <ele>490.8903809</ele>
        <time>2016-02-27T15:39:23Z</time>
      </trkpt>
      <trkpt lat="46.80813" lon="4.66259">
        <ele>490.8903809</ele>
        <time>2016-02-27T15:39:25Z</time>
      </trkpt>
      <trkpt lat="46.80805" lon="4.66333">
        <ele>488.9677734</ele>
        <time>2016-02-27T15:39:35Z</time>
      </trkpt>
      <trkpt lat="46.80798" lon="4.66345">
        <ele>488.0064697</ele>
        <time>2016-02-27T15:39:37Z</time>
      </trkpt>
      <trkpt lat="46.80791" lon="4.66352">
        <ele>487.5256348</ele>
        <time>2016-02-27T15:39:39Z</time>
      </trkpt>
      <trkpt lat="46.80754" lon="4.66375">
        <ele>488.4871826</ele>
        <time>2016-02-27T15:39:49Z</time>
      </trkpt>
      <trkpt lat="46.80746" lon="4.66389">
        <ele>488.4871826</ele>
        <time>2016-02-27T15:39:52Z</time>
      </trkpt>
      <trkpt lat="46.80729" lon="4.66395">
        <ele>488.4871826</ele>
        <time>2016-02-27T15:39:56Z</time>
      </trkpt>
      <trkpt lat="46.80721" lon="4.66395">
        <ele>488.4871826</ele>
        <time>2016-02-27T15:39:58Z</time>
      </trkpt>
      <trkpt lat="46.80682" lon="4.66412">
        <ele>488.0064697</ele>
        <time>2016-02-27T15:40:09Z</time>
      </trkpt>
      <trkpt lat="46.80654" lon="4.6639">
        <ele>490.40979</ele>
        <time>2016-02-27T15:40:18Z</time>
      </trkpt>
      <trkpt lat="46.80642" lon="4.6638">
        <ele>491.8516846</ele>
        <time>2016-02-27T15:40:22Z</time>
      </trkpt>
      <trkpt lat="46.8062" lon="4.66366">
        <ele>492.3323975</ele>
        <time>2016-02-27T15:40:29Z</time>
      </trkpt>
      <trkpt lat="46.806" lon="4.66334">
        <ele>492.8129883</ele>
        <time>2016-02-27T15:40:38Z</time>
      </trkpt>
      <trkpt lat="46.80567" lon="4.66288">
        <ele>493.774292</ele>
        <time>2016-02-27T15:40:51Z</time>
      </trkpt>
      <trkpt lat="46.80548" lon="4.6626">
        <ele>493.774292</ele>
        <time>2016-02-27T15:40:59Z</time>
      </trkpt>
      <trkpt lat="46.80545" lon="4.66242">
        <ele>494.2550049</ele>
        <time>2016-02-27T15:41:03Z</time>
      </trkpt>
      <trkpt lat="46.80558" lon="4.66189">
        <ele>497.138916</ele>
        <time>2016-02-27T15:41:15Z</time>
      </trkpt>
      <trkpt lat="46.80561" lon="4.66176">
        <ele>497.138916</ele>
        <time>2016-02-27T15:41:19Z</time>
      </trkpt>
      <trkpt lat="46.80543" lon="4.66172">
        <ele>496.6583252</ele>
        <time>2016-02-27T15:41:34Z</time>
      </trkpt>
      <trkpt lat="46.80543" lon="4.66173">
        <ele>496.1777344</ele>
        <time>2016-02-27T15:42:18Z</time>
      </trkpt>
      <trkpt lat="46.80538" lon="4.66182">
        <ele>495.6968994</ele>
        <time>2016-02-27T15:42:22Z</time>
      </trkpt>
      <trkpt lat="46.80533" lon="4.6619">
        <ele>495.6968994</ele>
        <time>2016-02-27T15:42:24Z</time>
      </trkpt>
      <trkpt lat="46.8051" lon="4.66226">
        <ele>492.3323975</ele>
        <time>2016-02-27T15:42:30Z</time>
      </trkpt>
      <trkpt lat="46.80505" lon="4.66231">
        <ele>491.8516846</ele>
        <time>2016-02-27T15:42:31Z</time>
      </trkpt>
      <trkpt lat="46.80496" lon="4.66242">
        <ele>490.40979</ele>
        <time>2016-02-27T15:42:33Z</time>
      </trkpt>
      <trkpt lat="46.80492" lon="4.66247">
        <ele>490.40979</ele>
        <time>2016-02-27T15:42:34Z</time>
      </trkpt>
      <trkpt lat="46.8045" lon="4.66255">
        <ele>487.5256348</ele>
        <time>2016-02-27T15:42:40Z</time>
      </trkpt>
      <trkpt lat="46.80444" lon="4.66253">
        <ele>487.0450439</ele>
        <time>2016-02-27T15:42:41Z</time>
      </trkpt>
      <trkpt lat="46.80416" lon="4.66237">
        <ele>485.6030273</ele>
        <time>2016-02-27T15:42:48Z</time>
      </trkpt>
      <trkpt lat="46.80402" lon="4.66232">
        <ele>485.1224365</ele>
        <time>2016-02-27T15:42:52Z</time>
      </trkpt>
      <trkpt lat="46.80382" lon="4.6624">
        <ele>483.6804199</ele>
        <time>2016-02-27T15:42:57Z</time>
      </trkpt>
      <trkpt lat="46.80356" lon="4.66233">
        <ele>481.7578125</ele>
        <time>2016-02-27T15:43:08Z</time>
      </trkpt>
      <trkpt lat="46.80342" lon="4.66218">
        <ele>480.7966309</ele>
        <time>2016-02-27T15:43:12Z</time>
      </trkpt>
      <trkpt lat="46.80337" lon="4.66209">
        <ele>480.315918</ele>
        <time>2016-02-27T15:43:16Z</time>
      </trkpt>
      <trkpt lat="46.80316" lon="4.66175">
        <ele>480.7966309</ele>
        <time>2016-02-27T15:43:27Z</time>
      </trkpt>
      <trkpt lat="46.80307" lon="4.66152">
        <ele>481.2772217</ele>
        <time>2016-02-27T15:43:32Z</time>
      </trkpt>
      <trkpt lat="46.80297" lon="4.66137">
        <ele>481.2772217</ele>
        <time>2016-02-27T15:43:35Z</time>
      </trkpt>
      <trkpt lat="46.80285" lon="4.66062">
        <ele>481.2772217</ele>
        <time>2016-02-27T15:43:48Z</time>
      </trkpt>
      <trkpt lat="46.80273" lon="4.66027">
        <ele>481.7578125</ele>
        <time>2016-02-27T15:43:55Z</time>
      </trkpt>
      <trkpt lat="46.80245" lon="4.65988">
        <ele>480.315918</ele>
        <time>2016-02-27T15:44:05Z</time>
      </trkpt>
      <trkpt lat="46.80219" lon="4.65964">
        <ele>479.3544922</ele>
        <time>2016-02-27T15:44:16Z</time>
      </trkpt>
      <trkpt lat="46.80206" lon="4.65943">
        <ele>479.835083</ele>
        <time>2016-02-27T15:44:23Z</time>
      </trkpt>
      <trkpt lat="46.80192" lon="4.6593">
        <ele>478.8739014</ele>
        <time>2016-02-27T15:44:28Z</time>
      </trkpt>
      <trkpt lat="46.80185" lon="4.65916">
        <ele>478.3931885</ele>
        <time>2016-02-27T15:44:32Z</time>
      </trkpt>
      <trkpt lat="46.80174" lon="4.65893">
        <ele>477.9124756</ele>
        <time>2016-02-27T15:44:38Z</time>
      </trkpt>
      <trkpt lat="46.80166" lon="4.65888">
        <ele>477.9124756</ele>
        <time>2016-02-27T15:44:41Z</time>
      </trkpt>
      <trkpt lat="46.8016" lon="4.65879">
        <ele>478.3931885</ele>
        <time>2016-02-27T15:44:45Z</time>
      </trkpt>
      <trkpt lat="46.80127" lon="4.65853">
        <ele>477.9124756</ele>
        <time>2016-02-27T15:44:56Z</time>
      </trkpt>
      <trkpt lat="46.80115" lon="4.65832">
        <ele>477.9124756</ele>
        <time>2016-02-27T15:45:03Z</time>
      </trkpt>
      <trkpt lat="46.80111" lon="4.65823">
        <ele>477.9124756</ele>
        <time>2016-02-27T15:45:06Z</time>
      </trkpt>
      <trkpt lat="46.80102" lon="4.65816">
        <ele>477.9124756</ele>
        <time>2016-02-27T15:45:11Z</time>
      </trkpt>
      <trkpt lat="46.80099" lon="4.658">
        <ele>478.8739014</ele>
        <time>2016-02-27T15:45:17Z</time>
      </trkpt>
      <trkpt lat="46.80094" lon="4.658">
        <ele>479.3544922</ele>
        <time>2016-02-27T15:45:21Z</time>
      </trkpt>
      <trkpt lat="46.80064" lon="4.65766">
        <ele>478.3931885</ele>
        <time>2016-02-27T15:45:33Z</time>
      </trkpt>
      <trkpt lat="46.8006" lon="4.65765">
        <ele>477.9124756</ele>
        <time>2016-02-27T15:45:34Z</time>
      </trkpt>
      <trkpt lat="46.80036" lon="4.65753">
        <ele>475.9898682</ele>
        <time>2016-02-27T15:45:44Z</time>
      </trkpt>
      <trkpt lat="46.80021" lon="4.65762">
        <ele>474.5479736</ele>
        <time>2016-02-27T15:45:51Z</time>
      </trkpt>
      <trkpt lat="46.80009" lon="4.6576">
        <ele>474.0672607</ele>
        <time>2016-02-27T15:45:55Z</time>
      </trkpt>
      <trkpt lat="46.79996" lon="4.65753">
        <ele>473.1060791</ele>
        <time>2016-02-27T15:46:07Z</time>
      </trkpt>
      <trkpt lat="46.79995" lon="4.6575">
        <ele>475.0286865</ele>
        <time>2016-02-27T15:48:25Z</time>
      </trkpt>
      <trkpt lat="46.80008" lon="4.65746">
        <ele>475.9898682</ele>
        <time>2016-02-27T15:48:35Z</time>
      </trkpt>
      <trkpt lat="46.80014" lon="4.65738">
        <ele>476.9512939</ele>
        <time>2016-02-27T15:48:40Z</time>
      </trkpt>
      <trkpt lat="46.80022" lon="4.65734">
        <ele>477.4318848</ele>
        <time>2016-02-27T15:48:45Z</time>
      </trkpt>
      <trkpt lat="46.80024" lon="4.65733">
        <ele>477.9124756</ele>
        <time>2016-02-27T15:48:47Z</time>
      </trkpt>
      <trkpt lat="46.80046" lon="4.65738">
        <ele>478.8739014</ele>
        <time>2016-02-27T15:49:02Z</time>
      </trkpt>
      <trkpt lat="46.80054" lon="4.65741">
        <ele>480.315918</ele>
        <time>2016-02-27T15:49:26Z</time>
      </trkpt>
      <trkpt lat="46.80058" lon="4.65755">
        <ele>479.835083</ele>
        <time>2016-02-27T15:49:47Z</time>
      </trkpt>
      <trkpt lat="46.80058" lon="4.65754">
        <ele>480.315918</ele>
        <time>2016-02-27T15:50:06Z</time>
      </trkpt>
      <trkpt lat="46.80051" lon="4.65752">
        <ele>479.3544922</ele>
        <time>2016-02-27T15:50:10Z</time>
      </trkpt>
      <trkpt lat="46.80044" lon="4.65747">
        <ele>478.3931885</ele>
        <time>2016-02-27T15:50:22Z</time>
      </trkpt>
      <trkpt lat="46.80036" lon="4.65746">
        <ele>477.9124756</ele>
        <time>2016-02-27T15:50:26Z</time>
      </trkpt>
      <trkpt lat="46.80031" lon="4.65751">
        <ele>476.9512939</ele>
        <time>2016-02-27T15:50:33Z</time>
      </trkpt>
      <trkpt lat="46.80028" lon="4.65753">
        <ele>476.4705811</ele>
        <time>2016-02-27T15:50:36Z</time>
      </trkpt>
      <trkpt lat="46.80014" lon="4.65759">
        <ele>476.9512939</ele>
        <time>2016-02-27T15:50:41Z</time>
      </trkpt>
      <trkpt lat="46.79999" lon="4.65752">
        <ele>475.5092773</ele>
        <time>2016-02-27T15:50:56Z</time>
      </trkpt>
      <trkpt lat="46.79998" lon="4.65752">
        <ele>475.9898682</ele>
        <time>2016-02-27T15:52:08Z</time>
      </trkpt>
      <trkpt lat="46.7999" lon="4.65758">
        <ele>474.5479736</ele>
        <time>2016-02-27T15:52:11Z</time>
      </trkpt>
      <trkpt lat="46.79982" lon="4.6577">
        <ele>472.6253662</ele>
        <time>2016-02-27T15:52:14Z</time>
      </trkpt>
      <trkpt lat="46.79976" lon="4.65782">
        <ele>470.7026367</ele>
        <time>2016-02-27T15:52:16Z</time>
      </trkpt>
      <trkpt lat="46.7997" lon="4.65788">
        <ele>468.7800293</ele>
        <time>2016-02-27T15:52:17Z</time>
      </trkpt>
      <trkpt lat="46.79955" lon="4.65802">
        <ele>466.376709</ele>
        <time>2016-02-27T15:52:20Z</time>
      </trkpt>
      <trkpt lat="46.79945" lon="4.65807">
        <ele>461.0894775</ele>
        <time>2016-02-27T15:52:22Z</time>
      </trkpt>
      <trkpt lat="46.79927" lon="4.6581">
        <ele>458.6861572</ele>
        <time>2016-02-27T15:52:25Z</time>
      </trkpt>
      <trkpt lat="46.79918" lon="4.6581">
        <ele>457.2442627</ele>
        <time>2016-02-27T15:52:27Z</time>
      </trkpt>
      <trkpt lat="46.79906" lon="4.65812">
        <ele>454.3602295</ele>
        <time>2016-02-27T15:52:30Z</time>
      </trkpt>
      <trkpt lat="46.79894" lon="4.6581">
        <ele>452.9182129</ele>
        <time>2016-02-27T15:52:34Z</time>
      </trkpt>
      <trkpt lat="46.79876" lon="4.65806">
        <ele>450.9956055</ele>
        <time>2016-02-27T15:52:37Z</time>
      </trkpt>
      <trkpt lat="46.79842" lon="4.65801">
        <ele>448.1118164</ele>
        <time>2016-02-27T15:52:41Z</time>
      </trkpt>
      <trkpt lat="46.79833" lon="4.658">
        <ele>445.2276611</ele>
        <time>2016-02-27T15:52:42Z</time>
      </trkpt>
      <trkpt lat="46.79815" lon="4.65802">
        <ele>440.9018555</ele>
        <time>2016-02-27T15:52:44Z</time>
      </trkpt>
      <trkpt lat="46.79806" lon="4.65804">
        <ele>437.5371094</ele>
        <time>2016-02-27T15:52:45Z</time>
      </trkpt>
      <trkpt lat="46.79798" lon="4.65805">
        <ele>437.5371094</ele>
        <time>2016-02-27T15:52:46Z</time>
      </trkpt>
      <trkpt lat="46.79781" lon="4.65811">
        <ele>434.1726074</ele>
        <time>2016-02-27T15:52:48Z</time>
      </trkpt>
      <trkpt lat="46.79773" lon="4.65813">
        <ele>431.2885742</ele>
        <time>2016-02-27T15:52:49Z</time>
      </trkpt>
      <trkpt lat="46.79753" lon="4.65824">
        <ele>428.885376</ele>
        <time>2016-02-27T15:52:51Z</time>
      </trkpt>
      <trkpt lat="46.79736" lon="4.65833">
        <ele>426.9627686</ele>
        <time>2016-02-27T15:52:53Z</time>
      </trkpt>
      <trkpt lat="46.79725" lon="4.65839">
        <ele>425.0401611</ele>
        <time>2016-02-27T15:52:55Z</time>
      </trkpt>
      <trkpt lat="46.79715" lon="4.6585">
        <ele>419.7528076</ele>
        <time>2016-02-27T15:52:57Z</time>
      </trkpt>
      <trkpt lat="46.79711" lon="4.65854">
        <ele>419.7528076</ele>
        <time>2016-02-27T15:52:58Z</time>
      </trkpt>
      <trkpt lat="46.79693" lon="4.65857">
        <ele>418.310791</ele>
        <time>2016-02-27T15:53:00Z</time>
      </trkpt>
      <trkpt lat="46.79682" lon="4.65852">
        <ele>416.3881836</ele>
        <time>2016-02-27T15:53:02Z</time>
      </trkpt>
      <trkpt lat="46.7967" lon="4.65852">
        <ele>415.4268799</ele>
        <time>2016-02-27T15:53:04Z</time>
      </trkpt>
      <trkpt lat="46.79648" lon="4.65847">
        <ele>412.5428467</ele>
        <time>2016-02-27T15:53:07Z</time>
      </trkpt>
      <trkpt lat="46.79626" lon="4.65835">
        <ele>409.1783447</ele>
        <time>2016-02-27T15:53:11Z</time>
      </trkpt>
      <trkpt lat="46.79619" lon="4.65831">
        <ele>406.7749023</ele>
        <time>2016-02-27T15:53:13Z</time>
      </trkpt>
      <trkpt lat="46.79612" lon="4.65824">
        <ele>405.3330078</ele>
        <time>2016-02-27T15:53:37Z</time>
      </trkpt>
      <trkpt lat="46.79603" lon="4.65842">
        <ele>403.8911133</ele>
        <time>2016-02-27T15:53:49Z</time>
      </trkpt>
      <trkpt lat="46.79596" lon="4.65853">
        <ele>401.9685059</ele>
        <time>2016-02-27T15:53:51Z</time>
      </trkpt>
      <trkpt lat="46.79589" lon="4.65866">
        <ele>399.0843506</ele>
        <time>2016-02-27T15:53:54Z</time>
      </trkpt>
      <trkpt lat="46.79579" lon="4.65885">
        <ele>397.1617432</ele>
        <time>2016-02-27T15:53:58Z</time>
      </trkpt>
      <trkpt lat="46.79577" lon="4.65894">
        <ele>396.2005615</ele>
        <time>2016-02-27T15:53:59Z</time>
      </trkpt>
      <trkpt lat="46.79571" lon="4.65916">
        <ele>394.2779541</ele>
        <time>2016-02-27T15:54:02Z</time>
      </trkpt>
      <trkpt lat="46.79567" lon="4.65939">
        <ele>391.3937988</ele>
        <time>2016-02-27T15:54:05Z</time>
      </trkpt>
      <trkpt lat="46.79562" lon="4.65955">
        <ele>388.9906006</ele>
        <time>2016-02-27T15:54:07Z</time>
      </trkpt>
      <trkpt lat="46.79556" lon="4.65974">
        <ele>387.548584</ele>
        <time>2016-02-27T15:54:09Z</time>
      </trkpt>
      <trkpt lat="46.79552" lon="4.65996">
        <ele>384.6647949</ele>
        <time>2016-02-27T15:54:11Z</time>
      </trkpt>
      <trkpt lat="46.7955" lon="4.66008">
        <ele>384.6647949</ele>
        <time>2016-02-27T15:54:12Z</time>
      </trkpt>
      <trkpt lat="46.79547" lon="4.6603">
        <ele>382.2613525</ele>
        <time>2016-02-27T15:54:14Z</time>
      </trkpt>
      <trkpt lat="46.79544" lon="4.6604">
        <ele>380.819458</ele>
        <time>2016-02-27T15:54:15Z</time>
      </trkpt>
      <trkpt lat="46.79538" lon="4.66054">
        <ele>378.4161377</ele>
        <time>2016-02-27T15:54:19Z</time>
      </trkpt>
      <trkpt lat="46.79539" lon="4.66078">
        <ele>376.4935303</ele>
        <time>2016-02-27T15:54:56Z</time>
      </trkpt>
      <trkpt lat="46.7954" lon="4.66121">
        <ele>372.1674805</ele>
        <time>2016-02-27T15:55:07Z</time>
      </trkpt>
      <trkpt lat="46.79542" lon="4.66135">
        <ele>371.2062988</ele>
        <time>2016-02-27T15:55:10Z</time>
      </trkpt>
      <trkpt lat="46.79552" lon="4.66171">
        <ele>368.8029785</ele>
        <time>2016-02-27T15:55:15Z</time>
      </trkpt>
      <trkpt lat="46.79554" lon="4.6618">
        <ele>367.3609619</ele>
        <time>2016-02-27T15:55:17Z</time>
      </trkpt>
      <trkpt lat="46.79556" lon="4.66188">
        <ele>366.3995361</ele>
        <time>2016-02-27T15:55:19Z</time>
      </trkpt>
      <trkpt lat="46.79562" lon="4.66232">
        <ele>363.5157471</ele>
        <time>2016-02-27T15:55:25Z</time>
      </trkpt>
      <trkpt lat="46.79561" lon="4.66258">
        <ele>359.6704102</ele>
        <time>2016-02-27T15:55:28Z</time>
      </trkpt>
      <trkpt lat="46.79563" lon="4.66265">
        <ele>359.6704102</ele>
        <time>2016-02-27T15:55:29Z</time>
      </trkpt>
      <trkpt lat="46.79565" lon="4.66279">
        <ele>357.2670898</ele>
        <time>2016-02-27T15:55:31Z</time>
      </trkpt>
      <trkpt lat="46.79565" lon="4.66291">
        <ele>355.3444824</ele>
        <time>2016-02-27T15:55:33Z</time>
      </trkpt>
      <trkpt lat="46.79568" lon="4.66301">
        <ele>352.4605713</ele>
        <time>2016-02-27T15:55:35Z</time>
      </trkpt>
      <trkpt lat="46.79571" lon="4.66308">
        <ele>352.4605713</ele>
        <time>2016-02-27T15:55:36Z</time>
      </trkpt>
      <trkpt lat="46.79574" lon="4.66316">
        <ele>351.4991455</ele>
        <time>2016-02-27T15:55:37Z</time>
      </trkpt>
      <trkpt lat="46.79577" lon="4.66339">
        <ele>350.5378418</ele>
        <time>2016-02-27T15:55:40Z</time>
      </trkpt>
      <trkpt lat="46.79579" lon="4.66367">
        <ele>347.1732178</ele>
        <time>2016-02-27T15:55:43Z</time>
      </trkpt>
      <trkpt lat="46.7958" lon="4.66374">
        <ele>346.2120361</ele>
        <time>2016-02-27T15:55:44Z</time>
      </trkpt>
      <trkpt lat="46.7958" lon="4.66391">
        <ele>344.7700195</ele>
        <time>2016-02-27T15:55:47Z</time>
      </trkpt>
      <trkpt lat="46.79588" lon="4.66409">
        <ele>340.9246826</ele>
        <time>2016-02-27T15:55:51Z</time>
      </trkpt>
      <trkpt lat="46.79591" lon="4.66415">
        <ele>340.9246826</ele>
        <time>2016-02-27T15:55:52Z</time>
      </trkpt>
      <trkpt lat="46.79597" lon="4.66427">
        <ele>339.482666</ele>
        <time>2016-02-27T15:55:54Z</time>
      </trkpt>
      <trkpt lat="46.79618" lon="4.66457">
        <ele>336.1181641</ele>
        <time>2016-02-27T15:55:59Z</time>
      </trkpt>
      <trkpt lat="46.79626" lon="4.66478">
        <ele>333.2341309</ele>
        <time>2016-02-27T15:56:03Z</time>
      </trkpt>
      <trkpt lat="46.7963" lon="4.66483">
        <ele>330.8309326</ele>
        <time>2016-02-27T15:56:26Z</time>
      </trkpt>
      <trkpt lat="46.7963" lon="4.66484">
        <ele>331.3115234</ele>
        <time>2016-02-27T15:57:18Z</time>
      </trkpt>
      <trkpt lat="46.79629" lon="4.66491">
        <ele>330.3502197</ele>
        <time>2016-02-27T15:57:22Z</time>
      </trkpt>
      <trkpt lat="46.79633" lon="4.66511">
        <ele>327.9467773</ele>
        <time>2016-02-27T15:57:27Z</time>
      </trkpt>
      <trkpt lat="46.79635" lon="4.6653">
        <ele>325.0629883</ele>
        <time>2016-02-27T15:57:31Z</time>
      </trkpt>
      <trkpt lat="46.79636" lon="4.66535">
        <ele>325.0629883</ele>
        <time>2016-02-27T15:57:32Z</time>
      </trkpt>
      <trkpt lat="46.79632" lon="4.66567">
        <ele>323.1403809</ele>
        <time>2016-02-27T15:57:38Z</time>
      </trkpt>
      <trkpt lat="46.79617" lon="4.66605">
        <ele>320.7370605</ele>
        <time>2016-02-27T15:57:44Z</time>
      </trkpt>
      <trkpt lat="46.79614" lon="4.66634">
        <ele>318.3336182</ele>
        <time>2016-02-27T15:57:47Z</time>
      </trkpt>
      <trkpt lat="46.79606" lon="4.66658">
        <ele>316.8917236</ele>
        <time>2016-02-27T15:57:49Z</time>
      </trkpt>
      <trkpt lat="46.79607" lon="4.66695">
        <ele>314.4884033</ele>
        <time>2016-02-27T15:57:54Z</time>
      </trkpt>
      <trkpt lat="46.79606" lon="4.66734">
        <ele>311.6044922</ele>
        <time>2016-02-27T15:58:00Z</time>
      </trkpt>
      <trkpt lat="46.79605" lon="4.66744">
        <ele>311.6044922</ele>
        <time>2016-02-27T15:58:01Z</time>
      </trkpt>
      <trkpt lat="46.79605" lon="4.66761">
        <ele>310.1624756</ele>
        <time>2016-02-27T15:58:03Z</time>
      </trkpt>
      <trkpt lat="46.79607" lon="4.66778">
        <ele>308.2398682</ele>
        <time>2016-02-27T15:58:05Z</time>
      </trkpt>
      <trkpt lat="46.79609" lon="4.66792">
        <ele>306.3172607</ele>
        <time>2016-02-27T15:58:07Z</time>
      </trkpt>
      <trkpt lat="46.7963" lon="4.66844">
        <ele>302.9525146</ele>
        <time>2016-02-27T15:58:14Z</time>
      </trkpt>
      <trkpt lat="46.79635" lon="4.66854">
        <ele>302.9525146</ele>
        <time>2016-02-27T15:58:15Z</time>
      </trkpt>
      <trkpt lat="46.79642" lon="4.66888">
        <ele>301.5106201</ele>
        <time>2016-02-27T15:58:19Z</time>
      </trkpt>
      <trkpt lat="46.79634" lon="4.66941">
        <ele>299.1072998</ele>
        <time>2016-02-27T15:58:25Z</time>
      </trkpt>
      <trkpt lat="46.79624" lon="4.66967">
        <ele>299.1072998</ele>
        <time>2016-02-27T15:58:29Z</time>
      </trkpt>
      <trkpt lat="46.79604" lon="4.66999">
        <ele>296.7041016</ele>
        <time>2016-02-27T15:58:41Z</time>
      </trkpt>
      <trkpt lat="46.79603" lon="4.67">
        <ele>296.2235107</ele>
        <time>2016-02-27T15:59:48Z</time>
      </trkpt>
      <trkpt lat="46.79603" lon="4.67002">
        <ele>296.2235107</ele>
        <time>2016-02-27T16:00:40Z</time>
      </trkpt>
      <trkpt lat="46.79578" lon="4.67028">
        <ele>295.7426758</ele>
        <time>2016-02-27T16:00:53Z</time>
      </trkpt>
      <trkpt lat="46.79526" lon="4.67018">
        <ele>291.416748</ele>
        <time>2016-02-27T16:01:07Z</time>
      </trkpt>
      <trkpt lat="46.79511" lon="4.67016">
        <ele>289.9748535</ele>
        <time>2016-02-27T16:01:20Z</time>
      </trkpt>
      <trkpt lat="46.79485" lon="4.67001">
        <ele>288.532959</ele>
        <time>2016-02-27T16:02:58Z</time>
      </trkpt>
      <trkpt lat="46.79452" lon="4.66992">
        <ele>286.6102295</ele>
        <time>2016-02-27T16:03:03Z</time>
      </trkpt>
      <trkpt lat="46.79431" lon="4.66984">
        <ele>284.2069092</ele>
        <time>2016-02-27T16:03:06Z</time>
      </trkpt>
      <trkpt lat="46.7941" lon="4.66989">
        <ele>282.7650146</ele>
        <time>2016-02-27T16:03:09Z</time>
      </trkpt>
      <trkpt lat="46.79402" lon="4.67028">
        <ele>282.2843018</ele>
        <time>2016-02-27T16:03:13Z</time>
      </trkpt>
      <trkpt lat="46.79403" lon="4.67063">
        <ele>282.2843018</ele>
        <time>2016-02-27T16:03:17Z</time>
      </trkpt>
      <trkpt lat="46.79398" lon="4.67088">
        <ele>281.322998</ele>
        <time>2016-02-27T16:03:21Z</time>
      </trkpt>
      <trkpt lat="46.79386" lon="4.671">
        <ele>281.8035889</ele>
        <time>2016-02-27T16:03:26Z</time>
      </trkpt>
      <trkpt lat="46.7938" lon="4.67094">
        <ele>281.8035889</ele>
        <time>2016-02-27T16:03:31Z</time>
      </trkpt>
      <trkpt lat="46.79358" lon="4.67058">
        <ele>284.6876221</ele>
        <time>2016-02-27T16:03:49Z</time>
      </trkpt>
      <trkpt lat="46.79341" lon="4.67043">
        <ele>288.0522461</ele>
        <time>2016-02-27T16:04:03Z</time>
      </trkpt>
      <trkpt lat="46.79326" lon="4.67009">
        <ele>290.9361572</ele>
        <time>2016-02-27T16:04:20Z</time>
      </trkpt>
      <trkpt lat="46.79311" lon="4.66988">
        <ele>292.3781738</ele>
        <time>2016-02-27T16:04:36Z</time>
      </trkpt>
      <trkpt lat="46.79312" lon="4.66985">
        <ele>292.3781738</ele>
        <time>2016-02-27T16:04:37Z</time>
      </trkpt>
      <trkpt lat="46.79308" lon="4.66978">
        <ele>293.8200684</ele>
        <time>2016-02-27T16:04:43Z</time>
      </trkpt>
      <trkpt lat="46.79288" lon="4.66955">
        <ele>296.7041016</ele>
        <time>2016-02-27T16:05:04Z</time>
      </trkpt>
      <trkpt lat="46.79276" lon="4.66928">
        <ele>299.5880127</ele>
        <time>2016-02-27T16:05:19Z</time>
      </trkpt>
      <trkpt lat="46.79252" lon="4.66914">
        <ele>302.4719238</ele>
        <time>2016-02-27T16:05:37Z</time>
      </trkpt>
      <trkpt lat="46.79248" lon="4.66913">
        <ele>303.4332275</ele>
        <time>2016-02-27T16:05:40Z</time>
      </trkpt>
      <trkpt lat="46.79236" lon="4.66907">
        <ele>305.355957</ele>
        <time>2016-02-27T16:05:55Z</time>
      </trkpt>
      <trkpt lat="46.7922" lon="4.66896">
        <ele>307.2785645</ele>
        <time>2016-02-27T16:06:08Z</time>
      </trkpt>
      <trkpt lat="46.79201" lon="4.66886">
        <ele>309.2011719</ele>
        <time>2016-02-27T16:06:22Z</time>
      </trkpt>
      <trkpt lat="46.79175" lon="4.6688">
        <ele>311.6044922</ele>
        <time>2016-02-27T16:06:37Z</time>
      </trkpt>
      <trkpt lat="46.79156" lon="4.66867">
        <ele>314.4884033</ele>
        <time>2016-02-27T16:06:54Z</time>
      </trkpt>
      <trkpt lat="46.79127" lon="4.66864">
        <ele>316.4110107</ele>
        <time>2016-02-27T16:07:10Z</time>
      </trkpt>
      <trkpt lat="46.79116" lon="4.66859">
        <ele>317.3724365</ele>
        <time>2016-02-27T16:07:17Z</time>
      </trkpt>
      <trkpt lat="46.79112" lon="4.66854">
        <ele>317.8530273</ele>
        <time>2016-02-27T16:07:21Z</time>
      </trkpt>
      <trkpt lat="46.79106" lon="4.66854">
        <ele>318.3336182</ele>
        <time>2016-02-27T16:07:25Z</time>
      </trkpt>
      <trkpt lat="46.79085" lon="4.6683">
        <ele>320.7370605</ele>
        <time>2016-02-27T16:07:41Z</time>
      </trkpt>
      <trkpt lat="46.79078" lon="4.66815">
        <ele>321.2177734</ele>
        <time>2016-02-27T16:07:50Z</time>
      </trkpt>
      <trkpt lat="46.79076" lon="4.66808">
        <ele>322.1789551</ele>
        <time>2016-02-27T16:07:54Z</time>
      </trkpt>
      <trkpt lat="46.79074" lon="4.66806">
        <ele>322.659668</ele>
        <time>2016-02-27T16:07:56Z</time>
      </trkpt>
      <trkpt lat="46.79073" lon="4.66804">
        <ele>323.1403809</ele>
        <time>2016-02-27T16:07:58Z</time>
      </trkpt>
      <trkpt lat="46.79069" lon="4.66799">
        <ele>323.6209717</ele>
        <time>2016-02-27T16:08:01Z</time>
      </trkpt>
      <trkpt lat="46.79067" lon="4.66788">
        <ele>324.1015625</ele>
        <time>2016-02-27T16:08:07Z</time>
      </trkpt>
      <trkpt lat="46.79063" lon="4.66777">
        <ele>326.5048828</ele>
        <time>2016-02-27T16:08:14Z</time>
      </trkpt>
      <trkpt lat="46.79056" lon="4.66769">
        <ele>327.9467773</ele>
        <time>2016-02-27T16:08:19Z</time>
      </trkpt>
      <trkpt lat="46.79058" lon="4.66746">
        <ele>330.8309326</ele>
        <time>2016-02-27T16:08:30Z</time>
      </trkpt>
      <trkpt lat="46.79057" lon="4.66737">
        <ele>331.3115234</ele>
        <time>2016-02-27T16:08:34Z</time>
      </trkpt>
      <trkpt lat="46.79054" lon="4.66732">
        <ele>331.7921143</ele>
        <time>2016-02-27T16:08:37Z</time>
      </trkpt>
      <trkpt lat="46.79053" lon="4.66726">
        <ele>332.75354</ele>
        <time>2016-02-27T16:08:40Z</time>
      </trkpt>
      <trkpt lat="46.7905" lon="4.66721">
        <ele>333.7147217</ele>
        <time>2016-02-27T16:08:44Z</time>
      </trkpt>
      <trkpt lat="46.79047" lon="4.66714">
        <ele>334.1954346</ele>
        <time>2016-02-27T16:08:48Z</time>
      </trkpt>
      <trkpt lat="46.79045" lon="4.66713">
        <ele>334.6761475</ele>
        <time>2016-02-27T16:08:50Z</time>
      </trkpt>
      <trkpt lat="46.79039" lon="4.66705">
        <ele>335.6373291</ele>
        <time>2016-02-27T16:08:57Z</time>
      </trkpt>
      <trkpt lat="46.79038" lon="4.66705">
        <ele>336.598877</ele>
        <time>2016-02-27T16:08:59Z</time>
      </trkpt>
      <trkpt lat="46.79026" lon="4.66681">
        <ele>339.482666</ele>
        <time>2016-02-27T16:09:16Z</time>
      </trkpt>
      <trkpt lat="46.79018" lon="4.66674">
        <ele>340.4440918</ele>
        <time>2016-02-27T16:09:22Z</time>
      </trkpt>
      <trkpt lat="46.79016" lon="4.66668">
        <ele>340.9246826</ele>
        <time>2016-02-27T16:09:26Z</time>
      </trkpt>
      <trkpt lat="46.79013" lon="4.66666">
        <ele>341.4052734</ele>
        <time>2016-02-27T16:09:28Z</time>
      </trkpt>
      <trkpt lat="46.78999" lon="4.66653">
        <ele>343.8085938</ele>
        <time>2016-02-27T16:09:48Z</time>
      </trkpt>
      <trkpt lat="46.78998" lon="4.66651">
        <ele>344.2894287</ele>
        <time>2016-02-27T16:11:12Z</time>
      </trkpt>
      <trkpt lat="46.78996" lon="4.66652">
        <ele>344.2894287</ele>
        <time>2016-02-27T16:11:45Z</time>
      </trkpt>
      <trkpt lat="46.78991" lon="4.66648">
        <ele>345.2506104</ele>
        <time>2016-02-27T16:11:49Z</time>
      </trkpt>
      <trkpt lat="46.78975" lon="4.66643">
        <ele>349.0958252</ele>
        <time>2016-02-27T16:12:02Z</time>
      </trkpt>
      <trkpt lat="46.78963" lon="4.66635">
        <ele>351.9798584</ele>
        <time>2016-02-27T16:12:12Z</time>
      </trkpt>
      <trkpt lat="46.78948" lon="4.66626">
        <ele>355.3444824</ele>
        <time>2016-02-27T16:12:25Z</time>
      </trkpt>
      <trkpt lat="46.78937" lon="4.66623">
        <ele>357.2670898</ele>
        <time>2016-02-27T16:12:32Z</time>
      </trkpt>
      <trkpt lat="46.78923" lon="4.66622">
        <ele>359.1896973</ele>
        <time>2016-02-27T16:12:42Z</time>
      </trkpt>
      <trkpt lat="46.7892" lon="4.66621">
        <ele>359.6704102</ele>
        <time>2016-02-27T16:12:44Z</time>
      </trkpt>
      <trkpt lat="46.78908" lon="4.66614">
        <ele>362.0737305</ele>
        <time>2016-02-27T16:12:55Z</time>
      </trkpt>
      <trkpt lat="46.78883" lon="4.666">
        <ele>365.4383545</ele>
        <time>2016-02-27T16:13:10Z</time>
      </trkpt>
      <trkpt lat="46.78874" lon="4.66594">
        <ele>366.3995361</ele>
        <time>2016-02-27T16:13:16Z</time>
      </trkpt>
      <trkpt lat="46.78867" lon="4.66592">
        <ele>366.880249</ele>
        <time>2016-02-27T16:13:20Z</time>
      </trkpt>
      <trkpt lat="46.78854" lon="4.66575">
        <ele>368.8029785</ele>
        <time>2016-02-27T16:13:33Z</time>
      </trkpt>
      <trkpt lat="46.78835" lon="4.66569">
        <ele>370.7255859</ele>
        <time>2016-02-27T16:13:43Z</time>
      </trkpt>
      <trkpt lat="46.78834" lon="4.66564">
        <ele>371.2062988</ele>
        <time>2016-02-27T16:13:45Z</time>
      </trkpt>
      <trkpt lat="46.7882" lon="4.66556">
        <ele>373.6094971</ele>
        <time>2016-02-27T16:13:57Z</time>
      </trkpt>
      <trkpt lat="46.78807" lon="4.66546">
        <ele>376.0128174</ele>
        <time>2016-02-27T16:14:09Z</time>
      </trkpt>
      <trkpt lat="46.78801" lon="4.66544">
        <ele>376.0128174</ele>
        <time>2016-02-27T16:14:12Z</time>
      </trkpt>
      <trkpt lat="46.7879" lon="4.6654">
        <ele>377.454834</ele>
        <time>2016-02-27T16:14:18Z</time>
      </trkpt>
      <trkpt lat="46.78765" lon="4.66525">
        <ele>380.3387451</ele>
        <time>2016-02-27T16:14:33Z</time>
      </trkpt>
      <trkpt lat="46.78759" lon="4.6652">
        <ele>381.3000488</ele>
        <time>2016-02-27T16:14:38Z</time>
      </trkpt>
      <trkpt lat="46.78754" lon="4.66511">
        <ele>382.2613525</ele>
        <time>2016-02-27T16:14:43Z</time>
      </trkpt>
      <trkpt lat="46.78747" lon="4.66505">
        <ele>383.7032471</ele>
        <time>2016-02-27T16:14:50Z</time>
      </trkpt>
      <trkpt lat="46.78722" lon="4.66495">
        <ele>386.5874023</ele>
        <time>2016-02-27T16:15:05Z</time>
      </trkpt>
      <trkpt lat="46.78715" lon="4.66488">
        <ele>387.0679932</ele>
        <time>2016-02-27T16:15:10Z</time>
      </trkpt>
      <trkpt lat="46.78687" lon="4.66478">
        <ele>389.4711914</ele>
        <time>2016-02-27T16:15:24Z</time>
      </trkpt>
      <trkpt lat="46.78676" lon="4.66473">
        <ele>390.913208</ele>
        <time>2016-02-27T16:15:31Z</time>
      </trkpt>
      <trkpt lat="46.78666" lon="4.66472">
        <ele>392.3553467</ele>
        <time>2016-02-27T16:15:36Z</time>
      </trkpt>
      <trkpt lat="46.78654" lon="4.66471">
        <ele>392.8359375</ele>
        <time>2016-02-27T16:15:42Z</time>
      </trkpt>
      <trkpt lat="46.78623" lon="4.66473">
        <ele>394.7585449</ele>
        <time>2016-02-27T16:15:54Z</time>
      </trkpt>
      <trkpt lat="46.78592" lon="4.66471">
        <ele>396.2005615</ele>
        <time>2016-02-27T16:16:06Z</time>
      </trkpt>
      <trkpt lat="46.78557" lon="4.66467">
        <ele>399.0843506</ele>
        <time>2016-02-27T16:16:22Z</time>
      </trkpt>
      <trkpt lat="46.78533" lon="4.66453">
        <ele>401.487793</ele>
        <time>2016-02-27T16:16:34Z</time>
      </trkpt>
      <trkpt lat="46.78529" lon="4.66449">
        <ele>401.487793</ele>
        <time>2016-02-27T16:16:36Z</time>
      </trkpt>
      <trkpt lat="46.78513" lon="4.66425">
        <ele>401.9685059</ele>
        <time>2016-02-27T16:16:46Z</time>
      </trkpt>
      <trkpt lat="46.78507" lon="4.6641">
        <ele>401.9685059</ele>
        <time>2016-02-27T16:16:52Z</time>
      </trkpt>
      <trkpt lat="46.78486" lon="4.66398">
        <ele>402.9296875</ele>
        <time>2016-02-27T16:17:02Z</time>
      </trkpt>
      <trkpt lat="46.78477" lon="4.6639">
        <ele>404.3717041</ele>
        <time>2016-02-27T16:17:13Z</time>
      </trkpt>
      <trkpt lat="46.7848" lon="4.66385">
        <ele>403.8911133</ele>
        <time>2016-02-27T16:17:19Z</time>
      </trkpt>
      <trkpt lat="46.78504" lon="4.66391">
        <ele>402.9296875</ele>
        <time>2016-02-27T16:17:32Z</time>
      </trkpt>
      <trkpt lat="46.78514" lon="4.66406">
        <ele>402.4490967</ele>
        <time>2016-02-27T16:17:41Z</time>
      </trkpt>
      <trkpt lat="46.78527" lon="4.66418">
        <ele>402.4490967</ele>
        <time>2016-02-27T16:17:48Z</time>
      </trkpt>
      <trkpt lat="46.78531" lon="4.66425">
        <ele>401.0070801</ele>
        <time>2016-02-27T16:18:00Z</time>
      </trkpt>
      <trkpt lat="46.78531" lon="4.66425">
        <ele>401.487793</ele>
        <time>2016-02-27T16:18:04Z</time>
      </trkpt>
      <trkpt lat="46.78533" lon="4.66422">
        <ele>401.487793</ele>
        <time>2016-02-27T16:18:07Z</time>
      </trkpt>
      <trkpt lat="46.78521" lon="4.66377">
        <ele>399.5650635</ele>
        <time>2016-02-27T16:18:19Z</time>
      </trkpt>
      <trkpt lat="46.7852" lon="4.66375">
        <ele>397.6424561</ele>
        <time>2016-02-27T16:18:28Z</time>
      </trkpt>
      <trkpt lat="46.78521" lon="4.66372">
        <ele>398.1231689</ele>
        <time>2016-02-27T16:18:41Z</time>
      </trkpt>
      <trkpt lat="46.78515" lon="4.66362">
        <ele>397.1617432</ele>
        <time>2016-02-27T16:18:53Z</time>
      </trkpt>
      <trkpt lat="46.78518" lon="4.66355">
        <ele>396.6811523</ele>
        <time>2016-02-27T16:19:11Z</time>
      </trkpt>
      <trkpt lat="46.78521" lon="4.66351">
        <ele>396.6811523</ele>
        <time>2016-02-27T16:19:41Z</time>
      </trkpt>
      <trkpt lat="46.78533" lon="4.66347">
        <ele>397.1617432</ele>
        <time>2016-02-27T16:20:24Z</time>
      </trkpt>
      <trkpt lat="46.78528" lon="4.66351">
        <ele>397.1617432</ele>
        <time>2016-02-27T16:20:45Z</time>
      </trkpt>
      <trkpt lat="46.78525" lon="4.66352">
        <ele>397.6424561</ele>
        <time>2016-02-27T16:20:57Z</time>
      </trkpt>
      <trkpt lat="46.78521" lon="4.66346">
        <ele>397.6424561</ele>
        <time>2016-02-27T16:21:01Z</time>
      </trkpt>
      <trkpt lat="46.78511" lon="4.66306">
        <ele>397.1617432</ele>
        <time>2016-02-27T16:21:12Z</time>
      </trkpt>
      <trkpt lat="46.78496" lon="4.66239">
        <ele>397.1617432</ele>
        <time>2016-02-27T16:21:27Z</time>
      </trkpt>
      <trkpt lat="46.78484" lon="4.6618">
        <ele>397.6424561</ele>
        <time>2016-02-27T16:21:39Z</time>
      </trkpt>
      <trkpt lat="46.78476" lon="4.66119">
        <ele>401.0070801</ele>
        <time>2016-02-27T16:21:53Z</time>
      </trkpt>
      <trkpt lat="46.78479" lon="4.66077">
        <ele>403.4104004</ele>
        <time>2016-02-27T16:22:02Z</time>
      </trkpt>
      <trkpt lat="46.78479" lon="4.66066">
        <ele>405.3330078</ele>
        <time>2016-02-27T16:22:11Z</time>
      </trkpt>
      <trkpt lat="46.78473" lon="4.66068">
        <ele>405.8137207</ele>
        <time>2016-02-27T16:22:15Z</time>
      </trkpt>
      <trkpt lat="46.78455" lon="4.66066">
        <ele>408.217041</ele>
        <time>2016-02-27T16:22:26Z</time>
      </trkpt>
      <trkpt lat="46.78448" lon="4.66065">
        <ele>408.6976318</ele>
        <time>2016-02-27T16:22:28Z</time>
      </trkpt>
      <trkpt lat="46.78435" lon="4.66065">
        <ele>409.6590576</ele>
        <time>2016-02-27T16:22:35Z</time>
      </trkpt>
      <trkpt lat="46.78424" lon="4.66067">
        <ele>410.6202393</ele>
        <time>2016-02-27T16:22:40Z</time>
      </trkpt>
      <trkpt lat="46.78389" lon="4.66067">
        <ele>413.5042725</ele>
        <time>2016-02-27T16:22:55Z</time>
      </trkpt>
      <trkpt lat="46.78382" lon="4.66066">
        <ele>414.4654541</ele>
        <time>2016-02-27T16:22:59Z</time>
      </trkpt>
      <trkpt lat="46.78377" lon="4.66066">
        <ele>414.4654541</ele>
        <time>2016-02-27T16:23:02Z</time>
      </trkpt>
      <trkpt lat="46.78341" lon="4.66067">
        <ele>416.8688965</ele>
        <time>2016-02-27T16:23:16Z</time>
      </trkpt>
      <trkpt lat="46.78311" lon="4.66078">
        <ele>417.3496094</ele>
        <time>2016-02-27T16:23:29Z</time>
      </trkpt>
      <trkpt lat="46.78272" lon="4.66093">
        <ele>416.8688965</ele>
        <time>2016-02-27T16:23:41Z</time>
      </trkpt>
      <trkpt lat="46.78219" lon="4.66096">
        <ele>417.8302002</ele>
        <time>2016-02-27T16:23:57Z</time>
      </trkpt>
      <trkpt lat="46.78188" lon="4.66097">
        <ele>420.7141113</ele>
        <time>2016-02-27T16:24:12Z</time>
      </trkpt>
      <trkpt lat="46.78157" lon="4.66101">
        <ele>422.1560059</ele>
        <time>2016-02-27T16:24:22Z</time>
      </trkpt>
      <trkpt lat="46.78147" lon="4.66103">
        <ele>422.6367188</ele>
        <time>2016-02-27T16:24:26Z</time>
      </trkpt>
      <trkpt lat="46.78132" lon="4.66097">
        <ele>422.1560059</ele>
        <time>2016-02-27T16:24:52Z</time>
      </trkpt>
      <trkpt lat="46.78132" lon="4.66097">
        <ele>421.675415</ele>
        <time>2016-02-27T16:25:01Z</time>
      </trkpt>
      <trkpt lat="46.78125" lon="4.66088">
        <ele>421.675415</ele>
        <time>2016-02-27T16:25:07Z</time>
      </trkpt>
      <trkpt lat="46.7812" lon="4.66083">
        <ele>421.1948242</ele>
        <time>2016-02-27T16:25:10Z</time>
      </trkpt>
      <trkpt lat="46.78096" lon="4.66071">
        <ele>420.2333984</ele>
        <time>2016-02-27T16:25:20Z</time>
      </trkpt>
      <trkpt lat="46.78069" lon="4.66044">
        <ele>418.310791</ele>
        <time>2016-02-27T16:25:30Z</time>
      </trkpt>
      <trkpt lat="46.78064" lon="4.66036">
        <ele>417.3496094</ele>
        <time>2016-02-27T16:25:33Z</time>
      </trkpt>
      <trkpt lat="46.78059" lon="4.66028">
        <ele>416.3881836</ele>
        <time>2016-02-27T16:25:35Z</time>
      </trkpt>
      <trkpt lat="46.78055" lon="4.66008">
        <ele>413.9848633</ele>
        <time>2016-02-27T16:25:39Z</time>
      </trkpt>
      <trkpt lat="46.78058" lon="4.65983">
        <ele>412.5428467</ele>
        <time>2016-02-27T16:25:41Z</time>
      </trkpt>
      <trkpt lat="46.78028" lon="4.65964">
        <ele>413.0235596</ele>
        <time>2016-02-27T16:25:51Z</time>
      </trkpt>
      <trkpt lat="46.78019" lon="4.65962">
        <ele>412.5428467</ele>
        <time>2016-02-27T16:25:53Z</time>
      </trkpt>
      <trkpt lat="46.78006" lon="4.65955">
        <ele>411.581665</ele>
        <time>2016-02-27T16:25:57Z</time>
      </trkpt>
      <trkpt lat="46.7798" lon="4.65953">
        <ele>410.6202393</ele>
        <time>2016-02-27T16:26:11Z</time>
      </trkpt>
      <trkpt lat="46.77976" lon="4.65954">
        <ele>411.1009521</ele>
        <time>2016-02-27T16:26:13Z</time>
      </trkpt>
      <trkpt lat="46.77946" lon="4.65968">
        <ele>413.5042725</ele>
        <time>2016-02-27T16:26:27Z</time>
      </trkpt>
      <trkpt lat="46.77911" lon="4.66014">
        <ele>414.4654541</ele>
        <time>2016-02-27T16:26:44Z</time>
      </trkpt>
      <trkpt lat="46.77895" lon="4.6604">
        <ele>413.0235596</ele>
        <time>2016-02-27T16:26:50Z</time>
      </trkpt>
      <trkpt lat="46.77871" lon="4.66044">
        <ele>411.581665</ele>
        <time>2016-02-27T16:26:54Z</time>
      </trkpt>
      <trkpt lat="46.7786" lon="4.66041">
        <ele>410.1396484</ele>
        <time>2016-02-27T16:26:56Z</time>
      </trkpt>
      <trkpt lat="46.77851" lon="4.66039">
        <ele>408.6976318</ele>
        <time>2016-02-27T16:26:58Z</time>
      </trkpt>
      <trkpt lat="46.77805" lon="4.66022">
        <ele>405.8137207</ele>
        <time>2016-02-27T16:27:11Z</time>
      </trkpt>
      <trkpt lat="46.7779" lon="4.66031">
        <ele>405.3330078</ele>
        <time>2016-02-27T16:27:24Z</time>
      </trkpt>
      <trkpt lat="46.77783" lon="4.6607">
        <ele>406.2943115</ele>
        <time>2016-02-27T16:27:47Z</time>
      </trkpt>
      <trkpt lat="46.77767" lon="4.6616">
        <ele>409.1783447</ele>
        <time>2016-02-27T16:28:09Z</time>
      </trkpt>
      <trkpt lat="46.77755" lon="4.66223">
        <ele>411.581665</ele>
        <time>2016-02-27T16:28:25Z</time>
      </trkpt>
      <trkpt lat="46.77745" lon="4.66301">
        <ele>413.0235596</ele>
        <time>2016-02-27T16:28:42Z</time>
      </trkpt>
      <trkpt lat="46.7774" lon="4.66373">
        <ele>415.9074707</ele>
        <time>2016-02-27T16:29:03Z</time>
      </trkpt>
      <trkpt lat="46.77719" lon="4.66481">
        <ele>418.7915039</ele>
        <time>2016-02-27T16:29:30Z</time>
      </trkpt>
      <trkpt lat="46.7767" lon="4.66597">
        <ele>421.675415</ele>
        <time>2016-02-27T16:29:55Z</time>
      </trkpt>
      <trkpt lat="46.77661" lon="4.66686">
        <ele>421.675415</ele>
        <time>2016-02-27T16:30:11Z</time>
      </trkpt>
      <trkpt lat="46.77645" lon="4.66822">
        <ele>421.1948242</ele>
        <time>2016-02-27T16:30:32Z</time>
      </trkpt>
      <trkpt lat="46.77634" lon="4.6692">
        <ele>418.310791</ele>
        <time>2016-02-27T16:30:46Z</time>
      </trkpt>
      <trkpt lat="46.77629" lon="4.66998">
        <ele>415.4268799</ele>
        <time>2016-02-27T16:30:54Z</time>
      </trkpt>
      <trkpt lat="46.7761" lon="4.671">
        <ele>412.0622559</ele>
        <time>2016-02-27T16:31:04Z</time>
      </trkpt>
      <trkpt lat="46.77588" lon="4.67164">
        <ele>410.1396484</ele>
        <time>2016-02-27T16:31:11Z</time>
      </trkpt>
      <trkpt lat="46.77584" lon="4.67183">
        <ele>408.217041</ele>
        <time>2016-02-27T16:31:14Z</time>
      </trkpt>
      <trkpt lat="46.77583" lon="4.67187">
        <ele>408.217041</ele>
        <time>2016-02-27T16:31:15Z</time>
      </trkpt>
      <trkpt lat="46.77585" lon="4.67211">
        <ele>406.2943115</ele>
        <time>2016-02-27T16:31:21Z</time>
      </trkpt>
      <trkpt lat="46.77593" lon="4.67315">
        <ele>403.8911133</ele>
        <time>2016-02-27T16:31:34Z</time>
      </trkpt>
      <trkpt lat="46.77599" lon="4.67377">
        <ele>400.5264893</ele>
        <time>2016-02-27T16:31:40Z</time>
      </trkpt>
      <trkpt lat="46.77601" lon="4.674">
        <ele>399.5650635</ele>
        <time>2016-02-27T16:31:42Z</time>
      </trkpt>
      <trkpt lat="46.77604" lon="4.67447">
        <ele>397.6424561</ele>
        <time>2016-02-27T16:31:46Z</time>
      </trkpt>
      <trkpt lat="46.77605" lon="4.67467">
        <ele>395.2391357</ele>
        <time>2016-02-27T16:31:48Z</time>
      </trkpt>
      <trkpt lat="46.77607" lon="4.67494">
        <ele>393.7972412</ele>
        <time>2016-02-27T16:31:51Z</time>
      </trkpt>
      <trkpt lat="46.7761" lon="4.67508">
        <ele>392.3553467</ele>
        <time>2016-02-27T16:31:53Z</time>
      </trkpt>
      <trkpt lat="46.77613" lon="4.67514">
        <ele>392.3553467</ele>
        <time>2016-02-27T16:31:54Z</time>
      </trkpt>
      <trkpt lat="46.7768" lon="4.67609">
        <ele>390.913208</ele>
        <time>2016-02-27T16:32:15Z</time>
      </trkpt>
      <trkpt lat="46.77717" lon="4.67657">
        <ele>391.8745117</ele>
        <time>2016-02-27T16:32:26Z</time>
      </trkpt>
      <trkpt lat="46.77724" lon="4.67664">
        <ele>390.4326172</ele>
        <time>2016-02-27T16:32:28Z</time>
      </trkpt>
      <trkpt lat="46.77803" lon="4.67747">
        <ele>391.3937988</ele>
        <time>2016-02-27T16:32:51Z</time>
      </trkpt>
      <trkpt lat="46.7782" lon="4.67767">
        <ele>392.3553467</ele>
        <time>2016-02-27T16:32:56Z</time>
      </trkpt>
      <trkpt lat="46.77896" lon="4.67894">
        <ele>393.7972412</ele>
        <time>2016-02-27T16:33:20Z</time>
      </trkpt>
      <trkpt lat="46.77946" lon="4.67954">
        <ele>395.7198486</ele>
        <time>2016-02-27T16:33:33Z</time>
      </trkpt>
      <trkpt lat="46.78001" lon="4.68032">
        <ele>392.8359375</ele>
        <time>2016-02-27T16:33:46Z</time>
      </trkpt>
      <trkpt lat="46.78043" lon="4.68227">
        <ele>390.913208</ele>
        <time>2016-02-27T16:34:07Z</time>
      </trkpt>
      <trkpt lat="46.78099" lon="4.68383">
        <ele>392.8359375</ele>
        <time>2016-02-27T16:34:30Z</time>
      </trkpt>
      <trkpt lat="46.78111" lon="4.6841">
        <ele>392.3553467</ele>
        <time>2016-02-27T16:34:34Z</time>
      </trkpt>
      <trkpt lat="46.78175" lon="4.68513">
        <ele>389.9519043</ele>
        <time>2016-02-27T16:34:50Z</time>
      </trkpt>
      <trkpt lat="46.78188" lon="4.68548">
        <ele>388.5100098</ele>
        <time>2016-02-27T16:34:54Z</time>
      </trkpt>
      <trkpt lat="46.78213" lon="4.68668">
        <ele>384.184082</ele>
        <time>2016-02-27T16:35:07Z</time>
      </trkpt>
      <trkpt lat="46.78225" lon="4.68742">
        <ele>381.3000488</ele>
        <time>2016-02-27T16:35:14Z</time>
      </trkpt>
      <trkpt lat="46.78226" lon="4.68754">
        <ele>381.3000488</ele>
        <time>2016-02-27T16:35:15Z</time>
      </trkpt>
      <trkpt lat="46.78233" lon="4.68821">
        <ele>378.4161377</ele>
        <time>2016-02-27T16:35:20Z</time>
      </trkpt>
      <trkpt lat="46.78236" lon="4.68849">
        <ele>376.4935303</ele>
        <time>2016-02-27T16:35:22Z</time>
      </trkpt>
      <trkpt lat="46.78236" lon="4.68879">
        <ele>375.0515137</ele>
        <time>2016-02-27T16:35:24Z</time>
      </trkpt>
      <trkpt lat="46.78231" lon="4.68943">
        <ele>371.6868896</ele>
        <time>2016-02-27T16:35:29Z</time>
      </trkpt>
      <trkpt lat="46.78229" lon="4.68959">
        <ele>370.7255859</ele>
        <time>2016-02-27T16:35:31Z</time>
      </trkpt>
      <trkpt lat="46.78228" lon="4.68967">
        <ele>370.7255859</ele>
        <time>2016-02-27T16:35:32Z</time>
      </trkpt>
      <trkpt lat="46.78222" lon="4.68995">
        <ele>370.7255859</ele>
        <time>2016-02-27T16:35:37Z</time>
      </trkpt>
      <trkpt lat="46.78241" lon="4.69075">
        <ele>371.2062988</ele>
        <time>2016-02-27T16:35:56Z</time>
      </trkpt>
      <trkpt lat="46.78252" lon="4.69102">
        <ele>368.8029785</ele>
        <time>2016-02-27T16:36:09Z</time>
      </trkpt>
      <trkpt lat="46.78254" lon="4.69107">
        <ele>368.8029785</ele>
        <time>2016-02-27T16:36:10Z</time>
      </trkpt>
      <trkpt lat="46.78261" lon="4.69123">
        <ele>368.3222656</ele>
        <time>2016-02-27T16:36:13Z</time>
      </trkpt>
      <trkpt lat="46.78276" lon="4.69152">
        <ele>367.8415527</ele>
        <time>2016-02-27T16:36:18Z</time>
      </trkpt>
      <trkpt lat="46.78286" lon="4.69267">
        <ele>365.4383545</ele>
        <time>2016-02-27T16:36:34Z</time>
      </trkpt>
      <trkpt lat="46.78283" lon="4.69418">
        <ele>368.8029785</ele>
        <time>2016-02-27T16:37:00Z</time>
      </trkpt>
      <trkpt lat="46.78277" lon="4.69458">
        <ele>372.1674805</ele>
        <time>2016-02-27T16:37:11Z</time>
      </trkpt>
      <trkpt lat="46.78264" lon="4.6948">
        <ele>374.5708008</ele>
        <time>2016-02-27T16:37:20Z</time>
      </trkpt>
      <trkpt lat="46.78244" lon="4.69498">
        <ele>377.454834</ele>
        <time>2016-02-27T16:37:31Z</time>
      </trkpt>
      <trkpt lat="46.7822" lon="4.69514">
        <ele>380.819458</ele>
        <time>2016-02-27T16:37:44Z</time>
      </trkpt>
      <trkpt lat="46.78199" lon="4.6953">
        <ele>384.184082</ele>
        <time>2016-02-27T16:37:57Z</time>
      </trkpt>
      <trkpt lat="46.78178" lon="4.69546">
        <ele>387.548584</ele>
        <time>2016-02-27T16:38:11Z</time>
      </trkpt>
      <trkpt lat="46.78158" lon="4.69563">
        <ele>390.4326172</ele>
        <time>2016-02-27T16:38:24Z</time>
      </trkpt>
      <trkpt lat="46.78155" lon="4.6957">
        <ele>391.8745117</ele>
        <time>2016-02-27T16:38:28Z</time>
      </trkpt>
      <trkpt lat="46.78155" lon="4.69583">
        <ele>393.3165283</ele>
        <time>2016-02-27T16:38:34Z</time>
      </trkpt>
      <trkpt lat="46.78168" lon="4.696">
        <ele>396.6811523</ele>
        <time>2016-02-27T16:38:47Z</time>
      </trkpt>
      <trkpt lat="46.78169" lon="4.696">
        <ele>396.6811523</ele>
        <time>2016-02-27T16:38:48Z</time>
      </trkpt>
      <trkpt lat="46.78196" lon="4.69602">
        <ele>401.0070801</ele>
        <time>2016-02-27T16:39:04Z</time>
      </trkpt>
      <trkpt lat="46.78214" lon="4.69604">
        <ele>401.487793</ele>
        <time>2016-02-27T16:39:13Z</time>
      </trkpt>
      <trkpt lat="46.78252" lon="4.69612">
        <ele>401.487793</ele>
        <time>2016-02-27T16:39:30Z</time>
      </trkpt>
      <trkpt lat="46.78256" lon="4.69616">
        <ele>401.487793</ele>
        <time>2016-02-27T16:39:32Z</time>
      </trkpt>
      <trkpt lat="46.78261" lon="4.69658">
        <ele>405.3330078</ele>
        <time>2016-02-27T16:39:48Z</time>
      </trkpt>
      <trkpt lat="46.78256" lon="4.69685">
        <ele>408.217041</ele>
        <time>2016-02-27T16:39:59Z</time>
      </trkpt>
      <trkpt lat="46.78249" lon="4.6973">
        <ele>411.581665</ele>
        <time>2016-02-27T16:40:16Z</time>
      </trkpt>
      <trkpt lat="46.7824" lon="4.69762">
        <ele>414.4654541</ele>
        <time>2016-02-27T16:40:30Z</time>
      </trkpt>
      <trkpt lat="46.78235" lon="4.69767">
        <ele>415.9074707</ele>
        <time>2016-02-27T16:40:34Z</time>
      </trkpt>
      <trkpt lat="46.78232" lon="4.69776">
        <ele>417.8302002</ele>
        <time>2016-02-27T16:40:40Z</time>
      </trkpt>
      <trkpt lat="46.78194" lon="4.69797">
        <ele>419.7528076</ele>
        <time>2016-02-27T16:40:59Z</time>
      </trkpt>
      <trkpt lat="46.78163" lon="4.69818">
        <ele>418.310791</ele>
        <time>2016-02-27T16:41:08Z</time>
      </trkpt>
      <trkpt lat="46.78151" lon="4.6983">
        <ele>417.8302002</ele>
        <time>2016-02-27T16:41:11Z</time>
      </trkpt>
      <trkpt lat="46.78139" lon="4.69837">
        <ele>415.9074707</ele>
        <time>2016-02-27T16:41:14Z</time>
      </trkpt>
      <trkpt lat="46.78105" lon="4.69863">
        <ele>417.3496094</ele>
        <time>2016-02-27T16:41:31Z</time>
      </trkpt>
      <trkpt lat="46.78067" lon="4.69872">
        <ele>417.8302002</ele>
        <time>2016-02-27T16:41:44Z</time>
      </trkpt>
      <trkpt lat="46.78004" lon="4.69882">
        <ele>416.3881836</ele>
        <time>2016-02-27T16:41:59Z</time>
      </trkpt>
      <trkpt lat="46.78" lon="4.69885">
        <ele>416.3881836</ele>
        <time>2016-02-27T16:42:00Z</time>
      </trkpt>
      <trkpt lat="46.77975" lon="4.69912">
        <ele>416.8688965</ele>
        <time>2016-02-27T16:42:08Z</time>
      </trkpt>
      <trkpt lat="46.7798" lon="4.69964">
        <ele>418.310791</ele>
        <time>2016-02-27T16:42:21Z</time>
      </trkpt>
      <trkpt lat="46.77984" lon="4.69972">
        <ele>418.310791</ele>
        <time>2016-02-27T16:42:24Z</time>
      </trkpt>
      <trkpt lat="46.77991" lon="4.69988">
        <ele>419.7528076</ele>
        <time>2016-02-27T16:42:31Z</time>
      </trkpt>
      <trkpt lat="46.77992" lon="4.69991">
        <ele>419.7528076</ele>
        <time>2016-02-27T16:42:33Z</time>
      </trkpt>
      <trkpt lat="46.77994" lon="4.69993">
        <ele>419.2722168</ele>
        <time>2016-02-27T16:42:35Z</time>
      </trkpt>
      <trkpt lat="46.77996" lon="4.69993">
        <ele>418.7915039</ele>
        <time>2016-02-27T16:43:07Z</time>
      </trkpt>
      <trkpt lat="46.77995" lon="4.69999">
        <ele>418.7915039</ele>
        <time>2016-02-27T16:43:27Z</time>
      </trkpt>
      <trkpt lat="46.77995" lon="4.69999">
        <ele>418.7915039</ele>
        <time>2016-02-27T16:43:28Z</time>
      </trkpt>
      <trkpt lat="46.78003" lon="4.69982">
        <ele>422.1560059</ele>
        <time>2016-02-27T16:43:38Z</time>
      </trkpt>
      <trkpt lat="46.78009" lon="4.69982">
        <ele>424.0787354</ele>
        <time>2016-02-27T16:43:43Z</time>
      </trkpt>
      <trkpt lat="46.7801" lon="4.69982">
        <ele>424.5594482</ele>
        <time>2016-02-27T16:43:45Z</time>
      </trkpt>
      <trkpt lat="46.78013" lon="4.69978">
        <ele>425.520752</ele>
        <time>2016-02-27T16:43:49Z</time>
      </trkpt>
      <trkpt lat="46.78015" lon="4.69973">
        <ele>427.9239502</ele>
        <time>2016-02-27T16:43:54Z</time>
      </trkpt>
      <trkpt lat="46.78017" lon="4.69973">
        <ele>428.885376</ele>
        <time>2016-02-27T16:44:10Z</time>
      </trkpt>
      <trkpt lat="46.78023" lon="4.69966">
        <ele>432.25</ele>
        <time>2016-02-27T16:44:24Z</time>
      </trkpt>
      <trkpt lat="46.78024" lon="4.69965">
        <ele>432.25</ele>
        <time>2016-02-27T16:44:25Z</time>
      </trkpt>
      <trkpt lat="46.78028" lon="4.69958">
        <ele>434.6533203</ele>
        <time>2016-02-27T16:44:44Z</time>
      </trkpt>
      <trkpt lat="46.78033" lon="4.69959">
        <ele>435.1339111</ele>
        <time>2016-02-27T16:45:02Z</time>
      </trkpt>
      <trkpt lat="46.78035" lon="4.69959">
        <ele>434.6533203</ele>
        <time>2016-02-27T16:45:20Z</time>
      </trkpt>
      <trkpt lat="46.78035" lon="4.69958">
        <ele>434.6533203</ele>
        <time>2016-02-27T16:46:10Z</time>
      </trkpt>
      <trkpt lat="46.7804" lon="4.69952">
        <ele>436.0952148</ele>
        <time>2016-02-27T16:46:26Z</time>
      </trkpt>
      <trkpt lat="46.78046" lon="4.69948">
        <ele>437.0565186</ele>
        <time>2016-02-27T16:46:31Z</time>
      </trkpt>
      <trkpt lat="46.7808" lon="4.69942">
        <ele>440.4212646</ele>
        <time>2016-02-27T16:46:46Z</time>
      </trkpt>
      <trkpt lat="46.78128" lon="4.69957">
        <ele>440.4212646</ele>
        <time>2016-02-27T16:47:05Z</time>
      </trkpt>
      <trkpt lat="46.78153" lon="4.69963">
        <ele>441.3824463</ele>
        <time>2016-02-27T16:47:25Z</time>
      </trkpt>
      <trkpt lat="46.78182" lon="4.69968">
        <ele>444.2664795</ele>
        <time>2016-02-27T16:47:43Z</time>
      </trkpt>
      <trkpt lat="46.78232" lon="4.69991">
        <ele>446.6696777</ele>
        <time>2016-02-27T16:48:12Z</time>
      </trkpt>
      <trkpt lat="46.78287" lon="4.70029">
        <ele>448.1118164</ele>
        <time>2016-02-27T16:48:39Z</time>
      </trkpt>
      <trkpt lat="46.78338" lon="4.70066">
        <ele>451.4763184</ele>
        <time>2016-02-27T16:49:05Z</time>
      </trkpt>
      <trkpt lat="46.78384" lon="4.70101">
        <ele>453.3989258</ele>
        <time>2016-02-27T16:49:28Z</time>
      </trkpt>
      <trkpt lat="46.78444" lon="4.7017">
        <ele>452.4376221</ele>
        <time>2016-02-27T16:49:52Z</time>
      </trkpt>
      <trkpt lat="46.78467" lon="4.70231">
        <ele>449.5537109</ele>
        <time>2016-02-27T16:50:04Z</time>
      </trkpt>
      <trkpt lat="46.78479" lon="4.70277">
        <ele>448.5924072</ele>
        <time>2016-02-27T16:50:11Z</time>
      </trkpt>
      <trkpt lat="46.78508" lon="4.7035">
        <ele>445.708374</ele>
        <time>2016-02-27T16:50:24Z</time>
      </trkpt>
      <trkpt lat="46.78547" lon="4.70435">
        <ele>443.7857666</ele>
        <time>2016-02-27T16:50:40Z</time>
      </trkpt>
      <trkpt lat="46.7858" lon="4.70573">
        <ele>444.2664795</ele>
        <time>2016-02-27T16:51:01Z</time>
      </trkpt>
      <trkpt lat="46.78582" lon="4.70579">
        <ele>444.2664795</ele>
        <time>2016-02-27T16:51:02Z</time>
      </trkpt>
      <trkpt lat="46.78589" lon="4.70596">
        <ele>443.7857666</ele>
        <time>2016-02-27T16:51:05Z</time>
      </trkpt>
      <trkpt lat="46.78592" lon="4.70619">
        <ele>443.3050537</ele>
        <time>2016-02-27T16:51:09Z</time>
      </trkpt>
      <trkpt lat="46.78592" lon="4.70644">
        <ele>442.8244629</ele>
        <time>2016-02-27T16:51:13Z</time>
      </trkpt>
      <trkpt lat="46.78606" lon="4.70665">
        <ele>443.7857666</ele>
        <time>2016-02-27T16:51:18Z</time>
      </trkpt>
      <trkpt lat="46.78649" lon="4.70685">
        <ele>442.8244629</ele>
        <time>2016-02-27T16:51:29Z</time>
      </trkpt>
      <trkpt lat="46.78666" lon="4.70695">
        <ele>442.3438721</ele>
        <time>2016-02-27T16:51:33Z</time>
      </trkpt>
      <trkpt lat="46.78699" lon="4.70704">
        <ele>441.3824463</ele>
        <time>2016-02-27T16:51:40Z</time>
      </trkpt>
      <trkpt lat="46.78714" lon="4.70708">
        <ele>440.9018555</ele>
        <time>2016-02-27T16:51:43Z</time>
      </trkpt>
      <trkpt lat="46.78753" lon="4.70728">
        <ele>438.4985352</ele>
        <time>2016-02-27T16:51:52Z</time>
      </trkpt>
      <trkpt lat="46.78756" lon="4.7073">
        <ele>437.0565186</ele>
        <time>2016-02-27T16:51:54Z</time>
      </trkpt>
      <trkpt lat="46.78759" lon="4.70726">
        <ele>436.0952148</ele>
        <time>2016-02-27T16:52:06Z</time>
      </trkpt>
      <trkpt lat="46.78758" lon="4.70728">
        <ele>435.614502</ele>
        <time>2016-02-27T16:52:36Z</time>
      </trkpt>
      <trkpt lat="46.78758" lon="4.70729">
        <ele>435.614502</ele>
        <time>2016-02-27T16:53:14Z</time>
      </trkpt>
      <trkpt lat="46.78758" lon="4.70729">
        <ele>435.614502</ele>
        <time>2016-02-27T16:53:24Z</time>
      </trkpt>
      <trkpt lat="46.7876" lon="4.70729">
        <ele>436.0952148</ele>
        <time>2016-02-27T16:53:27Z</time>
      </trkpt>
      <trkpt lat="46.78764" lon="4.70731">
        <ele>436.0952148</ele>
        <time>2016-02-27T16:53:30Z</time>
      </trkpt>
      <trkpt lat="46.78769" lon="4.70751">
        <ele>435.1339111</ele>
        <time>2016-02-27T16:53:35Z</time>
      </trkpt>
      <trkpt lat="46.78769" lon="4.70758">
        <ele>434.1726074</ele>
        <time>2016-02-27T16:53:36Z</time>
      </trkpt>
      <trkpt lat="46.78767" lon="4.70817">
        <ele>432.7307129</ele>
        <time>2016-02-27T16:53:44Z</time>
      </trkpt>
      <trkpt lat="46.78772" lon="4.70886">
        <ele>430.3272705</ele>
        <time>2016-02-27T16:53:54Z</time>
      </trkpt>
      <trkpt lat="46.78766" lon="4.7091">
        <ele>429.3659668</ele>
        <time>2016-02-27T16:53:58Z</time>
      </trkpt>
      <trkpt lat="46.78762" lon="4.70922">
        <ele>428.885376</ele>
        <time>2016-02-27T16:54:00Z</time>
      </trkpt>
      <trkpt lat="46.78761" lon="4.7096">
        <ele>427.4433594</ele>
        <time>2016-02-27T16:54:05Z</time>
      </trkpt>
      <trkpt lat="46.78761" lon="4.70986">
        <ele>426.0013428</ele>
        <time>2016-02-27T16:54:08Z</time>
      </trkpt>
      <trkpt lat="46.78757" lon="4.71023">
        <ele>423.5980225</ele>
        <time>2016-02-27T16:54:12Z</time>
      </trkpt>
      <trkpt lat="46.78758" lon="4.71079">
        <ele>421.675415</ele>
        <time>2016-02-27T16:54:18Z</time>
      </trkpt>
      <trkpt lat="46.78755" lon="4.71104">
        <ele>421.1948242</ele>
        <time>2016-02-27T16:54:21Z</time>
      </trkpt>
      <trkpt lat="46.78753" lon="4.71125">
        <ele>419.7528076</ele>
        <time>2016-02-27T16:54:24Z</time>
      </trkpt>
      <trkpt lat="46.78753" lon="4.71152">
        <ele>418.7915039</ele>
        <time>2016-02-27T16:54:28Z</time>
      </trkpt>
      <trkpt lat="46.78753" lon="4.71166">
        <ele>417.3496094</ele>
        <time>2016-02-27T16:54:30Z</time>
      </trkpt>
      <trkpt lat="46.78753" lon="4.71197">
        <ele>417.3496094</ele>
        <time>2016-02-27T16:54:35Z</time>
      </trkpt>
      <trkpt lat="46.78758" lon="4.71214">
        <ele>416.8688965</ele>
        <time>2016-02-27T16:54:38Z</time>
      </trkpt>
      <trkpt lat="46.78765" lon="4.71254">
        <ele>416.3881836</ele>
        <time>2016-02-27T16:54:44Z</time>
      </trkpt>
      <trkpt lat="46.78768" lon="4.71273">
        <ele>414.946167</ele>
        <time>2016-02-27T16:54:47Z</time>
      </trkpt>
      <trkpt lat="46.78768" lon="4.71281">
        <ele>414.4654541</ele>
        <time>2016-02-27T16:54:49Z</time>
      </trkpt>
      <trkpt lat="46.78775" lon="4.71318">
        <ele>412.5428467</ele>
        <time>2016-02-27T16:54:57Z</time>
      </trkpt>
      <trkpt lat="46.78784" lon="4.71352">
        <ele>410.1396484</ele>
        <time>2016-02-27T16:55:03Z</time>
      </trkpt>
      <trkpt lat="46.78793" lon="4.71374">
        <ele>408.217041</ele>
        <time>2016-02-27T16:55:06Z</time>
      </trkpt>
      <trkpt lat="46.78809" lon="4.71422">
        <ele>404.3717041</ele>
        <time>2016-02-27T16:55:11Z</time>
      </trkpt>
      <trkpt lat="46.78813" lon="4.71431">
        <ele>404.3717041</ele>
        <time>2016-02-27T16:55:12Z</time>
      </trkpt>
      <trkpt lat="46.78816" lon="4.7144">
        <ele>402.4490967</ele>
        <time>2016-02-27T16:55:13Z</time>
      </trkpt>
      <trkpt lat="46.78832" lon="4.71464">
        <ele>400.5264893</ele>
        <time>2016-02-27T16:55:16Z</time>
      </trkpt>
      <trkpt lat="46.78839" lon="4.71494">
        <ele>397.1617432</ele>
        <time>2016-02-27T16:55:19Z</time>
      </trkpt>
      <trkpt lat="46.78841" lon="4.7151">
        <ele>395.2391357</ele>
        <time>2016-02-27T16:55:21Z</time>
      </trkpt>
      <trkpt lat="46.78844" lon="4.71524">
        <ele>393.7972412</ele>
        <time>2016-02-27T16:55:23Z</time>
      </trkpt>
      <trkpt lat="46.78844" lon="4.71532">
        <ele>393.3165283</ele>
        <time>2016-02-27T16:55:24Z</time>
      </trkpt>
      <trkpt lat="46.78843" lon="4.7155">
        <ele>391.8745117</ele>
        <time>2016-02-27T16:55:26Z</time>
      </trkpt>
      <trkpt lat="46.7884" lon="4.71589">
        <ele>389.9519043</ele>
        <time>2016-02-27T16:55:32Z</time>
      </trkpt>
      <trkpt lat="46.78837" lon="4.71602">
        <ele>389.9519043</ele>
        <time>2016-02-27T16:55:34Z</time>
      </trkpt>
      <trkpt lat="46.78832" lon="4.71629">
        <ele>389.9519043</ele>
        <time>2016-02-27T16:55:38Z</time>
      </trkpt>
      <trkpt lat="46.78831" lon="4.71659">
        <ele>388.9906006</ele>
        <time>2016-02-27T16:55:43Z</time>
      </trkpt>
      <trkpt lat="46.78844" lon="4.71735">
        <ele>386.1066895</ele>
        <time>2016-02-27T16:55:53Z</time>
      </trkpt>
      <trkpt lat="46.78845" lon="4.71752">
        <ele>384.184082</ele>
        <time>2016-02-27T16:55:56Z</time>
      </trkpt>
      <trkpt lat="46.78844" lon="4.71758">
        <ele>383.7032471</ele>
        <time>2016-02-27T16:56:16Z</time>
      </trkpt>
      <trkpt lat="46.78844" lon="4.71758">
        <ele>383.7032471</ele>
        <time>2016-02-27T16:56:37Z</time>
      </trkpt>
      <trkpt lat="46.78852" lon="4.71755">
        <ele>382.7420654</ele>
        <time>2016-02-27T16:56:41Z</time>
      </trkpt>
      <trkpt lat="46.78861" lon="4.71761">
        <ele>382.2613525</ele>
        <time>2016-02-27T16:56:45Z</time>
      </trkpt>
      <trkpt lat="46.78864" lon="4.71772">
        <ele>381.3000488</ele>
        <time>2016-02-27T16:56:47Z</time>
      </trkpt>
      <trkpt lat="46.7887" lon="4.71812">
        <ele>380.3387451</ele>
        <time>2016-02-27T16:56:52Z</time>
      </trkpt>
      <trkpt lat="46.78877" lon="4.71857">
        <ele>379.3774414</ele>
        <time>2016-02-27T16:56:58Z</time>
      </trkpt>
      <trkpt lat="46.78881" lon="4.71887">
        <ele>378.4161377</ele>
        <time>2016-02-27T16:57:02Z</time>
      </trkpt>
      <trkpt lat="46.78887" lon="4.71931">
        <ele>376.9742432</ele>
        <time>2016-02-27T16:57:09Z</time>
      </trkpt>
      <trkpt lat="46.78912" lon="4.72035">
        <ele>373.1289063</ele>
        <time>2016-02-27T16:57:25Z</time>
      </trkpt>
      <trkpt lat="46.78919" lon="4.72057">
        <ele>372.1674805</ele>
        <time>2016-02-27T16:57:29Z</time>
      </trkpt>
      <trkpt lat="46.78922" lon="4.72061">
        <ele>371.2062988</ele>
        <time>2016-02-27T16:57:31Z</time>
      </trkpt>
      <trkpt lat="46.78925" lon="4.72063">
        <ele>371.2062988</ele>
        <time>2016-02-27T16:57:32Z</time>
      </trkpt>
      <trkpt lat="46.78937" lon="4.72072">
        <ele>370.244873</ele>
        <time>2016-02-27T16:57:35Z</time>
      </trkpt>
      <trkpt lat="46.7895" lon="4.72087">
        <ele>368.8029785</ele>
        <time>2016-02-27T16:57:38Z</time>
      </trkpt>
      <trkpt lat="46.78964" lon="4.72101">
        <ele>366.3995361</ele>
        <time>2016-02-27T16:57:41Z</time>
      </trkpt>
      <trkpt lat="46.78977" lon="4.72111">
        <ele>363.0350342</ele>
        <time>2016-02-27T16:57:44Z</time>
      </trkpt>
      <trkpt lat="46.78982" lon="4.72116">
        <ele>363.0350342</ele>
        <time>2016-02-27T16:57:45Z</time>
      </trkpt>
      <trkpt lat="46.78993" lon="4.72125">
        <ele>362.0737305</ele>
        <time>2016-02-27T16:57:47Z</time>
      </trkpt>
      <trkpt lat="46.79004" lon="4.72134">
        <ele>359.6704102</ele>
        <time>2016-02-27T16:57:49Z</time>
      </trkpt>
      <trkpt lat="46.79015" lon="4.72144">
        <ele>354.8637695</ele>
        <time>2016-02-27T16:57:51Z</time>
      </trkpt>
      <trkpt lat="46.7902" lon="4.7215">
        <ele>354.8637695</ele>
        <time>2016-02-27T16:57:52Z</time>
      </trkpt>
      <trkpt lat="46.79031" lon="4.72158">
        <ele>352.4605713</ele>
        <time>2016-02-27T16:57:54Z</time>
      </trkpt>
      <trkpt lat="46.79044" lon="4.72168">
        <ele>350.057251</ele>
        <time>2016-02-27T16:57:56Z</time>
      </trkpt>
      <trkpt lat="46.79058" lon="4.7218">
        <ele>345.2506104</ele>
        <time>2016-02-27T16:57:58Z</time>
      </trkpt>
      <trkpt lat="46.79064" lon="4.72185">
        <ele>345.2506104</ele>
        <time>2016-02-27T16:57:59Z</time>
      </trkpt>
      <trkpt lat="46.79077" lon="4.72199">
        <ele>342.3666992</ele>
        <time>2016-02-27T16:58:01Z</time>
      </trkpt>
      <trkpt lat="46.79092" lon="4.72212">
        <ele>339.482666</ele>
        <time>2016-02-27T16:58:03Z</time>
      </trkpt>
      <trkpt lat="46.79104" lon="4.72228">
        <ele>338.0407715</ele>
        <time>2016-02-27T16:58:05Z</time>
      </trkpt>
      <trkpt lat="46.79121" lon="4.72239">
        <ele>334.1954346</ele>
        <time>2016-02-27T16:58:08Z</time>
      </trkpt>
      <trkpt lat="46.79132" lon="4.7225">
        <ele>331.7921143</ele>
        <time>2016-02-27T16:58:10Z</time>
      </trkpt>
      <trkpt lat="46.79136" lon="4.72253">
        <ele>330.8309326</ele>
        <time>2016-02-27T16:58:11Z</time>
      </trkpt>
      <trkpt lat="46.79159" lon="4.72272">
        <ele>326.9855957</ele>
        <time>2016-02-27T16:58:16Z</time>
      </trkpt>
      <trkpt lat="46.79165" lon="4.72277">
        <ele>326.9855957</ele>
        <time>2016-02-27T16:58:17Z</time>
      </trkpt>
      <trkpt lat="46.79177" lon="4.72288">
        <ele>326.0241699</ele>
        <time>2016-02-27T16:58:19Z</time>
      </trkpt>
      <trkpt lat="46.79183" lon="4.72292">
        <ele>324.5822754</ele>
        <time>2016-02-27T16:58:20Z</time>
      </trkpt>
      <trkpt lat="46.79193" lon="4.723">
        <ele>322.659668</ele>
        <time>2016-02-27T16:58:22Z</time>
      </trkpt>
      <trkpt lat="46.79202" lon="4.72309">
        <ele>320.2563477</ele>
        <time>2016-02-27T16:58:24Z</time>
      </trkpt>
      <trkpt lat="46.7921" lon="4.72314">
        <ele>318.8143311</ele>
        <time>2016-02-27T16:58:26Z</time>
      </trkpt>
      <trkpt lat="46.79216" lon="4.72318">
        <ele>315.9304199</ele>
        <time>2016-02-27T16:58:28Z</time>
      </trkpt>
      <trkpt lat="46.79227" lon="4.72325">
        <ele>314.4884033</ele>
        <time>2016-02-27T16:58:36Z</time>
      </trkpt>
      <trkpt lat="46.79253" lon="4.72349">
        <ele>312.5657959</ele>
        <time>2016-02-27T16:58:50Z</time>
      </trkpt>
      <trkpt lat="46.79257" lon="4.72353">
        <ele>312.5657959</ele>
        <time>2016-02-27T16:58:51Z</time>
      </trkpt>
      <trkpt lat="46.79273" lon="4.7237">
        <ele>311.1237793</ele>
        <time>2016-02-27T16:58:55Z</time>
      </trkpt>
      <trkpt lat="46.79287" lon="4.72383">
        <ele>308.720459</ele>
        <time>2016-02-27T16:58:58Z</time>
      </trkpt>
      <trkpt lat="46.79292" lon="4.72387">
        <ele>307.2785645</ele>
        <time>2016-02-27T16:58:59Z</time>
      </trkpt>
      <trkpt lat="46.79308" lon="4.724">
        <ele>305.355957</ele>
        <time>2016-02-27T16:59:02Z</time>
      </trkpt>
      <trkpt lat="46.79312" lon="4.72404">
        <ele>304.3946533</ele>
        <time>2016-02-27T16:59:03Z</time>
      </trkpt>
      <trkpt lat="46.7932" lon="4.72414">
        <ele>302.9525146</ele>
        <time>2016-02-27T16:59:05Z</time>
      </trkpt>
      <trkpt lat="46.79337" lon="4.72428">
        <ele>300.5493164</ele>
        <time>2016-02-27T16:59:09Z</time>
      </trkpt>
      <trkpt lat="46.7935" lon="4.7244">
        <ele>298.1461182</ele>
        <time>2016-02-27T16:59:12Z</time>
      </trkpt>
      <trkpt lat="46.79354" lon="4.72444">
        <ele>296.7041016</ele>
        <time>2016-02-27T16:59:13Z</time>
      </trkpt>
      <trkpt lat="46.79367" lon="4.72455">
        <ele>294.7813721</ele>
        <time>2016-02-27T16:59:16Z</time>
      </trkpt>
      <trkpt lat="46.79377" lon="4.72463">
        <ele>293.3393555</ele>
        <time>2016-02-27T16:59:18Z</time>
      </trkpt>
      <trkpt lat="46.79387" lon="4.72473">
        <ele>289.9748535</ele>
        <time>2016-02-27T16:59:20Z</time>
      </trkpt>
      <trkpt lat="46.79392" lon="4.72477">
        <ele>289.9748535</ele>
        <time>2016-02-27T16:59:21Z</time>
      </trkpt>
      <trkpt lat="46.79401" lon="4.72486">
        <ele>288.532959</ele>
        <time>2016-02-27T16:59:23Z</time>
      </trkpt>
      <trkpt lat="46.79427" lon="4.72505">
        <ele>285.1682129</ele>
        <time>2016-02-27T16:59:28Z</time>
      </trkpt>
      <trkpt lat="46.79443" lon="4.72517">
        <ele>283.7261963</ele>
        <time>2016-02-27T16:59:31Z</time>
      </trkpt>
      <trkpt lat="46.79506" lon="4.72574">
        <ele>281.8035889</ele>
        <time>2016-02-27T16:59:46Z</time>
      </trkpt>
      <trkpt lat="46.79522" lon="4.7259">
        <ele>279.4002686</ele>
        <time>2016-02-27T16:59:51Z</time>
      </trkpt>
      <trkpt lat="46.79546" lon="4.72614">
        <ele>277.958252</ele>
        <time>2016-02-27T16:59:56Z</time>
      </trkpt>
      <trkpt lat="46.79555" lon="4.72622">
        <ele>277.4776611</ele>
        <time>2016-02-27T16:59:58Z</time>
      </trkpt>
      <trkpt lat="46.79569" lon="4.72627">
        <ele>275.0744629</ele>
        <time>2016-02-27T17:00:03Z</time>
      </trkpt>
      <trkpt lat="46.7959" lon="4.72639">
        <ele>272.6711426</ele>
        <time>2016-02-27T17:00:11Z</time>
      </trkpt>
      <trkpt lat="46.79598" lon="4.72646">
        <ele>272.1904297</ele>
        <time>2016-02-27T17:00:13Z</time>
      </trkpt>
      <trkpt lat="46.79612" lon="4.72659">
        <ele>271.229126</ele>
        <time>2016-02-27T17:00:16Z</time>
      </trkpt>
      <trkpt lat="46.7963" lon="4.72674">
        <ele>268.8258057</ele>
        <time>2016-02-27T17:00:19Z</time>
      </trkpt>
      <trkpt lat="46.79643" lon="4.7268">
        <ele>266.9031982</ele>
        <time>2016-02-27T17:00:21Z</time>
      </trkpt>
      <trkpt lat="46.79659" lon="4.72697">
        <ele>263.5385742</ele>
        <time>2016-02-27T17:00:25Z</time>
      </trkpt>
      <trkpt lat="46.7966" lon="4.72701">
        <ele>263.5385742</ele>
        <time>2016-02-27T17:00:26Z</time>
      </trkpt>
      <trkpt lat="46.79666" lon="4.72707">
        <ele>262.5771484</ele>
        <time>2016-02-27T17:00:28Z</time>
      </trkpt>
      <trkpt lat="46.79674" lon="4.72718">
        <ele>260.1739502</ele>
        <time>2016-02-27T17:00:41Z</time>
      </trkpt>
      <trkpt lat="46.79684" lon="4.72736">
        <ele>260.1739502</ele>
        <time>2016-02-27T17:01:30Z</time>
      </trkpt>
      <trkpt lat="46.79689" lon="4.72741">
        <ele>258.7319336</ele>
        <time>2016-02-27T17:01:32Z</time>
      </trkpt>
      <trkpt lat="46.79705" lon="4.72738">
        <ele>256.8093262</ele>
        <time>2016-02-27T17:01:35Z</time>
      </trkpt>
      <trkpt lat="46.79721" lon="4.72747">
        <ele>255.8480225</ele>
        <time>2016-02-27T17:01:38Z</time>
      </trkpt>
      <trkpt lat="46.79766" lon="4.72783">
        <ele>254.4060059</ele>
        <time>2016-02-27T17:01:46Z</time>
      </trkpt>
      <trkpt lat="46.79784" lon="4.72811">
        <ele>253.4447021</ele>
        <time>2016-02-27T17:01:50Z</time>
      </trkpt>
      <trkpt lat="46.7985" lon="4.72942">
        <ele>251.5220947</ele>
        <time>2016-02-27T17:02:07Z</time>
      </trkpt>
      <trkpt lat="46.79884" lon="4.72974">
        <ele>248.6381836</ele>
        <time>2016-02-27T17:02:13Z</time>
      </trkpt>
      <trkpt lat="46.79901" lon="4.72985">
        <ele>248.1575928</ele>
        <time>2016-02-27T17:02:16Z</time>
      </trkpt>
      <trkpt lat="46.79919" lon="4.73">
        <ele>247.6767578</ele>
        <time>2016-02-27T17:02:19Z</time>
      </trkpt>
      <trkpt lat="46.79947" lon="4.73033">
        <ele>246.7154541</ele>
        <time>2016-02-27T17:02:24Z</time>
      </trkpt>
      <trkpt lat="46.80042" lon="4.73105">
        <ele>242.8702393</ele>
        <time>2016-02-27T17:02:37Z</time>
      </trkpt>
      <trkpt lat="46.80051" lon="4.73111">
        <ele>242.8702393</ele>
        <time>2016-02-27T17:02:38Z</time>
      </trkpt>
      <trkpt lat="46.80068" lon="4.73122">
        <ele>242.3896484</ele>
        <time>2016-02-27T17:02:40Z</time>
      </trkpt>
      <trkpt lat="46.80084" lon="4.73137">
        <ele>241.9089355</ele>
        <time>2016-02-27T17:02:42Z</time>
      </trkpt>
      <trkpt lat="46.80123" lon="4.73194">
        <ele>239.9862061</ele>
        <time>2016-02-27T17:02:48Z</time>
      </trkpt>
      <trkpt lat="46.80171" lon="4.73247">
        <ele>237.1022949</ele>
        <time>2016-02-27T17:02:55Z</time>
      </trkpt>
      <trkpt lat="46.80246" lon="4.73313">
        <ele>234.2183838</ele>
        <time>2016-02-27T17:03:06Z</time>
      </trkpt>
      <trkpt lat="46.80276" lon="4.73342">
        <ele>232.7764893</ele>
        <time>2016-02-27T17:03:12Z</time>
      </trkpt>
      <trkpt lat="46.80282" lon="4.73347">
        <ele>231.8149414</ele>
        <time>2016-02-27T17:03:14Z</time>
      </trkpt>
      <trkpt lat="46.80281" lon="4.73357">
        <ele>231.3343506</ele>
        <time>2016-02-27T17:03:20Z</time>
      </trkpt>
      <trkpt lat="46.80252" lon="4.73389">
        <ele>232.2957764</ele>
        <time>2016-02-27T17:03:41Z</time>
      </trkpt>
      <trkpt lat="46.80232" lon="4.73416">
        <ele>235.6602783</ele>
        <time>2016-02-27T17:03:56Z</time>
      </trkpt>
      <trkpt lat="46.80228" lon="4.73429">
        <ele>237.1022949</ele>
        <time>2016-02-27T17:04:01Z</time>
      </trkpt>
      <trkpt lat="46.8023" lon="4.73437">
        <ele>237.5828857</ele>
        <time>2016-02-27T17:04:06Z</time>
      </trkpt>
      <trkpt lat="46.8024" lon="4.73458">
        <ele>237.1022949</ele>
        <time>2016-02-27T17:04:15Z</time>
      </trkpt>
      <trkpt lat="46.80264" lon="4.735">
        <ele>236.6217041</ele>
        <time>2016-02-27T17:04:25Z</time>
      </trkpt>
      <trkpt lat="46.80284" lon="4.73523">
        <ele>234.6990967</ele>
        <time>2016-02-27T17:04:30Z</time>
      </trkpt>
      <trkpt lat="46.80311" lon="4.73552">
        <ele>232.7764893</ele>
        <time>2016-02-27T17:04:37Z</time>
      </trkpt>
      <trkpt lat="46.80356" lon="4.73616">
        <ele>229.4117432</ele>
        <time>2016-02-27T17:04:47Z</time>
      </trkpt>
      <trkpt lat="46.80374" lon="4.73639">
        <ele>228.4504395</ele>
        <time>2016-02-27T17:04:51Z</time>
      </trkpt>
      <trkpt lat="46.80413" lon="4.73689">
        <ele>227.0085449</ele>
        <time>2016-02-27T17:05:00Z</time>
      </trkpt>
      <trkpt lat="46.80432" lon="4.73699">
        <ele>225.5665283</ele>
        <time>2016-02-27T17:05:04Z</time>
      </trkpt>
      <trkpt lat="46.80503" lon="4.7372">
        <ele>222.2017822</ele>
        <time>2016-02-27T17:05:15Z</time>
      </trkpt>
      <trkpt lat="46.80534" lon="4.7374">
        <ele>221.2406006</ele>
        <time>2016-02-27T17:05:21Z</time>
      </trkpt>
      <trkpt lat="46.80556" lon="4.73753">
        <ele>221.2406006</ele>
        <time>2016-02-27T17:05:26Z</time>
      </trkpt>
      <trkpt lat="46.80587" lon="4.73791">
        <ele>221.7211914</ele>
        <time>2016-02-27T17:05:39Z</time>
      </trkpt>
      <trkpt lat="46.80597" lon="4.7385">
        <ele>225.0859375</ele>
        <time>2016-02-27T17:05:57Z</time>
      </trkpt>
      <trkpt lat="46.80595" lon="4.73902">
        <ele>228.4504395</ele>
        <time>2016-02-27T17:06:12Z</time>
      </trkpt>
      <trkpt lat="46.80595" lon="4.73909">
        <ele>228.9311523</ele>
        <time>2016-02-27T17:06:14Z</time>
      </trkpt>
      <trkpt lat="46.80589" lon="4.73942">
        <ele>232.7764893</ele>
        <time>2016-02-27T17:06:24Z</time>
      </trkpt>
      <trkpt lat="46.80596" lon="4.73979">
        <ele>235.1796875</ele>
        <time>2016-02-27T17:06:38Z</time>
      </trkpt>
    </trkseg>
  </trk>
</gpx>